<?xml version="1.0" encoding="UTF-8" standalone="no" ?>
<gpx xmlns="http://www.topografix.com/GPX/1/1" xmlns:xsi="http://www.w3.org/2001/XMLSchema-instance" xsi:schemaLocation="http://www.topografix.com/GPX/1/1 http://www.topografix.com/GPX/1/1/gpx.xsd" version="1.1" creator="VisuGPX - https://www.visugpx.com">
  <metadata>
    <name>83-D-Carcès-Entrecasteaux</name>
    <desc><![CDATA[83-D-Carcès-Entrecasteaux : la Bresque a trouvé l\'Argens
Dimanche 22 janvier 2012]]></desc>
  </metadata>
  <trk>
    <name><![CDATA[2012-01-22-carces]]></name>
    <trkseg>
      <trkpt lat="43.48646" lon="6.2458">
        <ele>127.677742</ele>
        <time>2012-01-22T07:51:12Z</time>
      </trkpt>
      <trkpt lat="43.48646" lon="6.2458">
        <ele>127.572303</ele>
        <time>2012-01-22T07:51:13Z</time>
      </trkpt>
      <trkpt lat="43.48647" lon="6.24592">
        <ele>127.7</ele>
        <time>2012-01-22T08:04:49Z</time>
      </trkpt>
      <trkpt lat="43.48644" lon="6.24604">
        <ele>127.8</ele>
        <time>2012-01-22T08:07:12Z</time>
      </trkpt>
      <trkpt lat="43.48647" lon="6.24591">
        <ele>127.4</ele>
        <time>2012-01-22T08:09:07Z</time>
      </trkpt>
      <trkpt lat="43.48648" lon="6.24569">
        <ele>127.1</ele>
        <time>2012-01-22T08:09:21Z</time>
      </trkpt>
      <trkpt lat="43.4865" lon="6.24558">
        <ele>126.8</ele>
        <time>2012-01-22T08:09:27Z</time>
      </trkpt>
      <trkpt lat="43.4865" lon="6.24547">
        <ele>126.6</ele>
        <time>2012-01-22T08:09:33Z</time>
      </trkpt>
      <trkpt lat="43.48651" lon="6.24536">
        <ele>126.7</ele>
        <time>2012-01-22T08:09:39Z</time>
      </trkpt>
      <trkpt lat="43.48651" lon="6.24524">
        <ele>125</ele>
        <time>2012-01-22T08:09:45Z</time>
      </trkpt>
      <trkpt lat="43.48651" lon="6.24513">
        <ele>125.7</ele>
        <time>2012-01-22T08:09:51Z</time>
      </trkpt>
      <trkpt lat="43.48652" lon="6.24502">
        <ele>124.9</ele>
        <time>2012-01-22T08:09:57Z</time>
      </trkpt>
      <trkpt lat="43.48653" lon="6.24491">
        <ele>124.8</ele>
        <time>2012-01-22T08:10:03Z</time>
      </trkpt>
      <trkpt lat="43.48654" lon="6.2448">
        <ele>124.7</ele>
        <time>2012-01-22T08:10:09Z</time>
      </trkpt>
      <trkpt lat="43.48654" lon="6.24478">
        <ele>124.4</ele>
        <time>2012-01-22T08:10:10Z</time>
      </trkpt>
      <trkpt lat="43.48655" lon="6.24457">
        <ele>123.6</ele>
        <time>2012-01-22T08:10:21Z</time>
      </trkpt>
      <trkpt lat="43.48656" lon="6.24446">
        <ele>123.4</ele>
        <time>2012-01-22T08:10:27Z</time>
      </trkpt>
      <trkpt lat="43.48657" lon="6.24435">
        <ele>124.5</ele>
        <time>2012-01-22T08:10:33Z</time>
      </trkpt>
      <trkpt lat="43.48657" lon="6.24424">
        <ele>122.8</ele>
        <time>2012-01-22T08:10:39Z</time>
      </trkpt>
      <trkpt lat="43.48658" lon="6.24413">
        <ele>122.9</ele>
        <time>2012-01-22T08:10:45Z</time>
      </trkpt>
      <trkpt lat="43.48659" lon="6.24402">
        <ele>122.6</ele>
        <time>2012-01-22T08:10:51Z</time>
      </trkpt>
      <trkpt lat="43.4866" lon="6.24391">
        <ele>123</ele>
        <time>2012-01-22T08:10:57Z</time>
      </trkpt>
      <trkpt lat="43.48662" lon="6.2438">
        <ele>122.7</ele>
        <time>2012-01-22T08:11:03Z</time>
      </trkpt>
      <trkpt lat="43.48663" lon="6.24368">
        <ele>121.4</ele>
        <time>2012-01-22T08:11:10Z</time>
      </trkpt>
      <trkpt lat="43.48663" lon="6.24366">
        <ele>121.4</ele>
        <time>2012-01-22T08:11:11Z</time>
      </trkpt>
      <trkpt lat="43.48666" lon="6.24344">
        <ele>120.9</ele>
        <time>2012-01-22T08:11:24Z</time>
      </trkpt>
      <trkpt lat="43.48666" lon="6.24332">
        <ele>121.2</ele>
        <time>2012-01-22T08:11:31Z</time>
      </trkpt>
      <trkpt lat="43.48665" lon="6.2432">
        <ele>120.9</ele>
        <time>2012-01-22T08:11:39Z</time>
      </trkpt>
      <trkpt lat="43.48661" lon="6.2431">
        <ele>120.6</ele>
        <time>2012-01-22T08:11:48Z</time>
      </trkpt>
      <trkpt lat="43.48656" lon="6.24301">
        <ele>120.2</ele>
        <time>2012-01-22T08:11:55Z</time>
      </trkpt>
      <trkpt lat="43.48649" lon="6.24295">
        <ele>119.2</ele>
        <time>2012-01-22T08:12:02Z</time>
      </trkpt>
      <trkpt lat="43.48641" lon="6.24289">
        <ele>118</ele>
        <time>2012-01-22T08:12:09Z</time>
      </trkpt>
      <trkpt lat="43.48633" lon="6.24287">
        <ele>117.4</ele>
        <time>2012-01-22T08:12:15Z</time>
      </trkpt>
      <trkpt lat="43.48631" lon="6.24286">
        <ele>117.2</ele>
        <time>2012-01-22T08:12:16Z</time>
      </trkpt>
      <trkpt lat="43.48617" lon="6.2428">
        <ele>116.9</ele>
        <time>2012-01-22T08:12:27Z</time>
      </trkpt>
      <trkpt lat="43.4861" lon="6.24273">
        <ele>115.7</ele>
        <time>2012-01-22T08:12:34Z</time>
      </trkpt>
      <trkpt lat="43.48603" lon="6.24267">
        <ele>115.1</ele>
        <time>2012-01-22T08:12:42Z</time>
      </trkpt>
      <trkpt lat="43.48595" lon="6.24262">
        <ele>112.9</ele>
        <time>2012-01-22T08:12:49Z</time>
      </trkpt>
      <trkpt lat="43.48587" lon="6.24257">
        <ele>113.5</ele>
        <time>2012-01-22T08:12:56Z</time>
      </trkpt>
      <trkpt lat="43.4858" lon="6.24249">
        <ele>113.3</ele>
        <time>2012-01-22T08:13:03Z</time>
      </trkpt>
      <trkpt lat="43.48575" lon="6.2424">
        <ele>113.1</ele>
        <time>2012-01-22T08:13:10Z</time>
      </trkpt>
      <trkpt lat="43.48569" lon="6.24231">
        <ele>113.1</ele>
        <time>2012-01-22T08:13:17Z</time>
      </trkpt>
      <trkpt lat="43.48568" lon="6.2423">
        <ele>113.2</ele>
        <time>2012-01-22T08:13:18Z</time>
      </trkpt>
      <trkpt lat="43.48562" lon="6.24212">
        <ele>111.7</ele>
        <time>2012-01-22T08:13:29Z</time>
      </trkpt>
      <trkpt lat="43.48559" lon="6.24201">
        <ele>110.6</ele>
        <time>2012-01-22T08:13:35Z</time>
      </trkpt>
      <trkpt lat="43.48556" lon="6.2419">
        <ele>110</ele>
        <time>2012-01-22T08:13:42Z</time>
      </trkpt>
      <trkpt lat="43.48553" lon="6.24179">
        <ele>110.5</ele>
        <time>2012-01-22T08:13:49Z</time>
      </trkpt>
      <trkpt lat="43.48547" lon="6.2417">
        <ele>110.2</ele>
        <time>2012-01-22T08:13:56Z</time>
      </trkpt>
      <trkpt lat="43.48543" lon="6.2416">
        <ele>110.4</ele>
        <time>2012-01-22T08:14:03Z</time>
      </trkpt>
      <trkpt lat="43.48542" lon="6.24148">
        <ele>109.8</ele>
        <time>2012-01-22T08:14:10Z</time>
      </trkpt>
      <trkpt lat="43.48541" lon="6.24137">
        <ele>109.3</ele>
        <time>2012-01-22T08:14:18Z</time>
      </trkpt>
      <trkpt lat="43.4854" lon="6.24135">
        <ele>109</ele>
        <time>2012-01-22T08:14:19Z</time>
      </trkpt>
      <trkpt lat="43.48533" lon="6.24117">
        <ele>110.3</ele>
        <time>2012-01-22T08:14:33Z</time>
      </trkpt>
      <trkpt lat="43.4853" lon="6.24107">
        <ele>110.8</ele>
        <time>2012-01-22T08:14:39Z</time>
      </trkpt>
      <trkpt lat="43.48527" lon="6.24097">
        <ele>111.6</ele>
        <time>2012-01-22T08:14:45Z</time>
      </trkpt>
      <trkpt lat="43.48523" lon="6.24087">
        <ele>111.9</ele>
        <time>2012-01-22T08:14:51Z</time>
      </trkpt>
      <trkpt lat="43.48518" lon="6.24078">
        <ele>112.3</ele>
        <time>2012-01-22T08:14:57Z</time>
      </trkpt>
      <trkpt lat="43.48514" lon="6.24069">
        <ele>112.6</ele>
        <time>2012-01-22T08:15:03Z</time>
      </trkpt>
      <trkpt lat="43.4851" lon="6.24058">
        <ele>111.5</ele>
        <time>2012-01-22T08:15:10Z</time>
      </trkpt>
      <trkpt lat="43.48505" lon="6.24048">
        <ele>109.9</ele>
        <time>2012-01-22T08:15:17Z</time>
      </trkpt>
      <trkpt lat="43.48501" lon="6.24037">
        <ele>111</ele>
        <time>2012-01-22T08:15:24Z</time>
      </trkpt>
      <trkpt lat="43.485" lon="6.24036">
        <ele>111.1</ele>
        <time>2012-01-22T08:15:25Z</time>
      </trkpt>
      <trkpt lat="43.48494" lon="6.24018">
        <ele>111.9</ele>
        <time>2012-01-22T08:15:36Z</time>
      </trkpt>
      <trkpt lat="43.48492" lon="6.24006">
        <ele>111.1</ele>
        <time>2012-01-22T08:15:43Z</time>
      </trkpt>
      <trkpt lat="43.48489" lon="6.23996">
        <ele>110.4</ele>
        <time>2012-01-22T08:15:50Z</time>
      </trkpt>
      <trkpt lat="43.48486" lon="6.23985">
        <ele>111.5</ele>
        <time>2012-01-22T08:15:56Z</time>
      </trkpt>
      <trkpt lat="43.48482" lon="6.23975">
        <ele>111.2</ele>
        <time>2012-01-22T08:16:03Z</time>
      </trkpt>
      <trkpt lat="43.48478" lon="6.23965">
        <ele>110.5</ele>
        <time>2012-01-22T08:16:10Z</time>
      </trkpt>
      <trkpt lat="43.48473" lon="6.23955">
        <ele>109.9</ele>
        <time>2012-01-22T08:16:17Z</time>
      </trkpt>
      <trkpt lat="43.48467" lon="6.23946">
        <ele>109.7</ele>
        <time>2012-01-22T08:16:24Z</time>
      </trkpt>
      <trkpt lat="43.48462" lon="6.23936">
        <ele>109</ele>
        <time>2012-01-22T08:16:31Z</time>
      </trkpt>
      <trkpt lat="43.48462" lon="6.23935">
        <ele>109.1</ele>
        <time>2012-01-22T08:16:32Z</time>
      </trkpt>
      <trkpt lat="43.48455" lon="6.23914">
        <ele>108.8</ele>
        <time>2012-01-22T08:16:47Z</time>
      </trkpt>
      <trkpt lat="43.48451" lon="6.23904">
        <ele>109</ele>
        <time>2012-01-22T08:16:54Z</time>
      </trkpt>
      <trkpt lat="43.48448" lon="6.23893">
        <ele>108.5</ele>
        <time>2012-01-22T08:17:01Z</time>
      </trkpt>
      <trkpt lat="43.48445" lon="6.23883">
        <ele>108</ele>
        <time>2012-01-22T08:17:08Z</time>
      </trkpt>
      <trkpt lat="43.48442" lon="6.23873">
        <ele>106.8</ele>
        <time>2012-01-22T08:17:15Z</time>
      </trkpt>
      <trkpt lat="43.48439" lon="6.23861">
        <ele>105.2</ele>
        <time>2012-01-22T08:17:23Z</time>
      </trkpt>
      <trkpt lat="43.48438" lon="6.2385">
        <ele>104.7</ele>
        <time>2012-01-22T08:17:29Z</time>
      </trkpt>
      <trkpt lat="43.48438" lon="6.23839">
        <ele>104.2</ele>
        <time>2012-01-22T08:17:36Z</time>
      </trkpt>
      <trkpt lat="43.48438" lon="6.23837">
        <ele>104.2</ele>
        <time>2012-01-22T08:17:37Z</time>
      </trkpt>
      <trkpt lat="43.48435" lon="6.23817">
        <ele>103.9</ele>
        <time>2012-01-22T08:17:48Z</time>
      </trkpt>
      <trkpt lat="43.48435" lon="6.23806">
        <ele>104.3</ele>
        <time>2012-01-22T08:17:55Z</time>
      </trkpt>
      <trkpt lat="43.48436" lon="6.23795">
        <ele>103.3</ele>
        <time>2012-01-22T08:18:02Z</time>
      </trkpt>
      <trkpt lat="43.48436" lon="6.23783">
        <ele>103.7</ele>
        <time>2012-01-22T08:18:09Z</time>
      </trkpt>
      <trkpt lat="43.48435" lon="6.23772">
        <ele>101.9</ele>
        <time>2012-01-22T08:18:16Z</time>
      </trkpt>
      <trkpt lat="43.48432" lon="6.2376">
        <ele>103</ele>
        <time>2012-01-22T08:18:23Z</time>
      </trkpt>
      <trkpt lat="43.48428" lon="6.2375">
        <ele>104.3</ele>
        <time>2012-01-22T08:18:30Z</time>
      </trkpt>
      <trkpt lat="43.48426" lon="6.23738">
        <ele>104.4</ele>
        <time>2012-01-22T08:18:37Z</time>
      </trkpt>
      <trkpt lat="43.48426" lon="6.23736">
        <ele>104.4</ele>
        <time>2012-01-22T08:18:38Z</time>
      </trkpt>
      <trkpt lat="43.48424" lon="6.23715">
        <ele>103.9</ele>
        <time>2012-01-22T08:18:50Z</time>
      </trkpt>
      <trkpt lat="43.48422" lon="6.23703">
        <ele>103.2</ele>
        <time>2012-01-22T08:18:58Z</time>
      </trkpt>
      <trkpt lat="43.4842" lon="6.23691">
        <ele>104.6</ele>
        <time>2012-01-22T08:19:06Z</time>
      </trkpt>
      <trkpt lat="43.48417" lon="6.2368">
        <ele>104.2</ele>
        <time>2012-01-22T08:19:14Z</time>
      </trkpt>
      <trkpt lat="43.48412" lon="6.2367">
        <ele>105.2</ele>
        <time>2012-01-22T08:19:21Z</time>
      </trkpt>
      <trkpt lat="43.48405" lon="6.23662">
        <ele>105</ele>
        <time>2012-01-22T08:19:29Z</time>
      </trkpt>
      <trkpt lat="43.48397" lon="6.23658">
        <ele>103.7</ele>
        <time>2012-01-22T08:19:37Z</time>
      </trkpt>
      <trkpt lat="43.48388" lon="6.23657">
        <ele>101.9</ele>
        <time>2012-01-22T08:19:48Z</time>
      </trkpt>
      <trkpt lat="43.48387" lon="6.23657">
        <ele>102</ele>
        <time>2012-01-22T08:19:49Z</time>
      </trkpt>
      <trkpt lat="43.48371" lon="6.23655">
        <ele>100.2</ele>
        <time>2012-01-22T08:20:02Z</time>
      </trkpt>
      <trkpt lat="43.48363" lon="6.2365">
        <ele>100</ele>
        <time>2012-01-22T08:20:09Z</time>
      </trkpt>
      <trkpt lat="43.48356" lon="6.23641">
        <ele>99.9</ele>
        <time>2012-01-22T08:20:16Z</time>
      </trkpt>
      <trkpt lat="43.48352" lon="6.23631">
        <ele>100.2</ele>
        <time>2012-01-22T08:20:23Z</time>
      </trkpt>
      <trkpt lat="43.4835" lon="6.23619">
        <ele>100.7</ele>
        <time>2012-01-22T08:20:30Z</time>
      </trkpt>
      <trkpt lat="43.48349" lon="6.23607">
        <ele>100.7</ele>
        <time>2012-01-22T08:20:39Z</time>
      </trkpt>
      <trkpt lat="43.48353" lon="6.23596">
        <ele>101</ele>
        <time>2012-01-22T08:21:18Z</time>
      </trkpt>
      <trkpt lat="43.48353" lon="6.23595">
        <ele>100.9</ele>
        <time>2012-01-22T08:21:19Z</time>
      </trkpt>
      <trkpt lat="43.48356" lon="6.23574">
        <ele>101.6</ele>
        <time>2012-01-22T08:21:34Z</time>
      </trkpt>
      <trkpt lat="43.48357" lon="6.23563">
        <ele>102.1</ele>
        <time>2012-01-22T08:21:41Z</time>
      </trkpt>
      <trkpt lat="43.48361" lon="6.23552">
        <ele>101.3</ele>
        <time>2012-01-22T08:21:48Z</time>
      </trkpt>
      <trkpt lat="43.48365" lon="6.23543">
        <ele>101.5</ele>
        <time>2012-01-22T08:21:54Z</time>
      </trkpt>
      <trkpt lat="43.48368" lon="6.23532">
        <ele>101.5</ele>
        <time>2012-01-22T08:22:01Z</time>
      </trkpt>
      <trkpt lat="43.4837" lon="6.23522">
        <ele>101.4</ele>
        <time>2012-01-22T08:22:08Z</time>
      </trkpt>
      <trkpt lat="43.48372" lon="6.23511">
        <ele>105.4</ele>
        <time>2012-01-22T08:22:14Z</time>
      </trkpt>
      <trkpt lat="43.48371" lon="6.235">
        <ele>115.2</ele>
        <time>2012-01-22T08:22:21Z</time>
      </trkpt>
      <trkpt lat="43.48371" lon="6.23498">
        <ele>115.3</ele>
        <time>2012-01-22T08:22:22Z</time>
      </trkpt>
      <trkpt lat="43.48361" lon="6.23482">
        <ele>115.6</ele>
        <time>2012-01-22T08:22:36Z</time>
      </trkpt>
      <trkpt lat="43.48353" lon="6.23477">
        <ele>115.5</ele>
        <time>2012-01-22T08:22:44Z</time>
      </trkpt>
      <trkpt lat="43.48345" lon="6.23473">
        <ele>116</ele>
        <time>2012-01-22T08:22:49Z</time>
      </trkpt>
      <trkpt lat="43.48338" lon="6.23468">
        <ele>116.2</ele>
        <time>2012-01-22T08:22:55Z</time>
      </trkpt>
      <trkpt lat="43.48332" lon="6.2346">
        <ele>115.7</ele>
        <time>2012-01-22T08:23:02Z</time>
      </trkpt>
      <trkpt lat="43.48328" lon="6.2345">
        <ele>115.8</ele>
        <time>2012-01-22T08:23:09Z</time>
      </trkpt>
      <trkpt lat="43.48328" lon="6.23438">
        <ele>116.3</ele>
        <time>2012-01-22T08:23:17Z</time>
      </trkpt>
      <trkpt lat="43.48328" lon="6.23427">
        <ele>116.5</ele>
        <time>2012-01-22T08:23:22Z</time>
      </trkpt>
      <trkpt lat="43.48328" lon="6.23425">
        <ele>116.1</ele>
        <time>2012-01-22T08:23:23Z</time>
      </trkpt>
      <trkpt lat="43.48328" lon="6.23404">
        <ele>116.5</ele>
        <time>2012-01-22T08:23:36Z</time>
      </trkpt>
      <trkpt lat="43.48327" lon="6.23392">
        <ele>116.3</ele>
        <time>2012-01-22T08:23:42Z</time>
      </trkpt>
      <trkpt lat="43.48328" lon="6.23382">
        <ele>116.7</ele>
        <time>2012-01-22T08:23:48Z</time>
      </trkpt>
      <trkpt lat="43.48328" lon="6.23371">
        <ele>116.2</ele>
        <time>2012-01-22T08:23:54Z</time>
      </trkpt>
      <trkpt lat="43.48328" lon="6.23359">
        <ele>116.5</ele>
        <time>2012-01-22T08:24:00Z</time>
      </trkpt>
      <trkpt lat="43.48328" lon="6.23348">
        <ele>117.3</ele>
        <time>2012-01-22T08:24:06Z</time>
      </trkpt>
      <trkpt lat="43.48324" lon="6.23337">
        <ele>117.1</ele>
        <time>2012-01-22T08:24:13Z</time>
      </trkpt>
      <trkpt lat="43.48321" lon="6.23327">
        <ele>117</ele>
        <time>2012-01-22T08:24:20Z</time>
      </trkpt>
      <trkpt lat="43.48317" lon="6.23316">
        <ele>116.4</ele>
        <time>2012-01-22T08:24:31Z</time>
      </trkpt>
      <trkpt lat="43.48317" lon="6.23315">
        <ele>116.1</ele>
        <time>2012-01-22T08:24:32Z</time>
      </trkpt>
      <trkpt lat="43.48314" lon="6.23293">
        <ele>114.5</ele>
        <time>2012-01-22T08:25:08Z</time>
      </trkpt>
      <trkpt lat="43.48319" lon="6.23284">
        <ele>115</ele>
        <time>2012-01-22T08:25:15Z</time>
      </trkpt>
      <trkpt lat="43.48319" lon="6.23297">
        <ele>116</ele>
        <time>2012-01-22T08:26:12Z</time>
      </trkpt>
      <trkpt lat="43.48319" lon="6.23298">
        <ele>115.8</ele>
        <time>2012-01-22T08:26:13Z</time>
      </trkpt>
      <trkpt lat="43.4831" lon="6.23308">
        <ele>114.3</ele>
        <time>2012-01-22T08:26:31Z</time>
      </trkpt>
      <trkpt lat="43.48302" lon="6.23308">
        <ele>112.4</ele>
        <time>2012-01-22T08:26:44Z</time>
      </trkpt>
      <trkpt lat="43.48293" lon="6.23308">
        <ele>112</ele>
        <time>2012-01-22T08:26:55Z</time>
      </trkpt>
      <trkpt lat="43.48284" lon="6.23309">
        <ele>110.8</ele>
        <time>2012-01-22T08:27:01Z</time>
      </trkpt>
      <trkpt lat="43.48275" lon="6.23311">
        <ele>109.5</ele>
        <time>2012-01-22T08:27:12Z</time>
      </trkpt>
      <trkpt lat="43.48266" lon="6.23315">
        <ele>107.5</ele>
        <time>2012-01-22T08:27:24Z</time>
      </trkpt>
      <trkpt lat="43.48266" lon="6.23316">
        <ele>107.7</ele>
        <time>2012-01-22T08:27:25Z</time>
      </trkpt>
      <trkpt lat="43.4825" lon="6.2332">
        <ele>106.3</ele>
        <time>2012-01-22T08:27:41Z</time>
      </trkpt>
      <trkpt lat="43.48242" lon="6.23323">
        <ele>106.5</ele>
        <time>2012-01-22T08:27:49Z</time>
      </trkpt>
      <trkpt lat="43.48234" lon="6.23324">
        <ele>106.9</ele>
        <time>2012-01-22T08:27:56Z</time>
      </trkpt>
      <trkpt lat="43.48225" lon="6.23328">
        <ele>106.6</ele>
        <time>2012-01-22T08:28:08Z</time>
      </trkpt>
      <trkpt lat="43.48218" lon="6.23335">
        <ele>105.9</ele>
        <time>2012-01-22T08:28:20Z</time>
      </trkpt>
      <trkpt lat="43.48213" lon="6.23343">
        <ele>106.3</ele>
        <time>2012-01-22T08:28:34Z</time>
      </trkpt>
      <trkpt lat="43.48212" lon="6.23345">
        <ele>106.2</ele>
        <time>2012-01-22T08:28:35Z</time>
      </trkpt>
      <trkpt lat="43.48201" lon="6.23359">
        <ele>107.3</ele>
        <time>2012-01-22T08:28:58Z</time>
      </trkpt>
      <trkpt lat="43.48194" lon="6.23367">
        <ele>108.1</ele>
        <time>2012-01-22T08:29:09Z</time>
      </trkpt>
      <trkpt lat="43.48187" lon="6.23375">
        <ele>108.1</ele>
        <time>2012-01-22T08:29:17Z</time>
      </trkpt>
      <trkpt lat="43.48181" lon="6.23384">
        <ele>108.1</ele>
        <time>2012-01-22T08:29:34Z</time>
      </trkpt>
      <trkpt lat="43.48175" lon="6.23392">
        <ele>107.9</ele>
        <time>2012-01-22T08:29:53Z</time>
      </trkpt>
      <trkpt lat="43.48175" lon="6.23393">
        <ele>107.8</ele>
        <time>2012-01-22T08:29:54Z</time>
      </trkpt>
      <trkpt lat="43.48164" lon="6.2341">
        <ele>107.6</ele>
        <time>2012-01-22T08:30:24Z</time>
      </trkpt>
      <trkpt lat="43.48159" lon="6.2342">
        <ele>108.7</ele>
        <time>2012-01-22T08:30:33Z</time>
      </trkpt>
      <trkpt lat="43.48157" lon="6.23432">
        <ele>107.9</ele>
        <time>2012-01-22T08:30:54Z</time>
      </trkpt>
      <trkpt lat="43.48156" lon="6.23432">
        <ele>107.9</ele>
        <time>2012-01-22T08:30:55Z</time>
      </trkpt>
      <trkpt lat="43.48152" lon="6.23454">
        <ele>107.8</ele>
        <time>2012-01-22T08:31:33Z</time>
      </trkpt>
      <trkpt lat="43.48151" lon="6.23466">
        <ele>108.8</ele>
        <time>2012-01-22T08:31:42Z</time>
      </trkpt>
      <trkpt lat="43.48145" lon="6.23475">
        <ele>108.9</ele>
        <time>2012-01-22T08:31:52Z</time>
      </trkpt>
      <trkpt lat="43.48139" lon="6.23483">
        <ele>107.9</ele>
        <time>2012-01-22T08:32:02Z</time>
      </trkpt>
      <trkpt lat="43.48138" lon="6.23484">
        <ele>107.8</ele>
        <time>2012-01-22T08:32:03Z</time>
      </trkpt>
      <trkpt lat="43.48128" lon="6.235">
        <ele>106.7</ele>
        <time>2012-01-22T08:32:16Z</time>
      </trkpt>
      <trkpt lat="43.48122" lon="6.23508">
        <ele>107</ele>
        <time>2012-01-22T08:32:23Z</time>
      </trkpt>
      <trkpt lat="43.48121" lon="6.2352">
        <ele>107.2</ele>
        <time>2012-01-22T08:32:31Z</time>
      </trkpt>
      <trkpt lat="43.48118" lon="6.23531">
        <ele>108.6</ele>
        <time>2012-01-22T08:32:39Z</time>
      </trkpt>
      <trkpt lat="43.48117" lon="6.23542">
        <ele>108.3</ele>
        <time>2012-01-22T08:32:46Z</time>
      </trkpt>
      <trkpt lat="43.48116" lon="6.23553">
        <ele>107.8</ele>
        <time>2012-01-22T08:32:55Z</time>
      </trkpt>
      <trkpt lat="43.48116" lon="6.23565">
        <ele>107.4</ele>
        <time>2012-01-22T08:33:04Z</time>
      </trkpt>
      <trkpt lat="43.48116" lon="6.23566">
        <ele>106.7</ele>
        <time>2012-01-22T08:33:05Z</time>
      </trkpt>
      <trkpt lat="43.48107" lon="6.23584">
        <ele>108.4</ele>
        <time>2012-01-22T08:33:19Z</time>
      </trkpt>
      <trkpt lat="43.48107" lon="6.23597">
        <ele>108.7</ele>
        <time>2012-01-22T08:33:39Z</time>
      </trkpt>
      <trkpt lat="43.48105" lon="6.23608">
        <ele>107.9</ele>
        <time>2012-01-22T08:34:05Z</time>
      </trkpt>
      <trkpt lat="43.48099" lon="6.23616">
        <ele>108.2</ele>
        <time>2012-01-22T08:34:13Z</time>
      </trkpt>
      <trkpt lat="43.48098" lon="6.23617">
        <ele>107.8</ele>
        <time>2012-01-22T08:34:14Z</time>
      </trkpt>
      <trkpt lat="43.48093" lon="6.23639">
        <ele>107.7</ele>
        <time>2012-01-22T08:34:38Z</time>
      </trkpt>
      <trkpt lat="43.48089" lon="6.23649">
        <ele>106.8</ele>
        <time>2012-01-22T08:34:47Z</time>
      </trkpt>
      <trkpt lat="43.48083" lon="6.23658">
        <ele>107.5</ele>
        <time>2012-01-22T08:34:55Z</time>
      </trkpt>
      <trkpt lat="43.48079" lon="6.23669">
        <ele>106.9</ele>
        <time>2012-01-22T08:35:03Z</time>
      </trkpt>
      <trkpt lat="43.48074" lon="6.23679">
        <ele>107.1</ele>
        <time>2012-01-22T08:35:12Z</time>
      </trkpt>
      <trkpt lat="43.48068" lon="6.23688">
        <ele>106.8</ele>
        <time>2012-01-22T08:35:21Z</time>
      </trkpt>
      <trkpt lat="43.48068" lon="6.23688">
        <ele>106.4</ele>
        <time>2012-01-22T08:35:22Z</time>
      </trkpt>
      <trkpt lat="43.48054" lon="6.23681">
        <ele>108.3</ele>
        <time>2012-01-22T08:37:21Z</time>
      </trkpt>
      <trkpt lat="43.48053" lon="6.23681">
        <ele>108.3</ele>
        <time>2012-01-22T08:37:22Z</time>
      </trkpt>
      <trkpt lat="43.48051" lon="6.23657">
        <ele>108.5</ele>
        <time>2012-01-22T08:37:59Z</time>
      </trkpt>
      <trkpt lat="43.48055" lon="6.23648">
        <ele>109</ele>
        <time>2012-01-22T08:38:09Z</time>
      </trkpt>
      <trkpt lat="43.48059" lon="6.23638">
        <ele>109.5</ele>
        <time>2012-01-22T08:38:17Z</time>
      </trkpt>
      <trkpt lat="43.48063" lon="6.23628">
        <ele>109.2</ele>
        <time>2012-01-22T08:38:27Z</time>
      </trkpt>
      <trkpt lat="43.48064" lon="6.23627">
        <ele>109.2</ele>
        <time>2012-01-22T08:38:27Z</time>
      </trkpt>
      <trkpt lat="43.48074" lon="6.23609">
        <ele>108.1</ele>
        <time>2012-01-22T08:39:04Z</time>
      </trkpt>
      <trkpt lat="43.48078" lon="6.23599">
        <ele>107.2</ele>
        <time>2012-01-22T08:39:15Z</time>
      </trkpt>
      <trkpt lat="43.48083" lon="6.23591">
        <ele>108.2</ele>
        <time>2012-01-22T08:39:22Z</time>
      </trkpt>
      <trkpt lat="43.48088" lon="6.23581">
        <ele>106.4</ele>
        <time>2012-01-22T08:39:28Z</time>
      </trkpt>
      <trkpt lat="43.48089" lon="6.2358">
        <ele>106.5</ele>
        <time>2012-01-22T08:39:29Z</time>
      </trkpt>
      <trkpt lat="43.48094" lon="6.2356">
        <ele>107.5</ele>
        <time>2012-01-22T08:39:45Z</time>
      </trkpt>
      <trkpt lat="43.48096" lon="6.23548">
        <ele>106.8</ele>
        <time>2012-01-22T08:39:56Z</time>
      </trkpt>
      <trkpt lat="43.48097" lon="6.23536">
        <ele>107.5</ele>
        <time>2012-01-22T08:40:11Z</time>
      </trkpt>
      <trkpt lat="43.48099" lon="6.23525">
        <ele>107.3</ele>
        <time>2012-01-22T08:40:23Z</time>
      </trkpt>
      <trkpt lat="43.481" lon="6.23513">
        <ele>108</ele>
        <time>2012-01-22T08:40:41Z</time>
      </trkpt>
      <trkpt lat="43.48101" lon="6.23512">
        <ele>108</ele>
        <time>2012-01-22T08:40:42Z</time>
      </trkpt>
      <trkpt lat="43.48105" lon="6.2349">
        <ele>107.1</ele>
        <time>2012-01-22T08:41:11Z</time>
      </trkpt>
      <trkpt lat="43.48106" lon="6.23478">
        <ele>107.1</ele>
        <time>2012-01-22T08:41:29Z</time>
      </trkpt>
      <trkpt lat="43.4811" lon="6.23467">
        <ele>108.3</ele>
        <time>2012-01-22T08:41:46Z</time>
      </trkpt>
      <trkpt lat="43.4811" lon="6.23466">
        <ele>108.2</ele>
        <time>2012-01-22T08:41:47Z</time>
      </trkpt>
      <trkpt lat="43.4812" lon="6.23447">
        <ele>109.2</ele>
        <time>2012-01-22T08:42:22Z</time>
      </trkpt>
      <trkpt lat="43.48126" lon="6.23438">
        <ele>108.8</ele>
        <time>2012-01-22T08:42:36Z</time>
      </trkpt>
      <trkpt lat="43.4813" lon="6.23428">
        <ele>109.5</ele>
        <time>2012-01-22T08:43:36Z</time>
      </trkpt>
      <trkpt lat="43.48131" lon="6.23427">
        <ele>109.5</ele>
        <time>2012-01-22T08:43:37Z</time>
      </trkpt>
      <trkpt lat="43.4814" lon="6.23425">
        <ele>106.7</ele>
        <time>2012-01-22T08:45:16Z</time>
      </trkpt>
      <trkpt lat="43.48154" lon="6.23417">
        <ele>107.8</ele>
        <time>2012-01-22T08:45:48Z</time>
      </trkpt>
      <trkpt lat="43.48157" lon="6.23406">
        <ele>107</ele>
        <time>2012-01-22T08:45:59Z</time>
      </trkpt>
      <trkpt lat="43.48164" lon="6.23399">
        <ele>107.3</ele>
        <time>2012-01-22T08:46:15Z</time>
      </trkpt>
      <trkpt lat="43.48169" lon="6.23389">
        <ele>109.5</ele>
        <time>2012-01-22T08:46:43Z</time>
      </trkpt>
      <trkpt lat="43.48169" lon="6.23388">
        <ele>109.6</ele>
        <time>2012-01-22T08:46:44Z</time>
      </trkpt>
      <trkpt lat="43.48182" lon="6.23374">
        <ele>108.5</ele>
        <time>2012-01-22T08:47:04Z</time>
      </trkpt>
      <trkpt lat="43.48187" lon="6.23366">
        <ele>108.6</ele>
        <time>2012-01-22T08:47:11Z</time>
      </trkpt>
      <trkpt lat="43.48192" lon="6.23357">
        <ele>106.8</ele>
        <time>2012-01-22T08:47:18Z</time>
      </trkpt>
      <trkpt lat="43.48197" lon="6.23348">
        <ele>106.3</ele>
        <time>2012-01-22T08:47:25Z</time>
      </trkpt>
      <trkpt lat="43.48204" lon="6.23341">
        <ele>107</ele>
        <time>2012-01-22T08:47:32Z</time>
      </trkpt>
      <trkpt lat="43.48211" lon="6.23334">
        <ele>106.7</ele>
        <time>2012-01-22T08:47:42Z</time>
      </trkpt>
      <trkpt lat="43.48218" lon="6.23328">
        <ele>107</ele>
        <time>2012-01-22T08:47:49Z</time>
      </trkpt>
      <trkpt lat="43.48219" lon="6.23327">
        <ele>107</ele>
        <time>2012-01-22T08:47:50Z</time>
      </trkpt>
      <trkpt lat="43.48229" lon="6.23312">
        <ele>107.8</ele>
        <time>2012-01-22T08:48:05Z</time>
      </trkpt>
      <trkpt lat="43.48238" lon="6.23309">
        <ele>108.1</ele>
        <time>2012-01-22T08:48:13Z</time>
      </trkpt>
      <trkpt lat="43.48246" lon="6.2331">
        <ele>109.3</ele>
        <time>2012-01-22T08:48:21Z</time>
      </trkpt>
      <trkpt lat="43.48255" lon="6.23309">
        <ele>110.1</ele>
        <time>2012-01-22T08:48:28Z</time>
      </trkpt>
      <trkpt lat="43.48262" lon="6.23306">
        <ele>109.6</ele>
        <time>2012-01-22T08:48:34Z</time>
      </trkpt>
      <trkpt lat="43.4827" lon="6.23303">
        <ele>110.6</ele>
        <time>2012-01-22T08:48:41Z</time>
      </trkpt>
      <trkpt lat="43.48279" lon="6.23301">
        <ele>111.8</ele>
        <time>2012-01-22T08:48:49Z</time>
      </trkpt>
      <trkpt lat="43.48288" lon="6.23301">
        <ele>113.4</ele>
        <time>2012-01-22T08:48:59Z</time>
      </trkpt>
      <trkpt lat="43.48288" lon="6.23301">
        <ele>113.5</ele>
        <time>2012-01-22T08:49:00Z</time>
      </trkpt>
      <trkpt lat="43.48305" lon="6.23305">
        <ele>116.4</ele>
        <time>2012-01-22T08:49:16Z</time>
      </trkpt>
      <trkpt lat="43.48311" lon="6.23297">
        <ele>116.5</ele>
        <time>2012-01-22T08:49:26Z</time>
      </trkpt>
      <trkpt lat="43.48313" lon="6.23286">
        <ele>116.9</ele>
        <time>2012-01-22T08:49:34Z</time>
      </trkpt>
      <trkpt lat="43.48318" lon="6.23276">
        <ele>116.2</ele>
        <time>2012-01-22T08:49:44Z</time>
      </trkpt>
      <trkpt lat="43.48323" lon="6.23267">
        <ele>114.8</ele>
        <time>2012-01-22T08:50:07Z</time>
      </trkpt>
      <trkpt lat="43.48324" lon="6.23266">
        <ele>114.8</ele>
        <time>2012-01-22T08:50:08Z</time>
      </trkpt>
      <trkpt lat="43.48337" lon="6.23252">
        <ele>115.4</ele>
        <time>2012-01-22T08:50:26Z</time>
      </trkpt>
      <trkpt lat="43.48345" lon="6.2325">
        <ele>116.2</ele>
        <time>2012-01-22T08:50:35Z</time>
      </trkpt>
      <trkpt lat="43.48352" lon="6.23252">
        <ele>116.6</ele>
        <time>2012-01-22T08:50:41Z</time>
      </trkpt>
      <trkpt lat="43.48361" lon="6.23255">
        <ele>117.2</ele>
        <time>2012-01-22T08:50:48Z</time>
      </trkpt>
      <trkpt lat="43.48369" lon="6.23257">
        <ele>117.2</ele>
        <time>2012-01-22T08:50:55Z</time>
      </trkpt>
      <trkpt lat="43.48377" lon="6.2326">
        <ele>117.9</ele>
        <time>2012-01-22T08:51:03Z</time>
      </trkpt>
      <trkpt lat="43.48385" lon="6.23261">
        <ele>117.6</ele>
        <time>2012-01-22T08:51:10Z</time>
      </trkpt>
      <trkpt lat="43.48387" lon="6.23262">
        <ele>117.7</ele>
        <time>2012-01-22T08:51:11Z</time>
      </trkpt>
      <trkpt lat="43.48402" lon="6.23265">
        <ele>117.9</ele>
        <time>2012-01-22T08:51:24Z</time>
      </trkpt>
      <trkpt lat="43.4841" lon="6.23267">
        <ele>118.2</ele>
        <time>2012-01-22T08:51:31Z</time>
      </trkpt>
      <trkpt lat="43.48419" lon="6.23268">
        <ele>118.6</ele>
        <time>2012-01-22T08:51:38Z</time>
      </trkpt>
      <trkpt lat="43.48427" lon="6.2327">
        <ele>119.1</ele>
        <time>2012-01-22T08:51:45Z</time>
      </trkpt>
      <trkpt lat="43.48435" lon="6.23272">
        <ele>117.9</ele>
        <time>2012-01-22T08:51:52Z</time>
      </trkpt>
      <trkpt lat="43.48444" lon="6.23274">
        <ele>117.6</ele>
        <time>2012-01-22T08:51:59Z</time>
      </trkpt>
      <trkpt lat="43.48451" lon="6.23276">
        <ele>117.6</ele>
        <time>2012-01-22T08:52:05Z</time>
      </trkpt>
      <trkpt lat="43.4846" lon="6.23278">
        <ele>116.8</ele>
        <time>2012-01-22T08:52:11Z</time>
      </trkpt>
      <trkpt lat="43.48461" lon="6.23278">
        <ele>116.8</ele>
        <time>2012-01-22T08:52:12Z</time>
      </trkpt>
      <trkpt lat="43.48476" lon="6.2328">
        <ele>117</ele>
        <time>2012-01-22T08:52:24Z</time>
      </trkpt>
      <trkpt lat="43.48484" lon="6.23282">
        <ele>117.8</ele>
        <time>2012-01-22T08:52:31Z</time>
      </trkpt>
      <trkpt lat="43.48493" lon="6.23285">
        <ele>117.8</ele>
        <time>2012-01-22T08:52:38Z</time>
      </trkpt>
      <trkpt lat="43.48501" lon="6.23287">
        <ele>117.3</ele>
        <time>2012-01-22T08:52:45Z</time>
      </trkpt>
      <trkpt lat="43.4851" lon="6.2329">
        <ele>116.4</ele>
        <time>2012-01-22T08:52:52Z</time>
      </trkpt>
      <trkpt lat="43.48518" lon="6.23292">
        <ele>117.1</ele>
        <time>2012-01-22T08:52:59Z</time>
      </trkpt>
      <trkpt lat="43.48526" lon="6.23294">
        <ele>116.8</ele>
        <time>2012-01-22T08:53:06Z</time>
      </trkpt>
      <trkpt lat="43.48534" lon="6.23296">
        <ele>118</ele>
        <time>2012-01-22T08:53:13Z</time>
      </trkpt>
      <trkpt lat="43.48535" lon="6.23296">
        <ele>118.3</ele>
        <time>2012-01-22T08:53:14Z</time>
      </trkpt>
      <trkpt lat="43.48551" lon="6.23299">
        <ele>119.1</ele>
        <time>2012-01-22T08:53:28Z</time>
      </trkpt>
      <trkpt lat="43.48559" lon="6.233">
        <ele>119.9</ele>
        <time>2012-01-22T08:53:36Z</time>
      </trkpt>
      <trkpt lat="43.48567" lon="6.23303">
        <ele>121</ele>
        <time>2012-01-22T08:53:45Z</time>
      </trkpt>
      <trkpt lat="43.48576" lon="6.23305">
        <ele>120.5</ele>
        <time>2012-01-22T08:54:03Z</time>
      </trkpt>
      <trkpt lat="43.48581" lon="6.23296">
        <ele>122.6</ele>
        <time>2012-01-22T08:54:14Z</time>
      </trkpt>
      <trkpt lat="43.48581" lon="6.23295">
        <ele>122.9</ele>
        <time>2012-01-22T08:54:15Z</time>
      </trkpt>
      <trkpt lat="43.48583" lon="6.23273">
        <ele>124</ele>
        <time>2012-01-22T08:54:34Z</time>
      </trkpt>
      <trkpt lat="43.48583" lon="6.23261">
        <ele>125.3</ele>
        <time>2012-01-22T08:54:43Z</time>
      </trkpt>
      <trkpt lat="43.48583" lon="6.23249">
        <ele>125.7</ele>
        <time>2012-01-22T08:54:52Z</time>
      </trkpt>
      <trkpt lat="43.48584" lon="6.23238">
        <ele>126.5</ele>
        <time>2012-01-22T08:55:01Z</time>
      </trkpt>
      <trkpt lat="43.48586" lon="6.23227">
        <ele>127.3</ele>
        <time>2012-01-22T08:55:10Z</time>
      </trkpt>
      <trkpt lat="43.48588" lon="6.23215">
        <ele>128.7</ele>
        <time>2012-01-22T08:55:20Z</time>
      </trkpt>
      <trkpt lat="43.48588" lon="6.23214">
        <ele>129</ele>
        <time>2012-01-22T08:55:21Z</time>
      </trkpt>
      <trkpt lat="43.48591" lon="6.23193">
        <ele>130</ele>
        <time>2012-01-22T08:55:36Z</time>
      </trkpt>
      <trkpt lat="43.48593" lon="6.23182">
        <ele>130.7</ele>
        <time>2012-01-22T08:55:44Z</time>
      </trkpt>
      <trkpt lat="43.48595" lon="6.23171">
        <ele>129.8</ele>
        <time>2012-01-22T08:55:51Z</time>
      </trkpt>
      <trkpt lat="43.48597" lon="6.23159">
        <ele>129.9</ele>
        <time>2012-01-22T08:55:59Z</time>
      </trkpt>
      <trkpt lat="43.48598" lon="6.23147">
        <ele>129.3</ele>
        <time>2012-01-22T08:56:23Z</time>
      </trkpt>
      <trkpt lat="43.48598" lon="6.23147">
        <ele>129.5</ele>
        <time>2012-01-22T08:56:24Z</time>
      </trkpt>
      <trkpt lat="43.48613" lon="6.23156">
        <ele>131.3</ele>
        <time>2012-01-22T08:56:59Z</time>
      </trkpt>
      <trkpt lat="43.48616" lon="6.23167">
        <ele>131.6</ele>
        <time>2012-01-22T08:57:06Z</time>
      </trkpt>
      <trkpt lat="43.48619" lon="6.23178">
        <ele>130.8</ele>
        <time>2012-01-22T08:57:13Z</time>
      </trkpt>
      <trkpt lat="43.4862" lon="6.23189">
        <ele>130.5</ele>
        <time>2012-01-22T08:57:19Z</time>
      </trkpt>
      <trkpt lat="43.48623" lon="6.23201">
        <ele>130.6</ele>
        <time>2012-01-22T08:57:26Z</time>
      </trkpt>
      <trkpt lat="43.48623" lon="6.23202">
        <ele>130.7</ele>
        <time>2012-01-22T08:57:27Z</time>
      </trkpt>
      <trkpt lat="43.48627" lon="6.23224">
        <ele>130.1</ele>
        <time>2012-01-22T08:57:41Z</time>
      </trkpt>
      <trkpt lat="43.48634" lon="6.23229">
        <ele>130</ele>
        <time>2012-01-22T08:57:49Z</time>
      </trkpt>
      <trkpt lat="43.48642" lon="6.23232">
        <ele>130.8</ele>
        <time>2012-01-22T08:57:57Z</time>
      </trkpt>
      <trkpt lat="43.48649" lon="6.23239">
        <ele>131.8</ele>
        <time>2012-01-22T08:58:06Z</time>
      </trkpt>
      <trkpt lat="43.48655" lon="6.23248">
        <ele>132.9</ele>
        <time>2012-01-22T08:58:15Z</time>
      </trkpt>
      <trkpt lat="43.48663" lon="6.23255">
        <ele>134.3</ele>
        <time>2012-01-22T08:58:25Z</time>
      </trkpt>
      <trkpt lat="43.48668" lon="6.23264">
        <ele>133.9</ele>
        <time>2012-01-22T08:58:36Z</time>
      </trkpt>
      <trkpt lat="43.48669" lon="6.23265">
        <ele>134.2</ele>
        <time>2012-01-22T08:58:37Z</time>
      </trkpt>
      <trkpt lat="43.48675" lon="6.23283">
        <ele>136.7</ele>
        <time>2012-01-22T08:59:00Z</time>
      </trkpt>
      <trkpt lat="43.48678" lon="6.23295">
        <ele>136.7</ele>
        <time>2012-01-22T08:59:07Z</time>
      </trkpt>
      <trkpt lat="43.48679" lon="6.23306">
        <ele>136.4</ele>
        <time>2012-01-22T08:59:14Z</time>
      </trkpt>
      <trkpt lat="43.4868" lon="6.23318">
        <ele>135.8</ele>
        <time>2012-01-22T08:59:22Z</time>
      </trkpt>
      <trkpt lat="43.4868" lon="6.2333">
        <ele>135.4</ele>
        <time>2012-01-22T08:59:31Z</time>
      </trkpt>
      <trkpt lat="43.48683" lon="6.23341">
        <ele>135.7</ele>
        <time>2012-01-22T08:59:39Z</time>
      </trkpt>
      <trkpt lat="43.48683" lon="6.23342">
        <ele>136</ele>
        <time>2012-01-22T08:59:40Z</time>
      </trkpt>
      <trkpt lat="43.4869" lon="6.23362">
        <ele>137</ele>
        <time>2012-01-22T08:59:53Z</time>
      </trkpt>
      <trkpt lat="43.48695" lon="6.23371">
        <ele>138</ele>
        <time>2012-01-22T09:00:00Z</time>
      </trkpt>
      <trkpt lat="43.487" lon="6.23381">
        <ele>139.3</ele>
        <time>2012-01-22T09:00:08Z</time>
      </trkpt>
      <trkpt lat="43.48707" lon="6.23389">
        <ele>140.2</ele>
        <time>2012-01-22T09:00:19Z</time>
      </trkpt>
      <trkpt lat="43.48715" lon="6.23387">
        <ele>145.2</ele>
        <time>2012-01-22T09:02:25Z</time>
      </trkpt>
      <trkpt lat="43.48716" lon="6.23386">
        <ele>145.7</ele>
        <time>2012-01-22T09:02:26Z</time>
      </trkpt>
      <trkpt lat="43.48726" lon="6.23369">
        <ele>149.8</ele>
        <time>2012-01-22T09:02:45Z</time>
      </trkpt>
      <trkpt lat="43.4873" lon="6.23358">
        <ele>151.7</ele>
        <time>2012-01-22T09:02:56Z</time>
      </trkpt>
      <trkpt lat="43.48736" lon="6.23349">
        <ele>154.1</ele>
        <time>2012-01-22T09:03:08Z</time>
      </trkpt>
      <trkpt lat="43.48743" lon="6.23343">
        <ele>156.5</ele>
        <time>2012-01-22T09:03:19Z</time>
      </trkpt>
      <trkpt lat="43.48752" lon="6.23343">
        <ele>158.9</ele>
        <time>2012-01-22T09:03:32Z</time>
      </trkpt>
      <trkpt lat="43.48752" lon="6.23343">
        <ele>159</ele>
        <time>2012-01-22T09:03:33Z</time>
      </trkpt>
      <trkpt lat="43.48769" lon="6.23348">
        <ele>162.2</ele>
        <time>2012-01-22T09:07:26Z</time>
      </trkpt>
      <trkpt lat="43.48769" lon="6.23347">
        <ele>162.3</ele>
        <time>2012-01-22T09:07:27Z</time>
      </trkpt>
      <trkpt lat="43.48769" lon="6.23327">
        <ele>164.3</ele>
        <time>2012-01-22T09:08:17Z</time>
      </trkpt>
      <trkpt lat="43.48769" lon="6.23315">
        <ele>165.4</ele>
        <time>2012-01-22T09:08:29Z</time>
      </trkpt>
      <trkpt lat="43.48769" lon="6.23314">
        <ele>165.7</ele>
        <time>2012-01-22T09:08:30Z</time>
      </trkpt>
      <trkpt lat="43.48762" lon="6.23293">
        <ele>165.3</ele>
        <time>2012-01-22T09:08:47Z</time>
      </trkpt>
      <trkpt lat="43.48757" lon="6.23283">
        <ele>165.8</ele>
        <time>2012-01-22T09:08:56Z</time>
      </trkpt>
      <trkpt lat="43.48756" lon="6.23271">
        <ele>165.8</ele>
        <time>2012-01-22T09:09:04Z</time>
      </trkpt>
      <trkpt lat="43.48757" lon="6.2326">
        <ele>165.4</ele>
        <time>2012-01-22T09:09:12Z</time>
      </trkpt>
      <trkpt lat="43.48758" lon="6.23249">
        <ele>166</ele>
        <time>2012-01-22T09:09:19Z</time>
      </trkpt>
      <trkpt lat="43.48756" lon="6.23238">
        <ele>166</ele>
        <time>2012-01-22T09:09:26Z</time>
      </trkpt>
      <trkpt lat="43.48756" lon="6.23226">
        <ele>166.4</ele>
        <time>2012-01-22T09:09:33Z</time>
      </trkpt>
      <trkpt lat="43.48757" lon="6.23224">
        <ele>166.5</ele>
        <time>2012-01-22T09:09:34Z</time>
      </trkpt>
      <trkpt lat="43.48759" lon="6.23204">
        <ele>165.7</ele>
        <time>2012-01-22T09:09:45Z</time>
      </trkpt>
      <trkpt lat="43.48761" lon="6.23192">
        <ele>165.8</ele>
        <time>2012-01-22T09:09:52Z</time>
      </trkpt>
      <trkpt lat="43.48761" lon="6.2318">
        <ele>165.2</ele>
        <time>2012-01-22T09:09:59Z</time>
      </trkpt>
      <trkpt lat="43.48761" lon="6.23168">
        <ele>165.8</ele>
        <time>2012-01-22T09:10:07Z</time>
      </trkpt>
      <trkpt lat="43.48761" lon="6.23157">
        <ele>165.5</ele>
        <time>2012-01-22T09:10:14Z</time>
      </trkpt>
      <trkpt lat="43.48762" lon="6.23144">
        <ele>165.8</ele>
        <time>2012-01-22T09:10:22Z</time>
      </trkpt>
      <trkpt lat="43.48763" lon="6.23132">
        <ele>165.6</ele>
        <time>2012-01-22T09:10:30Z</time>
      </trkpt>
      <trkpt lat="43.48762" lon="6.23122">
        <ele>165.7</ele>
        <time>2012-01-22T09:10:37Z</time>
      </trkpt>
      <trkpt lat="43.48761" lon="6.2312">
        <ele>165.7</ele>
        <time>2012-01-22T09:10:38Z</time>
      </trkpt>
      <trkpt lat="43.48762" lon="6.23099">
        <ele>164.5</ele>
        <time>2012-01-22T09:10:52Z</time>
      </trkpt>
      <trkpt lat="43.48763" lon="6.23087">
        <ele>165.3</ele>
        <time>2012-01-22T09:11:01Z</time>
      </trkpt>
      <trkpt lat="43.48763" lon="6.23076">
        <ele>164.4</ele>
        <time>2012-01-22T09:11:09Z</time>
      </trkpt>
      <trkpt lat="43.48764" lon="6.23064">
        <ele>163.9</ele>
        <time>2012-01-22T09:11:17Z</time>
      </trkpt>
      <trkpt lat="43.48763" lon="6.23053">
        <ele>163.5</ele>
        <time>2012-01-22T09:11:25Z</time>
      </trkpt>
      <trkpt lat="43.48764" lon="6.23041">
        <ele>164.3</ele>
        <time>2012-01-22T09:11:33Z</time>
      </trkpt>
      <trkpt lat="43.48766" lon="6.2303">
        <ele>165</ele>
        <time>2012-01-22T09:11:41Z</time>
      </trkpt>
      <trkpt lat="43.48766" lon="6.23029">
        <ele>165</ele>
        <time>2012-01-22T09:11:42Z</time>
      </trkpt>
      <trkpt lat="43.48771" lon="6.23008">
        <ele>165.8</ele>
        <time>2012-01-22T09:11:58Z</time>
      </trkpt>
      <trkpt lat="43.48774" lon="6.22996">
        <ele>166</ele>
        <time>2012-01-22T09:12:06Z</time>
      </trkpt>
      <trkpt lat="43.48776" lon="6.22985">
        <ele>166.1</ele>
        <time>2012-01-22T09:12:14Z</time>
      </trkpt>
      <trkpt lat="43.48781" lon="6.22976">
        <ele>166.2</ele>
        <time>2012-01-22T09:12:20Z</time>
      </trkpt>
      <trkpt lat="43.48785" lon="6.22966">
        <ele>165.7</ele>
        <time>2012-01-22T09:12:27Z</time>
      </trkpt>
      <trkpt lat="43.48789" lon="6.22957">
        <ele>165.1</ele>
        <time>2012-01-22T09:12:34Z</time>
      </trkpt>
      <trkpt lat="43.48791" lon="6.22946">
        <ele>165.1</ele>
        <time>2012-01-22T09:12:41Z</time>
      </trkpt>
      <trkpt lat="43.48794" lon="6.22935">
        <ele>164.6</ele>
        <time>2012-01-22T09:12:49Z</time>
      </trkpt>
      <trkpt lat="43.48794" lon="6.22934">
        <ele>164.4</ele>
        <time>2012-01-22T09:12:50Z</time>
      </trkpt>
      <trkpt lat="43.488" lon="6.22913">
        <ele>165.7</ele>
        <time>2012-01-22T09:13:07Z</time>
      </trkpt>
      <trkpt lat="43.48802" lon="6.22902">
        <ele>166.1</ele>
        <time>2012-01-22T09:13:16Z</time>
      </trkpt>
      <trkpt lat="43.48805" lon="6.22891">
        <ele>166.5</ele>
        <time>2012-01-22T09:13:25Z</time>
      </trkpt>
      <trkpt lat="43.48809" lon="6.2288">
        <ele>167.1</ele>
        <time>2012-01-22T09:13:33Z</time>
      </trkpt>
      <trkpt lat="43.48813" lon="6.2287">
        <ele>167.2</ele>
        <time>2012-01-22T09:13:42Z</time>
      </trkpt>
      <trkpt lat="43.48817" lon="6.22858">
        <ele>167.6</ele>
        <time>2012-01-22T09:13:51Z</time>
      </trkpt>
      <trkpt lat="43.48817" lon="6.22857">
        <ele>167.8</ele>
        <time>2012-01-22T09:13:52Z</time>
      </trkpt>
      <trkpt lat="43.48825" lon="6.22837">
        <ele>168.9</ele>
        <time>2012-01-22T09:14:09Z</time>
      </trkpt>
      <trkpt lat="43.48828" lon="6.22826">
        <ele>168.9</ele>
        <time>2012-01-22T09:14:17Z</time>
      </trkpt>
      <trkpt lat="43.48832" lon="6.22816">
        <ele>169.9</ele>
        <time>2012-01-22T09:14:26Z</time>
      </trkpt>
      <trkpt lat="43.48836" lon="6.22805">
        <ele>170.1</ele>
        <time>2012-01-22T09:14:35Z</time>
      </trkpt>
      <trkpt lat="43.48839" lon="6.22793">
        <ele>169.2</ele>
        <time>2012-01-22T09:14:45Z</time>
      </trkpt>
      <trkpt lat="43.48841" lon="6.22781">
        <ele>168.3</ele>
        <time>2012-01-22T09:14:55Z</time>
      </trkpt>
      <trkpt lat="43.48842" lon="6.22781">
        <ele>168</ele>
        <time>2012-01-22T09:14:56Z</time>
      </trkpt>
      <trkpt lat="43.48844" lon="6.22759">
        <ele>167.8</ele>
        <time>2012-01-22T09:15:15Z</time>
      </trkpt>
      <trkpt lat="43.48846" lon="6.22747">
        <ele>167.9</ele>
        <time>2012-01-22T09:15:24Z</time>
      </trkpt>
      <trkpt lat="43.48848" lon="6.22736">
        <ele>167.3</ele>
        <time>2012-01-22T09:15:32Z</time>
      </trkpt>
      <trkpt lat="43.48849" lon="6.22724">
        <ele>167.4</ele>
        <time>2012-01-22T09:15:38Z</time>
      </trkpt>
      <trkpt lat="43.48849" lon="6.22713">
        <ele>167.8</ele>
        <time>2012-01-22T09:15:43Z</time>
      </trkpt>
      <trkpt lat="43.48849" lon="6.22702">
        <ele>167.6</ele>
        <time>2012-01-22T09:15:49Z</time>
      </trkpt>
      <trkpt lat="43.48849" lon="6.22691">
        <ele>167.3</ele>
        <time>2012-01-22T09:15:55Z</time>
      </trkpt>
      <trkpt lat="43.48849" lon="6.22689">
        <ele>167.4</ele>
        <time>2012-01-22T09:15:56Z</time>
      </trkpt>
      <trkpt lat="43.48854" lon="6.22668">
        <ele>167.7</ele>
        <time>2012-01-22T09:16:12Z</time>
      </trkpt>
      <trkpt lat="43.48857" lon="6.22657">
        <ele>167.9</ele>
        <time>2012-01-22T09:16:21Z</time>
      </trkpt>
      <trkpt lat="43.48858" lon="6.22645">
        <ele>169</ele>
        <time>2012-01-22T09:16:29Z</time>
      </trkpt>
      <trkpt lat="43.48856" lon="6.22635">
        <ele>169.2</ele>
        <time>2012-01-22T09:16:36Z</time>
      </trkpt>
      <trkpt lat="43.48855" lon="6.22624">
        <ele>168.9</ele>
        <time>2012-01-22T09:16:43Z</time>
      </trkpt>
      <trkpt lat="43.48856" lon="6.22612">
        <ele>169.5</ele>
        <time>2012-01-22T09:16:55Z</time>
      </trkpt>
      <trkpt lat="43.48859" lon="6.226">
        <ele>169.3</ele>
        <time>2012-01-22T09:17:02Z</time>
      </trkpt>
      <trkpt lat="43.48859" lon="6.22599">
        <ele>169.5</ele>
        <time>2012-01-22T09:17:03Z</time>
      </trkpt>
      <trkpt lat="43.48863" lon="6.22577">
        <ele>169.4</ele>
        <time>2012-01-22T09:17:19Z</time>
      </trkpt>
      <trkpt lat="43.48864" lon="6.22566">
        <ele>169.2</ele>
        <time>2012-01-22T09:17:30Z</time>
      </trkpt>
      <trkpt lat="43.48868" lon="6.22555">
        <ele>170.2</ele>
        <time>2012-01-22T09:17:43Z</time>
      </trkpt>
      <trkpt lat="43.48875" lon="6.2255">
        <ele>169.1</ele>
        <time>2012-01-22T09:18:26Z</time>
      </trkpt>
      <trkpt lat="43.48876" lon="6.2255">
        <ele>169.2</ele>
        <time>2012-01-22T09:18:27Z</time>
      </trkpt>
      <trkpt lat="43.48889" lon="6.22563">
        <ele>168.7</ele>
        <time>2012-01-22T09:18:44Z</time>
      </trkpt>
      <trkpt lat="43.48895" lon="6.22555">
        <ele>168.1</ele>
        <time>2012-01-22T09:18:52Z</time>
      </trkpt>
      <trkpt lat="43.48902" lon="6.22547">
        <ele>167.3</ele>
        <time>2012-01-22T09:19:00Z</time>
      </trkpt>
      <trkpt lat="43.4891" lon="6.22543">
        <ele>165.9</ele>
        <time>2012-01-22T09:19:09Z</time>
      </trkpt>
      <trkpt lat="43.48919" lon="6.2254">
        <ele>164.2</ele>
        <time>2012-01-22T09:19:18Z</time>
      </trkpt>
      <trkpt lat="43.48926" lon="6.22535">
        <ele>162.5</ele>
        <time>2012-01-22T09:19:27Z</time>
      </trkpt>
      <trkpt lat="43.48927" lon="6.22535">
        <ele>162.3</ele>
        <time>2012-01-22T09:19:28Z</time>
      </trkpt>
      <trkpt lat="43.48942" lon="6.22526">
        <ele>160.1</ele>
        <time>2012-01-22T09:19:45Z</time>
      </trkpt>
      <trkpt lat="43.48949" lon="6.2252">
        <ele>159.6</ele>
        <time>2012-01-22T09:19:53Z</time>
      </trkpt>
      <trkpt lat="43.48956" lon="6.22513">
        <ele>157.6</ele>
        <time>2012-01-22T09:20:02Z</time>
      </trkpt>
      <trkpt lat="43.48962" lon="6.22504">
        <ele>158</ele>
        <time>2012-01-22T09:20:11Z</time>
      </trkpt>
      <trkpt lat="43.48968" lon="6.22496">
        <ele>156.7</ele>
        <time>2012-01-22T09:20:20Z</time>
      </trkpt>
      <trkpt lat="43.48974" lon="6.22487">
        <ele>154.3</ele>
        <time>2012-01-22T09:20:29Z</time>
      </trkpt>
      <trkpt lat="43.48975" lon="6.22487">
        <ele>154.3</ele>
        <time>2012-01-22T09:20:30Z</time>
      </trkpt>
      <trkpt lat="43.48984" lon="6.22469">
        <ele>151.5</ele>
        <time>2012-01-22T09:20:49Z</time>
      </trkpt>
      <trkpt lat="43.4899" lon="6.2246">
        <ele>150.7</ele>
        <time>2012-01-22T09:20:58Z</time>
      </trkpt>
      <trkpt lat="43.48996" lon="6.22451">
        <ele>149.3</ele>
        <time>2012-01-22T09:21:07Z</time>
      </trkpt>
      <trkpt lat="43.49002" lon="6.22443">
        <ele>148.9</ele>
        <time>2012-01-22T09:21:16Z</time>
      </trkpt>
      <trkpt lat="43.49009" lon="6.22435">
        <ele>148.6</ele>
        <time>2012-01-22T09:21:24Z</time>
      </trkpt>
      <trkpt lat="43.49015" lon="6.22427">
        <ele>147.4</ele>
        <time>2012-01-22T09:21:30Z</time>
      </trkpt>
      <trkpt lat="43.49016" lon="6.22426">
        <ele>147.4</ele>
        <time>2012-01-22T09:21:31Z</time>
      </trkpt>
      <trkpt lat="43.49029" lon="6.22415">
        <ele>146.2</ele>
        <time>2012-01-22T09:21:46Z</time>
      </trkpt>
      <trkpt lat="43.49036" lon="6.22408">
        <ele>144.3</ele>
        <time>2012-01-22T09:21:54Z</time>
      </trkpt>
      <trkpt lat="43.49043" lon="6.22402">
        <ele>144</ele>
        <time>2012-01-22T09:22:02Z</time>
      </trkpt>
      <trkpt lat="43.4905" lon="6.22394">
        <ele>143.1</ele>
        <time>2012-01-22T09:22:10Z</time>
      </trkpt>
      <trkpt lat="43.49055" lon="6.22385">
        <ele>142.5</ele>
        <time>2012-01-22T09:22:19Z</time>
      </trkpt>
      <trkpt lat="43.49062" lon="6.22377">
        <ele>142.2</ele>
        <time>2012-01-22T09:22:27Z</time>
      </trkpt>
      <trkpt lat="43.49068" lon="6.22386">
        <ele>140.3</ele>
        <time>2012-01-22T09:23:06Z</time>
      </trkpt>
      <trkpt lat="43.49067" lon="6.22387">
        <ele>140.1</ele>
        <time>2012-01-22T09:23:07Z</time>
      </trkpt>
      <trkpt lat="43.49059" lon="6.22407">
        <ele>138.5</ele>
        <time>2012-01-22T09:23:24Z</time>
      </trkpt>
      <trkpt lat="43.49055" lon="6.22418">
        <ele>137.8</ele>
        <time>2012-01-22T09:23:33Z</time>
      </trkpt>
      <trkpt lat="43.4905" lon="6.22427">
        <ele>137.9</ele>
        <time>2012-01-22T09:23:40Z</time>
      </trkpt>
      <trkpt lat="43.49047" lon="6.22438">
        <ele>137.3</ele>
        <time>2012-01-22T09:23:49Z</time>
      </trkpt>
      <trkpt lat="43.49043" lon="6.22448">
        <ele>135.9</ele>
        <time>2012-01-22T09:23:58Z</time>
      </trkpt>
      <trkpt lat="43.49038" lon="6.22458">
        <ele>135.6</ele>
        <time>2012-01-22T09:24:06Z</time>
      </trkpt>
      <trkpt lat="43.49034" lon="6.22469">
        <ele>133.5</ele>
        <time>2012-01-22T09:24:15Z</time>
      </trkpt>
      <trkpt lat="43.49033" lon="6.2247">
        <ele>133.5</ele>
        <time>2012-01-22T09:24:16Z</time>
      </trkpt>
      <trkpt lat="43.49028" lon="6.22491">
        <ele>131.5</ele>
        <time>2012-01-22T09:24:32Z</time>
      </trkpt>
      <trkpt lat="43.49028" lon="6.22503">
        <ele>130.2</ele>
        <time>2012-01-22T09:24:40Z</time>
      </trkpt>
      <trkpt lat="43.49025" lon="6.22514">
        <ele>129.2</ele>
        <time>2012-01-22T09:24:47Z</time>
      </trkpt>
      <trkpt lat="43.49022" lon="6.22526">
        <ele>126.7</ele>
        <time>2012-01-22T09:25:01Z</time>
      </trkpt>
      <trkpt lat="43.49022" lon="6.22538">
        <ele>125.3</ele>
        <time>2012-01-22T09:25:11Z</time>
      </trkpt>
      <trkpt lat="43.49019" lon="6.22549">
        <ele>124.3</ele>
        <time>2012-01-22T09:25:20Z</time>
      </trkpt>
      <trkpt lat="43.49019" lon="6.22551">
        <ele>124.3</ele>
        <time>2012-01-22T09:25:21Z</time>
      </trkpt>
      <trkpt lat="43.49015" lon="6.22572">
        <ele>123.2</ele>
        <time>2012-01-22T09:25:36Z</time>
      </trkpt>
      <trkpt lat="43.49014" lon="6.22583">
        <ele>122.7</ele>
        <time>2012-01-22T09:25:43Z</time>
      </trkpt>
      <trkpt lat="43.49014" lon="6.22595">
        <ele>122.5</ele>
        <time>2012-01-22T09:25:50Z</time>
      </trkpt>
      <trkpt lat="43.49017" lon="6.22607">
        <ele>122.9</ele>
        <time>2012-01-22T09:25:59Z</time>
      </trkpt>
      <trkpt lat="43.49024" lon="6.22613">
        <ele>122.5</ele>
        <time>2012-01-22T09:26:08Z</time>
      </trkpt>
      <trkpt lat="43.49032" lon="6.22617">
        <ele>123.2</ele>
        <time>2012-01-22T09:26:16Z</time>
      </trkpt>
      <trkpt lat="43.49039" lon="6.22622">
        <ele>123.8</ele>
        <time>2012-01-22T09:26:23Z</time>
      </trkpt>
      <trkpt lat="43.4904" lon="6.22622">
        <ele>123.8</ele>
        <time>2012-01-22T09:26:24Z</time>
      </trkpt>
      <trkpt lat="43.49055" lon="6.22631">
        <ele>124.1</ele>
        <time>2012-01-22T09:26:39Z</time>
      </trkpt>
      <trkpt lat="43.49063" lon="6.22635">
        <ele>123.6</ele>
        <time>2012-01-22T09:26:46Z</time>
      </trkpt>
      <trkpt lat="43.49072" lon="6.22637">
        <ele>123.7</ele>
        <time>2012-01-22T09:26:54Z</time>
      </trkpt>
      <trkpt lat="43.4908" lon="6.22639">
        <ele>123.7</ele>
        <time>2012-01-22T09:27:02Z</time>
      </trkpt>
      <trkpt lat="43.49088" lon="6.22641">
        <ele>123.3</ele>
        <time>2012-01-22T09:27:10Z</time>
      </trkpt>
      <trkpt lat="43.49096" lon="6.22641">
        <ele>123.7</ele>
        <time>2012-01-22T09:27:17Z</time>
      </trkpt>
      <trkpt lat="43.49105" lon="6.22641">
        <ele>124.6</ele>
        <time>2012-01-22T09:27:27Z</time>
      </trkpt>
      <trkpt lat="43.49106" lon="6.22642">
        <ele>124.6</ele>
        <time>2012-01-22T09:27:28Z</time>
      </trkpt>
      <trkpt lat="43.49118" lon="6.22654">
        <ele>123.5</ele>
        <time>2012-01-22T09:27:45Z</time>
      </trkpt>
      <trkpt lat="43.49123" lon="6.22664">
        <ele>123.5</ele>
        <time>2012-01-22T09:27:51Z</time>
      </trkpt>
      <trkpt lat="43.49129" lon="6.22673">
        <ele>123.6</ele>
        <time>2012-01-22T09:28:01Z</time>
      </trkpt>
      <trkpt lat="43.49128" lon="6.22685">
        <ele>123.5</ele>
        <time>2012-01-22T09:29:54Z</time>
      </trkpt>
      <trkpt lat="43.49128" lon="6.22685">
        <ele>123.3</ele>
        <time>2012-01-22T09:29:55Z</time>
      </trkpt>
      <trkpt lat="43.49137" lon="6.22679">
        <ele>122.5</ele>
        <time>2012-01-22T09:33:33Z</time>
      </trkpt>
      <trkpt lat="43.4915" lon="6.22668">
        <ele>122.1</ele>
        <time>2012-01-22T09:33:46Z</time>
      </trkpt>
      <trkpt lat="43.49157" lon="6.22661">
        <ele>121.9</ele>
        <time>2012-01-22T09:33:53Z</time>
      </trkpt>
      <trkpt lat="43.49164" lon="6.22656">
        <ele>122.5</ele>
        <time>2012-01-22T09:34:00Z</time>
      </trkpt>
      <trkpt lat="43.49171" lon="6.22648">
        <ele>121.7</ele>
        <time>2012-01-22T09:34:06Z</time>
      </trkpt>
      <trkpt lat="43.49178" lon="6.22642">
        <ele>122</ele>
        <time>2012-01-22T09:34:12Z</time>
      </trkpt>
      <trkpt lat="43.49184" lon="6.22633">
        <ele>122</ele>
        <time>2012-01-22T09:34:19Z</time>
      </trkpt>
      <trkpt lat="43.49189" lon="6.22624">
        <ele>122.2</ele>
        <time>2012-01-22T09:34:26Z</time>
      </trkpt>
      <trkpt lat="43.49193" lon="6.22613">
        <ele>122.7</ele>
        <time>2012-01-22T09:34:33Z</time>
      </trkpt>
      <trkpt lat="43.49196" lon="6.22601">
        <ele>122.5</ele>
        <time>2012-01-22T09:34:40Z</time>
      </trkpt>
      <trkpt lat="43.49196" lon="6.226">
        <ele>122.6</ele>
        <time>2012-01-22T09:34:41Z</time>
      </trkpt>
      <trkpt lat="43.49202" lon="6.2258">
        <ele>123.5</ele>
        <time>2012-01-22T09:34:55Z</time>
      </trkpt>
      <trkpt lat="43.49206" lon="6.2257">
        <ele>123.5</ele>
        <time>2012-01-22T09:35:02Z</time>
      </trkpt>
      <trkpt lat="43.49211" lon="6.22561">
        <ele>123</ele>
        <time>2012-01-22T09:35:09Z</time>
      </trkpt>
      <trkpt lat="43.49217" lon="6.22551">
        <ele>123.3</ele>
        <time>2012-01-22T09:35:17Z</time>
      </trkpt>
      <trkpt lat="43.49222" lon="6.22544">
        <ele>122.7</ele>
        <time>2012-01-22T09:35:23Z</time>
      </trkpt>
      <trkpt lat="43.49231" lon="6.2254">
        <ele>121.9</ele>
        <time>2012-01-22T09:35:30Z</time>
      </trkpt>
      <trkpt lat="43.49239" lon="6.22536">
        <ele>120.7</ele>
        <time>2012-01-22T09:35:42Z</time>
      </trkpt>
      <trkpt lat="43.49239" lon="6.22535">
        <ele>120.6</ele>
        <time>2012-01-22T09:35:43Z</time>
      </trkpt>
      <trkpt lat="43.49247" lon="6.22515">
        <ele>120.6</ele>
        <time>2012-01-22T09:36:01Z</time>
      </trkpt>
      <trkpt lat="43.49252" lon="6.22506">
        <ele>120.3</ele>
        <time>2012-01-22T09:36:15Z</time>
      </trkpt>
      <trkpt lat="43.4926" lon="6.22504">
        <ele>120.9</ele>
        <time>2012-01-22T09:36:26Z</time>
      </trkpt>
      <trkpt lat="43.49267" lon="6.22507">
        <ele>120.6</ele>
        <time>2012-01-22T09:36:33Z</time>
      </trkpt>
      <trkpt lat="43.49272" lon="6.22515">
        <ele>120.7</ele>
        <time>2012-01-22T09:36:39Z</time>
      </trkpt>
      <trkpt lat="43.49275" lon="6.22526">
        <ele>121.1</ele>
        <time>2012-01-22T09:36:46Z</time>
      </trkpt>
      <trkpt lat="43.49275" lon="6.22528">
        <ele>121</ele>
        <time>2012-01-22T09:36:47Z</time>
      </trkpt>
      <trkpt lat="43.49282" lon="6.22547">
        <ele>121.7</ele>
        <time>2012-01-22T09:37:03Z</time>
      </trkpt>
      <trkpt lat="43.49289" lon="6.22552">
        <ele>123</ele>
        <time>2012-01-22T09:37:11Z</time>
      </trkpt>
      <trkpt lat="43.49297" lon="6.22558">
        <ele>124.3</ele>
        <time>2012-01-22T09:37:19Z</time>
      </trkpt>
      <trkpt lat="43.49305" lon="6.22564">
        <ele>124.9</ele>
        <time>2012-01-22T09:37:28Z</time>
      </trkpt>
      <trkpt lat="43.49313" lon="6.2257">
        <ele>125.2</ele>
        <time>2012-01-22T09:37:36Z</time>
      </trkpt>
      <trkpt lat="43.4932" lon="6.22575">
        <ele>124.8</ele>
        <time>2012-01-22T09:37:43Z</time>
      </trkpt>
      <trkpt lat="43.49327" lon="6.2258">
        <ele>124.5</ele>
        <time>2012-01-22T09:37:50Z</time>
      </trkpt>
      <trkpt lat="43.49328" lon="6.22581">
        <ele>124.6</ele>
        <time>2012-01-22T09:37:51Z</time>
      </trkpt>
      <trkpt lat="43.49342" lon="6.22591">
        <ele>125.3</ele>
        <time>2012-01-22T09:38:04Z</time>
      </trkpt>
      <trkpt lat="43.49349" lon="6.22596">
        <ele>125.2</ele>
        <time>2012-01-22T09:38:11Z</time>
      </trkpt>
      <trkpt lat="43.49357" lon="6.22602">
        <ele>125.4</ele>
        <time>2012-01-22T09:38:18Z</time>
      </trkpt>
      <trkpt lat="43.49364" lon="6.22607">
        <ele>125.4</ele>
        <time>2012-01-22T09:38:25Z</time>
      </trkpt>
      <trkpt lat="43.49372" lon="6.22613">
        <ele>126</ele>
        <time>2012-01-22T09:38:32Z</time>
      </trkpt>
      <trkpt lat="43.49379" lon="6.22618">
        <ele>126</ele>
        <time>2012-01-22T09:38:39Z</time>
      </trkpt>
      <trkpt lat="43.49387" lon="6.22624">
        <ele>125.9</ele>
        <time>2012-01-22T09:38:47Z</time>
      </trkpt>
      <trkpt lat="43.49395" lon="6.22629">
        <ele>125.9</ele>
        <time>2012-01-22T09:38:54Z</time>
      </trkpt>
      <trkpt lat="43.49396" lon="6.2263">
        <ele>125.7</ele>
        <time>2012-01-22T09:38:55Z</time>
      </trkpt>
      <trkpt lat="43.4941" lon="6.22642">
        <ele>125.5</ele>
        <time>2012-01-22T09:39:08Z</time>
      </trkpt>
      <trkpt lat="43.49418" lon="6.22646">
        <ele>126.6</ele>
        <time>2012-01-22T09:39:21Z</time>
      </trkpt>
      <trkpt lat="43.49426" lon="6.22645">
        <ele>126.7</ele>
        <time>2012-01-22T09:39:29Z</time>
      </trkpt>
      <trkpt lat="43.49432" lon="6.22638">
        <ele>126.4</ele>
        <time>2012-01-22T09:39:36Z</time>
      </trkpt>
      <trkpt lat="43.49437" lon="6.22629">
        <ele>126</ele>
        <time>2012-01-22T09:39:43Z</time>
      </trkpt>
      <trkpt lat="43.49442" lon="6.22621">
        <ele>127.2</ele>
        <time>2012-01-22T09:39:50Z</time>
      </trkpt>
      <trkpt lat="43.49448" lon="6.22612">
        <ele>128.5</ele>
        <time>2012-01-22T09:39:59Z</time>
      </trkpt>
      <trkpt lat="43.49449" lon="6.22611">
        <ele>128.5</ele>
        <time>2012-01-22T09:40:00Z</time>
      </trkpt>
      <trkpt lat="43.49465" lon="6.22614">
        <ele>130.8</ele>
        <time>2012-01-22T09:40:19Z</time>
      </trkpt>
      <trkpt lat="43.49474" lon="6.2261">
        <ele>132.7</ele>
        <time>2012-01-22T09:40:33Z</time>
      </trkpt>
      <trkpt lat="43.4948" lon="6.226">
        <ele>132.8</ele>
        <time>2012-01-22T09:40:41Z</time>
      </trkpt>
      <trkpt lat="43.49487" lon="6.22594">
        <ele>131.9</ele>
        <time>2012-01-22T09:40:49Z</time>
      </trkpt>
      <trkpt lat="43.49494" lon="6.22589">
        <ele>132.4</ele>
        <time>2012-01-22T09:40:57Z</time>
      </trkpt>
      <trkpt lat="43.49501" lon="6.22581">
        <ele>131.3</ele>
        <time>2012-01-22T09:41:05Z</time>
      </trkpt>
      <trkpt lat="43.49502" lon="6.2258">
        <ele>131.3</ele>
        <time>2012-01-22T09:41:06Z</time>
      </trkpt>
      <trkpt lat="43.49513" lon="6.22565">
        <ele>132.4</ele>
        <time>2012-01-22T09:41:20Z</time>
      </trkpt>
      <trkpt lat="43.4952" lon="6.22559">
        <ele>132.4</ele>
        <time>2012-01-22T09:41:28Z</time>
      </trkpt>
      <trkpt lat="43.49524" lon="6.2255">
        <ele>132.3</ele>
        <time>2012-01-22T09:41:35Z</time>
      </trkpt>
      <trkpt lat="43.49529" lon="6.2254">
        <ele>133</ele>
        <time>2012-01-22T09:41:43Z</time>
      </trkpt>
      <trkpt lat="43.49535" lon="6.22532">
        <ele>132.4</ele>
        <time>2012-01-22T09:41:50Z</time>
      </trkpt>
      <trkpt lat="43.49542" lon="6.22524">
        <ele>132.6</ele>
        <time>2012-01-22T09:41:59Z</time>
      </trkpt>
      <trkpt lat="43.49547" lon="6.22514">
        <ele>133.1</ele>
        <time>2012-01-22T09:42:08Z</time>
      </trkpt>
      <trkpt lat="43.49547" lon="6.22513">
        <ele>133.1</ele>
        <time>2012-01-22T09:42:09Z</time>
      </trkpt>
      <trkpt lat="43.49557" lon="6.22495">
        <ele>133.1</ele>
        <time>2012-01-22T09:42:25Z</time>
      </trkpt>
      <trkpt lat="43.49563" lon="6.22487">
        <ele>132.8</ele>
        <time>2012-01-22T09:42:33Z</time>
      </trkpt>
      <trkpt lat="43.4957" lon="6.2248">
        <ele>132.7</ele>
        <time>2012-01-22T09:42:40Z</time>
      </trkpt>
      <trkpt lat="43.49577" lon="6.22473">
        <ele>133</ele>
        <time>2012-01-22T09:42:46Z</time>
      </trkpt>
      <trkpt lat="43.49584" lon="6.22468">
        <ele>133.7</ele>
        <time>2012-01-22T09:42:53Z</time>
      </trkpt>
      <trkpt lat="43.49593" lon="6.22468">
        <ele>133.8</ele>
        <time>2012-01-22T09:43:02Z</time>
      </trkpt>
      <trkpt lat="43.49601" lon="6.22469">
        <ele>133.9</ele>
        <time>2012-01-22T09:43:17Z</time>
      </trkpt>
      <trkpt lat="43.49602" lon="6.2247">
        <ele>133.9</ele>
        <time>2012-01-22T09:43:18Z</time>
      </trkpt>
      <trkpt lat="43.49616" lon="6.22478">
        <ele>134</ele>
        <time>2012-01-22T09:43:34Z</time>
      </trkpt>
      <trkpt lat="43.49624" lon="6.22484">
        <ele>134.7</ele>
        <time>2012-01-22T09:43:42Z</time>
      </trkpt>
      <trkpt lat="43.49632" lon="6.22488">
        <ele>134.5</ele>
        <time>2012-01-22T09:43:52Z</time>
      </trkpt>
      <trkpt lat="43.49639" lon="6.22493">
        <ele>134.4</ele>
        <time>2012-01-22T09:43:58Z</time>
      </trkpt>
      <trkpt lat="43.49646" lon="6.22498">
        <ele>134.3</ele>
        <time>2012-01-22T09:44:04Z</time>
      </trkpt>
      <trkpt lat="43.49654" lon="6.22503">
        <ele>134.5</ele>
        <time>2012-01-22T09:44:11Z</time>
      </trkpt>
      <trkpt lat="43.49662" lon="6.22507">
        <ele>135.2</ele>
        <time>2012-01-22T09:44:18Z</time>
      </trkpt>
      <trkpt lat="43.49664" lon="6.22508">
        <ele>135.1</ele>
        <time>2012-01-22T09:44:19Z</time>
      </trkpt>
      <trkpt lat="43.49678" lon="6.22516">
        <ele>134.8</ele>
        <time>2012-01-22T09:44:32Z</time>
      </trkpt>
      <trkpt lat="43.49686" lon="6.22521">
        <ele>133.6</ele>
        <time>2012-01-22T09:44:40Z</time>
      </trkpt>
      <trkpt lat="43.49693" lon="6.22526">
        <ele>133.2</ele>
        <time>2012-01-22T09:44:47Z</time>
      </trkpt>
      <trkpt lat="43.49699" lon="6.22533">
        <ele>132.7</ele>
        <time>2012-01-22T09:44:53Z</time>
      </trkpt>
      <trkpt lat="43.49706" lon="6.2254">
        <ele>132.3</ele>
        <time>2012-01-22T09:44:59Z</time>
      </trkpt>
      <trkpt lat="43.49714" lon="6.22544">
        <ele>131.7</ele>
        <time>2012-01-22T09:45:06Z</time>
      </trkpt>
      <trkpt lat="43.49721" lon="6.22538">
        <ele>131.4</ele>
        <time>2012-01-22T09:45:16Z</time>
      </trkpt>
      <trkpt lat="43.49726" lon="6.22529">
        <ele>130.2</ele>
        <time>2012-01-22T09:45:25Z</time>
      </trkpt>
      <trkpt lat="43.49726" lon="6.22528">
        <ele>129.9</ele>
        <time>2012-01-22T09:45:26Z</time>
      </trkpt>
      <trkpt lat="43.49735" lon="6.2251">
        <ele>127.9</ele>
        <time>2012-01-22T09:45:41Z</time>
      </trkpt>
      <trkpt lat="43.49741" lon="6.22501">
        <ele>127.7</ele>
        <time>2012-01-22T09:45:49Z</time>
      </trkpt>
      <trkpt lat="43.49746" lon="6.22493">
        <ele>128</ele>
        <time>2012-01-22T09:45:58Z</time>
      </trkpt>
      <trkpt lat="43.49753" lon="6.22488">
        <ele>127.2</ele>
        <time>2012-01-22T09:46:05Z</time>
      </trkpt>
      <trkpt lat="43.49761" lon="6.22483">
        <ele>126.8</ele>
        <time>2012-01-22T09:46:12Z</time>
      </trkpt>
      <trkpt lat="43.49769" lon="6.22483">
        <ele>126.9</ele>
        <time>2012-01-22T09:46:19Z</time>
      </trkpt>
      <trkpt lat="43.49778" lon="6.22484">
        <ele>126.8</ele>
        <time>2012-01-22T09:46:26Z</time>
      </trkpt>
      <trkpt lat="43.49779" lon="6.22484">
        <ele>126.9</ele>
        <time>2012-01-22T09:46:27Z</time>
      </trkpt>
      <trkpt lat="43.49795" lon="6.22483">
        <ele>127.2</ele>
        <time>2012-01-22T09:46:40Z</time>
      </trkpt>
      <trkpt lat="43.49803" lon="6.22483">
        <ele>126.7</ele>
        <time>2012-01-22T09:46:47Z</time>
      </trkpt>
      <trkpt lat="43.49812" lon="6.22482">
        <ele>126.8</ele>
        <time>2012-01-22T09:46:55Z</time>
      </trkpt>
      <trkpt lat="43.49819" lon="6.22489">
        <ele>127.3</ele>
        <time>2012-01-22T09:47:02Z</time>
      </trkpt>
      <trkpt lat="43.49826" lon="6.22496">
        <ele>126.8</ele>
        <time>2012-01-22T09:47:09Z</time>
      </trkpt>
      <trkpt lat="43.49834" lon="6.22501">
        <ele>126</ele>
        <time>2012-01-22T09:47:17Z</time>
      </trkpt>
      <trkpt lat="43.49839" lon="6.2251">
        <ele>128.3</ele>
        <time>2012-01-22T09:47:39Z</time>
      </trkpt>
      <trkpt lat="43.4984" lon="6.2251">
        <ele>128.4</ele>
        <time>2012-01-22T09:47:40Z</time>
      </trkpt>
      <trkpt lat="43.49855" lon="6.22511">
        <ele>127.9</ele>
        <time>2012-01-22T09:47:55Z</time>
      </trkpt>
      <trkpt lat="43.49863" lon="6.22515">
        <ele>127.8</ele>
        <time>2012-01-22T09:48:02Z</time>
      </trkpt>
      <trkpt lat="43.49869" lon="6.22521">
        <ele>127.1</ele>
        <time>2012-01-22T09:48:08Z</time>
      </trkpt>
      <trkpt lat="43.49876" lon="6.22527">
        <ele>126.8</ele>
        <time>2012-01-22T09:48:15Z</time>
      </trkpt>
      <trkpt lat="43.49884" lon="6.22532">
        <ele>126.2</ele>
        <time>2012-01-22T09:48:23Z</time>
      </trkpt>
      <trkpt lat="43.49891" lon="6.22538">
        <ele>126.2</ele>
        <time>2012-01-22T09:48:31Z</time>
      </trkpt>
      <trkpt lat="43.49899" lon="6.22543">
        <ele>127</ele>
        <time>2012-01-22T09:48:38Z</time>
      </trkpt>
      <trkpt lat="43.49905" lon="6.22552">
        <ele>127.7</ele>
        <time>2012-01-22T09:48:45Z</time>
      </trkpt>
      <trkpt lat="43.49905" lon="6.22553">
        <ele>127.4</ele>
        <time>2012-01-22T09:48:46Z</time>
      </trkpt>
      <trkpt lat="43.4992" lon="6.22563">
        <ele>126.9</ele>
        <time>2012-01-22T09:49:01Z</time>
      </trkpt>
      <trkpt lat="43.49927" lon="6.2257">
        <ele>127</ele>
        <time>2012-01-22T09:49:08Z</time>
      </trkpt>
      <trkpt lat="43.49934" lon="6.22577">
        <ele>126.9</ele>
        <time>2012-01-22T09:49:16Z</time>
      </trkpt>
      <trkpt lat="43.49941" lon="6.22585">
        <ele>127.1</ele>
        <time>2012-01-22T09:49:23Z</time>
      </trkpt>
      <trkpt lat="43.49947" lon="6.22593">
        <ele>126.1</ele>
        <time>2012-01-22T09:49:30Z</time>
      </trkpt>
      <trkpt lat="43.49954" lon="6.22599">
        <ele>126.8</ele>
        <time>2012-01-22T09:49:36Z</time>
      </trkpt>
      <trkpt lat="43.49959" lon="6.22608">
        <ele>127.1</ele>
        <time>2012-01-22T09:49:43Z</time>
      </trkpt>
      <trkpt lat="43.49965" lon="6.22616">
        <ele>127.3</ele>
        <time>2012-01-22T09:49:50Z</time>
      </trkpt>
      <trkpt lat="43.49966" lon="6.22618">
        <ele>127.3</ele>
        <time>2012-01-22T09:49:51Z</time>
      </trkpt>
      <trkpt lat="43.49977" lon="6.22633">
        <ele>128.3</ele>
        <time>2012-01-22T09:50:04Z</time>
      </trkpt>
      <trkpt lat="43.49983" lon="6.22641">
        <ele>128.7</ele>
        <time>2012-01-22T09:50:11Z</time>
      </trkpt>
      <trkpt lat="43.4999" lon="6.22649">
        <ele>129.1</ele>
        <time>2012-01-22T09:50:19Z</time>
      </trkpt>
      <trkpt lat="43.49996" lon="6.22657">
        <ele>129.2</ele>
        <time>2012-01-22T09:50:26Z</time>
      </trkpt>
      <trkpt lat="43.5" lon="6.22667">
        <ele>128.8</ele>
        <time>2012-01-22T09:50:33Z</time>
      </trkpt>
      <trkpt lat="43.50004" lon="6.22677">
        <ele>128.9</ele>
        <time>2012-01-22T09:50:40Z</time>
      </trkpt>
      <trkpt lat="43.50009" lon="6.22687">
        <ele>128.2</ele>
        <time>2012-01-22T09:50:47Z</time>
      </trkpt>
      <trkpt lat="43.50013" lon="6.22697">
        <ele>128.4</ele>
        <time>2012-01-22T09:50:54Z</time>
      </trkpt>
      <trkpt lat="43.50013" lon="6.22698">
        <ele>128.4</ele>
        <time>2012-01-22T09:50:55Z</time>
      </trkpt>
      <trkpt lat="43.50018" lon="6.22717">
        <ele>128.2</ele>
        <time>2012-01-22T09:51:09Z</time>
      </trkpt>
      <trkpt lat="43.50016" lon="6.22729">
        <ele>127.9</ele>
        <time>2012-01-22T09:51:17Z</time>
      </trkpt>
      <trkpt lat="43.50012" lon="6.2274">
        <ele>129</ele>
        <time>2012-01-22T09:51:25Z</time>
      </trkpt>
      <trkpt lat="43.50008" lon="6.2275">
        <ele>128.8</ele>
        <time>2012-01-22T09:51:32Z</time>
      </trkpt>
      <trkpt lat="43.50004" lon="6.2276">
        <ele>129.5</ele>
        <time>2012-01-22T09:51:39Z</time>
      </trkpt>
      <trkpt lat="43.50004" lon="6.22773">
        <ele>129.4</ele>
        <time>2012-01-22T09:51:54Z</time>
      </trkpt>
      <trkpt lat="43.49999" lon="6.22782">
        <ele>129.4</ele>
        <time>2012-01-22T09:52:01Z</time>
      </trkpt>
      <trkpt lat="43.49998" lon="6.22783">
        <ele>129.5</ele>
        <time>2012-01-22T09:52:02Z</time>
      </trkpt>
      <trkpt lat="43.49993" lon="6.22804">
        <ele>129.9</ele>
        <time>2012-01-22T09:52:16Z</time>
      </trkpt>
      <trkpt lat="43.49991" lon="6.22814">
        <ele>129.9</ele>
        <time>2012-01-22T09:52:23Z</time>
      </trkpt>
      <trkpt lat="43.49986" lon="6.22825">
        <ele>130.3</ele>
        <time>2012-01-22T09:52:30Z</time>
      </trkpt>
      <trkpt lat="43.49983" lon="6.22835">
        <ele>130.2</ele>
        <time>2012-01-22T09:52:37Z</time>
      </trkpt>
      <trkpt lat="43.4998" lon="6.22845">
        <ele>129.8</ele>
        <time>2012-01-22T09:52:44Z</time>
      </trkpt>
      <trkpt lat="43.49976" lon="6.22856">
        <ele>130</ele>
        <time>2012-01-22T09:52:52Z</time>
      </trkpt>
      <trkpt lat="43.49974" lon="6.22867">
        <ele>132.4</ele>
        <time>2012-01-22T09:53:05Z</time>
      </trkpt>
      <trkpt lat="43.49974" lon="6.22868">
        <ele>132.6</ele>
        <time>2012-01-22T09:53:06Z</time>
      </trkpt>
      <trkpt lat="43.49969" lon="6.2289">
        <ele>133.5</ele>
        <time>2012-01-22T09:53:25Z</time>
      </trkpt>
      <trkpt lat="43.49965" lon="6.229">
        <ele>134.2</ele>
        <time>2012-01-22T09:53:32Z</time>
      </trkpt>
      <trkpt lat="43.49961" lon="6.22909">
        <ele>134.8</ele>
        <time>2012-01-22T09:53:39Z</time>
      </trkpt>
      <trkpt lat="43.49957" lon="6.22919">
        <ele>134.4</ele>
        <time>2012-01-22T09:53:46Z</time>
      </trkpt>
      <trkpt lat="43.49954" lon="6.2293">
        <ele>134.4</ele>
        <time>2012-01-22T09:53:55Z</time>
      </trkpt>
      <trkpt lat="43.4995" lon="6.2294">
        <ele>135.7</ele>
        <time>2012-01-22T09:54:04Z</time>
      </trkpt>
      <trkpt lat="43.49947" lon="6.22952">
        <ele>136.7</ele>
        <time>2012-01-22T09:54:14Z</time>
      </trkpt>
      <trkpt lat="43.49947" lon="6.22953">
        <ele>136.7</ele>
        <time>2012-01-22T09:54:15Z</time>
      </trkpt>
      <trkpt lat="43.49961" lon="6.22966">
        <ele>136.4</ele>
        <time>2012-01-22T09:54:42Z</time>
      </trkpt>
      <trkpt lat="43.49966" lon="6.22975">
        <ele>136.1</ele>
        <time>2012-01-22T09:54:55Z</time>
      </trkpt>
      <trkpt lat="43.49969" lon="6.22987">
        <ele>137.1</ele>
        <time>2012-01-22T09:55:20Z</time>
      </trkpt>
      <trkpt lat="43.49969" lon="6.22988">
        <ele>137.1</ele>
        <time>2012-01-22T09:55:21Z</time>
      </trkpt>
      <trkpt lat="43.49984" lon="6.22996">
        <ele>139.4</ele>
        <time>2012-01-22T09:56:24Z</time>
      </trkpt>
      <trkpt lat="43.49985" lon="6.22996">
        <ele>139.6</ele>
        <time>2012-01-22T09:56:25Z</time>
      </trkpt>
      <trkpt lat="43.50001" lon="6.23001">
        <ele>140.2</ele>
        <time>2012-01-22T09:56:39Z</time>
      </trkpt>
      <trkpt lat="43.5001" lon="6.23003">
        <ele>140.2</ele>
        <time>2012-01-22T09:56:48Z</time>
      </trkpt>
      <trkpt lat="43.50018" lon="6.23003">
        <ele>140.8</ele>
        <time>2012-01-22T09:56:56Z</time>
      </trkpt>
      <trkpt lat="43.50026" lon="6.23">
        <ele>139.9</ele>
        <time>2012-01-22T09:57:18Z</time>
      </trkpt>
      <trkpt lat="43.50034" lon="6.22995">
        <ele>139.4</ele>
        <time>2012-01-22T09:57:28Z</time>
      </trkpt>
      <trkpt lat="43.50035" lon="6.22994">
        <ele>139.3</ele>
        <time>2012-01-22T09:57:29Z</time>
      </trkpt>
      <trkpt lat="43.50051" lon="6.22994">
        <ele>138.8</ele>
        <time>2012-01-22T09:57:43Z</time>
      </trkpt>
      <trkpt lat="43.5006" lon="6.22996">
        <ele>139.4</ele>
        <time>2012-01-22T09:57:50Z</time>
      </trkpt>
      <trkpt lat="43.50068" lon="6.22996">
        <ele>139.5</ele>
        <time>2012-01-22T09:57:58Z</time>
      </trkpt>
      <trkpt lat="43.50076" lon="6.23">
        <ele>139.4</ele>
        <time>2012-01-22T09:58:04Z</time>
      </trkpt>
      <trkpt lat="43.50084" lon="6.23002">
        <ele>139.6</ele>
        <time>2012-01-22T09:58:11Z</time>
      </trkpt>
      <trkpt lat="43.50092" lon="6.23004">
        <ele>139.8</ele>
        <time>2012-01-22T09:58:19Z</time>
      </trkpt>
      <trkpt lat="43.501" lon="6.23006">
        <ele>139.8</ele>
        <time>2012-01-22T09:58:26Z</time>
      </trkpt>
      <trkpt lat="43.50108" lon="6.23006">
        <ele>140.7</ele>
        <time>2012-01-22T09:58:33Z</time>
      </trkpt>
      <trkpt lat="43.50109" lon="6.23006">
        <ele>140.6</ele>
        <time>2012-01-22T09:58:34Z</time>
      </trkpt>
      <trkpt lat="43.50123" lon="6.23014">
        <ele>136.8</ele>
        <time>2012-01-22T09:58:47Z</time>
      </trkpt>
      <trkpt lat="43.5013" lon="6.2302">
        <ele>136.9</ele>
        <time>2012-01-22T09:58:53Z</time>
      </trkpt>
      <trkpt lat="43.50137" lon="6.23025">
        <ele>139.6</ele>
        <time>2012-01-22T09:59:00Z</time>
      </trkpt>
      <trkpt lat="43.50145" lon="6.23029">
        <ele>139.1</ele>
        <time>2012-01-22T09:59:09Z</time>
      </trkpt>
      <trkpt lat="43.50153" lon="6.23034">
        <ele>139.7</ele>
        <time>2012-01-22T09:59:17Z</time>
      </trkpt>
      <trkpt lat="43.50161" lon="6.2304">
        <ele>140.2</ele>
        <time>2012-01-22T09:59:26Z</time>
      </trkpt>
      <trkpt lat="43.50167" lon="6.2305">
        <ele>138.9</ele>
        <time>2012-01-22T09:59:34Z</time>
      </trkpt>
      <trkpt lat="43.50168" lon="6.2305">
        <ele>138.9</ele>
        <time>2012-01-22T09:59:35Z</time>
      </trkpt>
      <trkpt lat="43.5018" lon="6.23061">
        <ele>139.3</ele>
        <time>2012-01-22T09:59:46Z</time>
      </trkpt>
      <trkpt lat="43.50186" lon="6.23068">
        <ele>140</ele>
        <time>2012-01-22T09:59:53Z</time>
      </trkpt>
      <trkpt lat="43.50194" lon="6.23075">
        <ele>140.2</ele>
        <time>2012-01-22T09:59:59Z</time>
      </trkpt>
      <trkpt lat="43.502" lon="6.23082">
        <ele>139.8</ele>
        <time>2012-01-22T10:00:05Z</time>
      </trkpt>
      <trkpt lat="43.50207" lon="6.2309">
        <ele>139.3</ele>
        <time>2012-01-22T10:00:12Z</time>
      </trkpt>
      <trkpt lat="43.50213" lon="6.23096">
        <ele>139.4</ele>
        <time>2012-01-22T10:00:18Z</time>
      </trkpt>
      <trkpt lat="43.5022" lon="6.23101">
        <ele>139.4</ele>
        <time>2012-01-22T10:00:25Z</time>
      </trkpt>
      <trkpt lat="43.50227" lon="6.23106">
        <ele>139.6</ele>
        <time>2012-01-22T10:00:32Z</time>
      </trkpt>
      <trkpt lat="43.50234" lon="6.23113">
        <ele>140.4</ele>
        <time>2012-01-22T10:00:38Z</time>
      </trkpt>
      <trkpt lat="43.50235" lon="6.23114">
        <ele>140.4</ele>
        <time>2012-01-22T10:00:39Z</time>
      </trkpt>
      <trkpt lat="43.5025" lon="6.23121">
        <ele>140.7</ele>
        <time>2012-01-22T10:00:54Z</time>
      </trkpt>
      <trkpt lat="43.50258" lon="6.23122">
        <ele>140.3</ele>
        <time>2012-01-22T10:01:01Z</time>
      </trkpt>
      <trkpt lat="43.50266" lon="6.23126">
        <ele>141.3</ele>
        <time>2012-01-22T10:01:08Z</time>
      </trkpt>
      <trkpt lat="43.50274" lon="6.23128">
        <ele>141.5</ele>
        <time>2012-01-22T10:01:15Z</time>
      </trkpt>
      <trkpt lat="43.50282" lon="6.23132">
        <ele>141.8</ele>
        <time>2012-01-22T10:01:23Z</time>
      </trkpt>
      <trkpt lat="43.5029" lon="6.23134">
        <ele>142</ele>
        <time>2012-01-22T10:01:30Z</time>
      </trkpt>
      <trkpt lat="43.50299" lon="6.23132">
        <ele>142.4</ele>
        <time>2012-01-22T10:01:38Z</time>
      </trkpt>
      <trkpt lat="43.50307" lon="6.23135">
        <ele>142.9</ele>
        <time>2012-01-22T10:01:46Z</time>
      </trkpt>
      <trkpt lat="43.50308" lon="6.23135">
        <ele>143.1</ele>
        <time>2012-01-22T10:01:47Z</time>
      </trkpt>
      <trkpt lat="43.50321" lon="6.23147">
        <ele>143.7</ele>
        <time>2012-01-22T10:02:00Z</time>
      </trkpt>
      <trkpt lat="43.50327" lon="6.23156">
        <ele>143.5</ele>
        <time>2012-01-22T10:02:07Z</time>
      </trkpt>
      <trkpt lat="43.50336" lon="6.23157">
        <ele>143.7</ele>
        <time>2012-01-22T10:02:13Z</time>
      </trkpt>
      <trkpt lat="43.50344" lon="6.23159">
        <ele>144</ele>
        <time>2012-01-22T10:02:19Z</time>
      </trkpt>
      <trkpt lat="43.50352" lon="6.23157">
        <ele>144</ele>
        <time>2012-01-22T10:02:25Z</time>
      </trkpt>
      <trkpt lat="43.5036" lon="6.2316">
        <ele>144.2</ele>
        <time>2012-01-22T10:02:35Z</time>
      </trkpt>
      <trkpt lat="43.50368" lon="6.23163">
        <ele>143.3</ele>
        <time>2012-01-22T10:02:43Z</time>
      </trkpt>
      <trkpt lat="43.50375" lon="6.23168">
        <ele>142.9</ele>
        <time>2012-01-22T10:02:50Z</time>
      </trkpt>
      <trkpt lat="43.50376" lon="6.23168">
        <ele>142.9</ele>
        <time>2012-01-22T10:02:51Z</time>
      </trkpt>
      <trkpt lat="43.5039" lon="6.23177">
        <ele>140.1</ele>
        <time>2012-01-22T10:03:05Z</time>
      </trkpt>
      <trkpt lat="43.50395" lon="6.23185">
        <ele>140.4</ele>
        <time>2012-01-22T10:03:13Z</time>
      </trkpt>
      <trkpt lat="43.50395" lon="6.23198">
        <ele>141.3</ele>
        <time>2012-01-22T10:03:22Z</time>
      </trkpt>
      <trkpt lat="43.50393" lon="6.23209">
        <ele>142.2</ele>
        <time>2012-01-22T10:03:32Z</time>
      </trkpt>
      <trkpt lat="43.50389" lon="6.2322">
        <ele>143.2</ele>
        <time>2012-01-22T10:03:42Z</time>
      </trkpt>
      <trkpt lat="43.50387" lon="6.23231">
        <ele>144.7</ele>
        <time>2012-01-22T10:03:51Z</time>
      </trkpt>
      <trkpt lat="43.50385" lon="6.23242">
        <ele>145.9</ele>
        <time>2012-01-22T10:04:01Z</time>
      </trkpt>
      <trkpt lat="43.50384" lon="6.23243">
        <ele>146.1</ele>
        <time>2012-01-22T10:04:02Z</time>
      </trkpt>
      <trkpt lat="43.50382" lon="6.23263">
        <ele>148.7</ele>
        <time>2012-01-22T10:04:23Z</time>
      </trkpt>
      <trkpt lat="43.50378" lon="6.23273">
        <ele>149.1</ele>
        <time>2012-01-22T10:04:32Z</time>
      </trkpt>
      <trkpt lat="43.50376" lon="6.23285">
        <ele>149.5</ele>
        <time>2012-01-22T10:04:41Z</time>
      </trkpt>
      <trkpt lat="43.50373" lon="6.23296">
        <ele>150.7</ele>
        <time>2012-01-22T10:04:51Z</time>
      </trkpt>
      <trkpt lat="43.50371" lon="6.23308">
        <ele>151.3</ele>
        <time>2012-01-22T10:05:01Z</time>
      </trkpt>
      <trkpt lat="43.5037" lon="6.2332">
        <ele>152.3</ele>
        <time>2012-01-22T10:05:10Z</time>
      </trkpt>
      <trkpt lat="43.5037" lon="6.23322">
        <ele>152.3</ele>
        <time>2012-01-22T10:05:11Z</time>
      </trkpt>
      <trkpt lat="43.50368" lon="6.23342">
        <ele>153.9</ele>
        <time>2012-01-22T10:05:27Z</time>
      </trkpt>
      <trkpt lat="43.50367" lon="6.23354">
        <ele>153.8</ele>
        <time>2012-01-22T10:05:36Z</time>
      </trkpt>
      <trkpt lat="43.50367" lon="6.23365">
        <ele>154.7</ele>
        <time>2012-01-22T10:05:45Z</time>
      </trkpt>
      <trkpt lat="43.50369" lon="6.23377">
        <ele>155.7</ele>
        <time>2012-01-22T10:05:53Z</time>
      </trkpt>
      <trkpt lat="43.50369" lon="6.23388">
        <ele>156.2</ele>
        <time>2012-01-22T10:06:02Z</time>
      </trkpt>
      <trkpt lat="43.50368" lon="6.234">
        <ele>156.7</ele>
        <time>2012-01-22T10:06:11Z</time>
      </trkpt>
      <trkpt lat="43.50368" lon="6.23402">
        <ele>156.9</ele>
        <time>2012-01-22T10:06:12Z</time>
      </trkpt>
      <trkpt lat="43.5037" lon="6.23423">
        <ele>158.4</ele>
        <time>2012-01-22T10:06:28Z</time>
      </trkpt>
      <trkpt lat="43.5037" lon="6.23435">
        <ele>160.5</ele>
        <time>2012-01-22T10:06:39Z</time>
      </trkpt>
      <trkpt lat="43.50368" lon="6.23447">
        <ele>162.9</ele>
        <time>2012-01-22T10:06:52Z</time>
      </trkpt>
      <trkpt lat="43.50369" lon="6.23459">
        <ele>163.2</ele>
        <time>2012-01-22T10:07:01Z</time>
      </trkpt>
      <trkpt lat="43.50366" lon="6.2347">
        <ele>164.3</ele>
        <time>2012-01-22T10:07:18Z</time>
      </trkpt>
      <trkpt lat="43.50365" lon="6.2347">
        <ele>164.3</ele>
        <time>2012-01-22T10:07:19Z</time>
      </trkpt>
      <trkpt lat="43.50355" lon="6.23489">
        <ele>164.1</ele>
        <time>2012-01-22T10:08:00Z</time>
      </trkpt>
      <trkpt lat="43.5035" lon="6.235">
        <ele>166.7</ele>
        <time>2012-01-22T10:12:46Z</time>
      </trkpt>
      <trkpt lat="43.5035" lon="6.235">
        <ele>166.6</ele>
        <time>2012-01-22T10:12:47Z</time>
      </trkpt>
      <trkpt lat="43.50335" lon="6.23508">
        <ele>166.6</ele>
        <time>2012-01-22T10:13:17Z</time>
      </trkpt>
      <trkpt lat="43.50328" lon="6.23514">
        <ele>166.7</ele>
        <time>2012-01-22T10:13:25Z</time>
      </trkpt>
      <trkpt lat="43.50323" lon="6.23524">
        <ele>166.7</ele>
        <time>2012-01-22T10:13:37Z</time>
      </trkpt>
      <trkpt lat="43.50321" lon="6.23536">
        <ele>165.4</ele>
        <time>2012-01-22T10:13:49Z</time>
      </trkpt>
      <trkpt lat="43.50321" lon="6.23537">
        <ele>165.3</ele>
        <time>2012-01-22T10:13:50Z</time>
      </trkpt>
      <trkpt lat="43.50315" lon="6.23559">
        <ele>165.1</ele>
        <time>2012-01-22T10:14:12Z</time>
      </trkpt>
      <trkpt lat="43.50313" lon="6.23571">
        <ele>163.8</ele>
        <time>2012-01-22T10:14:30Z</time>
      </trkpt>
      <trkpt lat="43.50312" lon="6.23583">
        <ele>163.5</ele>
        <time>2012-01-22T10:14:41Z</time>
      </trkpt>
      <trkpt lat="43.5031" lon="6.23594">
        <ele>163.2</ele>
        <time>2012-01-22T10:14:49Z</time>
      </trkpt>
      <trkpt lat="43.50308" lon="6.23606">
        <ele>162.8</ele>
        <time>2012-01-22T10:14:57Z</time>
      </trkpt>
      <trkpt lat="43.50308" lon="6.23607">
        <ele>162.9</ele>
        <time>2012-01-22T10:14:58Z</time>
      </trkpt>
      <trkpt lat="43.50305" lon="6.23629">
        <ele>163.6</ele>
        <time>2012-01-22T10:15:14Z</time>
      </trkpt>
      <trkpt lat="43.50303" lon="6.2364">
        <ele>163.5</ele>
        <time>2012-01-22T10:15:21Z</time>
      </trkpt>
      <trkpt lat="43.50301" lon="6.23651">
        <ele>163.2</ele>
        <time>2012-01-22T10:15:28Z</time>
      </trkpt>
      <trkpt lat="43.50299" lon="6.23663">
        <ele>164.3</ele>
        <time>2012-01-22T10:15:36Z</time>
      </trkpt>
      <trkpt lat="43.50297" lon="6.23675">
        <ele>164.7</ele>
        <time>2012-01-22T10:15:44Z</time>
      </trkpt>
      <trkpt lat="43.50302" lon="6.23685">
        <ele>163.4</ele>
        <time>2012-01-22T10:15:53Z</time>
      </trkpt>
      <trkpt lat="43.50309" lon="6.23687">
        <ele>162.3</ele>
        <time>2012-01-22T10:16:01Z</time>
      </trkpt>
      <trkpt lat="43.50311" lon="6.23687">
        <ele>162.5</ele>
        <time>2012-01-22T10:16:02Z</time>
      </trkpt>
      <trkpt lat="43.50325" lon="6.23698">
        <ele>163.6</ele>
        <time>2012-01-22T10:16:19Z</time>
      </trkpt>
      <trkpt lat="43.50331" lon="6.23706">
        <ele>163.3</ele>
        <time>2012-01-22T10:16:32Z</time>
      </trkpt>
      <trkpt lat="43.50332" lon="6.23718">
        <ele>163.4</ele>
        <time>2012-01-22T10:16:40Z</time>
      </trkpt>
      <trkpt lat="43.50333" lon="6.23728">
        <ele>163.6</ele>
        <time>2012-01-22T10:16:47Z</time>
      </trkpt>
      <trkpt lat="43.50336" lon="6.2374">
        <ele>164</ele>
        <time>2012-01-22T10:16:56Z</time>
      </trkpt>
      <trkpt lat="43.50333" lon="6.23752">
        <ele>163.5</ele>
        <time>2012-01-22T10:17:06Z</time>
      </trkpt>
      <trkpt lat="43.50333" lon="6.23753">
        <ele>163.8</ele>
        <time>2012-01-22T10:17:07Z</time>
      </trkpt>
      <trkpt lat="43.50327" lon="6.23774">
        <ele>163.3</ele>
        <time>2012-01-22T10:17:22Z</time>
      </trkpt>
      <trkpt lat="43.50332" lon="6.23783">
        <ele>162.3</ele>
        <time>2012-01-22T10:17:44Z</time>
      </trkpt>
      <trkpt lat="43.5034" lon="6.23786">
        <ele>162.9</ele>
        <time>2012-01-22T10:17:53Z</time>
      </trkpt>
      <trkpt lat="43.50349" lon="6.23789">
        <ele>163.1</ele>
        <time>2012-01-22T10:18:02Z</time>
      </trkpt>
      <trkpt lat="43.50357" lon="6.23793">
        <ele>162.5</ele>
        <time>2012-01-22T10:18:09Z</time>
      </trkpt>
      <trkpt lat="43.50358" lon="6.23793">
        <ele>162.5</ele>
        <time>2012-01-22T10:18:10Z</time>
      </trkpt>
      <trkpt lat="43.50374" lon="6.23797">
        <ele>163.9</ele>
        <time>2012-01-22T10:18:25Z</time>
      </trkpt>
      <trkpt lat="43.50383" lon="6.23798">
        <ele>166.4</ele>
        <time>2012-01-22T10:18:39Z</time>
      </trkpt>
      <trkpt lat="43.50391" lon="6.238">
        <ele>167.9</ele>
        <time>2012-01-22T10:18:49Z</time>
      </trkpt>
      <trkpt lat="43.50399" lon="6.23801">
        <ele>168.9</ele>
        <time>2012-01-22T10:19:02Z</time>
      </trkpt>
      <trkpt lat="43.50405" lon="6.23792">
        <ele>169.6</ele>
        <time>2012-01-22T10:19:14Z</time>
      </trkpt>
      <trkpt lat="43.50405" lon="6.23792">
        <ele>169.7</ele>
        <time>2012-01-22T10:19:15Z</time>
      </trkpt>
      <trkpt lat="43.50417" lon="6.23776">
        <ele>168.5</ele>
        <time>2012-01-22T10:19:39Z</time>
      </trkpt>
      <trkpt lat="43.50426" lon="6.23775">
        <ele>167.8</ele>
        <time>2012-01-22T10:19:49Z</time>
      </trkpt>
      <trkpt lat="43.50434" lon="6.2378">
        <ele>167.6</ele>
        <time>2012-01-22T10:20:01Z</time>
      </trkpt>
      <trkpt lat="43.50443" lon="6.23784">
        <ele>166.6</ele>
        <time>2012-01-22T10:20:12Z</time>
      </trkpt>
      <trkpt lat="43.5045" lon="6.23786">
        <ele>166.1</ele>
        <time>2012-01-22T10:20:20Z</time>
      </trkpt>
      <trkpt lat="43.50452" lon="6.23786">
        <ele>166</ele>
        <time>2012-01-22T10:20:21Z</time>
      </trkpt>
      <trkpt lat="43.50467" lon="6.23789">
        <ele>164.1</ele>
        <time>2012-01-22T10:20:37Z</time>
      </trkpt>
      <trkpt lat="43.50475" lon="6.23788">
        <ele>163.5</ele>
        <time>2012-01-22T10:20:45Z</time>
      </trkpt>
      <trkpt lat="43.50484" lon="6.23791">
        <ele>163.1</ele>
        <time>2012-01-22T10:20:53Z</time>
      </trkpt>
      <trkpt lat="43.50492" lon="6.23792">
        <ele>161.9</ele>
        <time>2012-01-22T10:21:01Z</time>
      </trkpt>
      <trkpt lat="43.50501" lon="6.23793">
        <ele>162.5</ele>
        <time>2012-01-22T10:21:11Z</time>
      </trkpt>
      <trkpt lat="43.50509" lon="6.23795">
        <ele>162.8</ele>
        <time>2012-01-22T10:21:21Z</time>
      </trkpt>
      <trkpt lat="43.5051" lon="6.23795">
        <ele>162.7</ele>
        <time>2012-01-22T10:21:22Z</time>
      </trkpt>
      <trkpt lat="43.50524" lon="6.23783">
        <ele>162.5</ele>
        <time>2012-01-22T10:21:39Z</time>
      </trkpt>
      <trkpt lat="43.5053" lon="6.23775">
        <ele>162.9</ele>
        <time>2012-01-22T10:21:47Z</time>
      </trkpt>
      <trkpt lat="43.50535" lon="6.23766">
        <ele>162.7</ele>
        <time>2012-01-22T10:21:55Z</time>
      </trkpt>
      <trkpt lat="43.50541" lon="6.23756">
        <ele>162.8</ele>
        <time>2012-01-22T10:22:04Z</time>
      </trkpt>
      <trkpt lat="43.50547" lon="6.23748">
        <ele>163.2</ele>
        <time>2012-01-22T10:22:11Z</time>
      </trkpt>
      <trkpt lat="43.50553" lon="6.2374">
        <ele>163</ele>
        <time>2012-01-22T10:22:19Z</time>
      </trkpt>
      <trkpt lat="43.50559" lon="6.23731">
        <ele>162.1</ele>
        <time>2012-01-22T10:22:30Z</time>
      </trkpt>
      <trkpt lat="43.50559" lon="6.2373">
        <ele>162.3</ele>
        <time>2012-01-22T10:22:31Z</time>
      </trkpt>
      <trkpt lat="43.50573" lon="6.2372">
        <ele>160.8</ele>
        <time>2012-01-22T10:22:49Z</time>
      </trkpt>
      <trkpt lat="43.50581" lon="6.23718">
        <ele>160.4</ele>
        <time>2012-01-22T10:22:56Z</time>
      </trkpt>
      <trkpt lat="43.5059" lon="6.23716">
        <ele>160</ele>
        <time>2012-01-22T10:23:04Z</time>
      </trkpt>
      <trkpt lat="43.50598" lon="6.23712">
        <ele>160.3</ele>
        <time>2012-01-22T10:23:12Z</time>
      </trkpt>
      <trkpt lat="43.50606" lon="6.23707">
        <ele>159.8</ele>
        <time>2012-01-22T10:25:52Z</time>
      </trkpt>
      <trkpt lat="43.50607" lon="6.23707">
        <ele>160.3</ele>
        <time>2012-01-22T10:25:53Z</time>
      </trkpt>
      <trkpt lat="43.50599" lon="6.23715">
        <ele>158</ele>
        <time>2012-01-22T10:26:56Z</time>
      </trkpt>
      <trkpt lat="43.50591" lon="6.23709">
        <ele>164.3</ele>
        <time>2012-01-22T11:15:08Z</time>
      </trkpt>
      <trkpt lat="43.506" lon="6.23715">
        <ele>166.8</ele>
        <time>2012-01-22T11:22:33Z</time>
      </trkpt>
      <trkpt lat="43.50599" lon="6.23714">
        <ele>167.1</ele>
        <time>2012-01-22T11:28:29Z</time>
      </trkpt>
      <trkpt lat="43.50598" lon="6.23715">
        <ele>167.1</ele>
        <time>2012-01-22T11:28:30Z</time>
      </trkpt>
      <trkpt lat="43.50583" lon="6.23718">
        <ele>166.9</ele>
        <time>2012-01-22T11:28:47Z</time>
      </trkpt>
      <trkpt lat="43.50577" lon="6.23711">
        <ele>168</ele>
        <time>2012-01-22T11:28:57Z</time>
      </trkpt>
      <trkpt lat="43.5057" lon="6.23704">
        <ele>164.7</ele>
        <time>2012-01-22T11:29:08Z</time>
      </trkpt>
      <trkpt lat="43.50561" lon="6.23706">
        <ele>164.8</ele>
        <time>2012-01-22T11:29:17Z</time>
      </trkpt>
      <trkpt lat="43.50553" lon="6.23708">
        <ele>165</ele>
        <time>2012-01-22T11:29:24Z</time>
      </trkpt>
      <trkpt lat="43.50545" lon="6.2371">
        <ele>166.5</ele>
        <time>2012-01-22T11:29:34Z</time>
      </trkpt>
      <trkpt lat="43.50544" lon="6.23711">
        <ele>166.4</ele>
        <time>2012-01-22T11:29:35Z</time>
      </trkpt>
      <trkpt lat="43.50531" lon="6.2372">
        <ele>163.8</ele>
        <time>2012-01-22T11:29:51Z</time>
      </trkpt>
      <trkpt lat="43.50523" lon="6.23725">
        <ele>163.7</ele>
        <time>2012-01-22T11:29:58Z</time>
      </trkpt>
      <trkpt lat="43.50514" lon="6.23725">
        <ele>165.2</ele>
        <time>2012-01-22T11:30:10Z</time>
      </trkpt>
      <trkpt lat="43.50511" lon="6.23714">
        <ele>162.6</ele>
        <time>2012-01-22T11:30:20Z</time>
      </trkpt>
      <trkpt lat="43.50513" lon="6.23702">
        <ele>161.5</ele>
        <time>2012-01-22T11:30:36Z</time>
      </trkpt>
      <trkpt lat="43.50513" lon="6.23701">
        <ele>160.7</ele>
        <time>2012-01-22T11:30:37Z</time>
      </trkpt>
      <trkpt lat="43.50519" lon="6.2368">
        <ele>159.1</ele>
        <time>2012-01-22T11:30:53Z</time>
      </trkpt>
      <trkpt lat="43.5052" lon="6.23668">
        <ele>158</ele>
        <time>2012-01-22T11:31:02Z</time>
      </trkpt>
      <trkpt lat="43.50521" lon="6.23656">
        <ele>158.4</ele>
        <time>2012-01-22T11:31:12Z</time>
      </trkpt>
      <trkpt lat="43.50526" lon="6.23647">
        <ele>158.1</ele>
        <time>2012-01-22T11:31:20Z</time>
      </trkpt>
      <trkpt lat="43.50532" lon="6.23639">
        <ele>158.7</ele>
        <time>2012-01-22T11:31:28Z</time>
      </trkpt>
      <trkpt lat="43.50538" lon="6.23632">
        <ele>159</ele>
        <time>2012-01-22T11:31:37Z</time>
      </trkpt>
      <trkpt lat="43.50539" lon="6.23631">
        <ele>159.1</ele>
        <time>2012-01-22T11:31:38Z</time>
      </trkpt>
      <trkpt lat="43.50553" lon="6.23621">
        <ele>157.1</ele>
        <time>2012-01-22T11:31:53Z</time>
      </trkpt>
      <trkpt lat="43.5056" lon="6.23618">
        <ele>156.1</ele>
        <time>2012-01-22T11:32:01Z</time>
      </trkpt>
      <trkpt lat="43.50569" lon="6.23615">
        <ele>155.1</ele>
        <time>2012-01-22T11:32:09Z</time>
      </trkpt>
      <trkpt lat="43.50576" lon="6.2361">
        <ele>153</ele>
        <time>2012-01-22T11:32:17Z</time>
      </trkpt>
      <trkpt lat="43.50584" lon="6.23605">
        <ele>151.3</ele>
        <time>2012-01-22T11:32:25Z</time>
      </trkpt>
      <trkpt lat="43.50591" lon="6.23599">
        <ele>152.3</ele>
        <time>2012-01-22T11:32:33Z</time>
      </trkpt>
      <trkpt lat="43.50598" lon="6.23592">
        <ele>152</ele>
        <time>2012-01-22T11:32:42Z</time>
      </trkpt>
      <trkpt lat="43.50598" lon="6.23591">
        <ele>151.8</ele>
        <time>2012-01-22T11:32:43Z</time>
      </trkpt>
      <trkpt lat="43.50611" lon="6.2358">
        <ele>149.7</ele>
        <time>2012-01-22T11:32:57Z</time>
      </trkpt>
      <trkpt lat="43.50619" lon="6.23578">
        <ele>149.6</ele>
        <time>2012-01-22T11:33:04Z</time>
      </trkpt>
      <trkpt lat="43.50627" lon="6.23576">
        <ele>149.3</ele>
        <time>2012-01-22T11:33:11Z</time>
      </trkpt>
      <trkpt lat="43.50635" lon="6.23574">
        <ele>150.1</ele>
        <time>2012-01-22T11:33:19Z</time>
      </trkpt>
      <trkpt lat="43.50644" lon="6.23572">
        <ele>148.6</ele>
        <time>2012-01-22T11:33:27Z</time>
      </trkpt>
      <trkpt lat="43.50653" lon="6.23572">
        <ele>150.7</ele>
        <time>2012-01-22T11:33:35Z</time>
      </trkpt>
      <trkpt lat="43.50661" lon="6.23574">
        <ele>149.6</ele>
        <time>2012-01-22T11:33:43Z</time>
      </trkpt>
      <trkpt lat="43.5067" lon="6.23575">
        <ele>148.6</ele>
        <time>2012-01-22T11:33:51Z</time>
      </trkpt>
      <trkpt lat="43.50671" lon="6.23575">
        <ele>148.1</ele>
        <time>2012-01-22T11:33:52Z</time>
      </trkpt>
      <trkpt lat="43.50686" lon="6.23581">
        <ele>149.2</ele>
        <time>2012-01-22T11:34:07Z</time>
      </trkpt>
      <trkpt lat="43.50694" lon="6.2358">
        <ele>148.7</ele>
        <time>2012-01-22T11:34:15Z</time>
      </trkpt>
      <trkpt lat="43.50699" lon="6.23571">
        <ele>149.3</ele>
        <time>2012-01-22T11:34:23Z</time>
      </trkpt>
      <trkpt lat="43.50704" lon="6.23562">
        <ele>147.7</ele>
        <time>2012-01-22T11:34:32Z</time>
      </trkpt>
      <trkpt lat="43.5071" lon="6.23553">
        <ele>146.2</ele>
        <time>2012-01-22T11:34:41Z</time>
      </trkpt>
      <trkpt lat="43.50715" lon="6.23546">
        <ele>146.5</ele>
        <time>2012-01-22T11:34:47Z</time>
      </trkpt>
      <trkpt lat="43.50723" lon="6.23543">
        <ele>146.5</ele>
        <time>2012-01-22T11:34:53Z</time>
      </trkpt>
      <trkpt lat="43.50725" lon="6.23542">
        <ele>146.9</ele>
        <time>2012-01-22T11:34:54Z</time>
      </trkpt>
      <trkpt lat="43.5074" lon="6.23536">
        <ele>145.9</ele>
        <time>2012-01-22T11:35:07Z</time>
      </trkpt>
      <trkpt lat="43.50748" lon="6.23532">
        <ele>146.4</ele>
        <time>2012-01-22T11:35:15Z</time>
      </trkpt>
      <trkpt lat="43.50756" lon="6.2353">
        <ele>146.3</ele>
        <time>2012-01-22T11:35:22Z</time>
      </trkpt>
      <trkpt lat="43.50765" lon="6.2353">
        <ele>144.8</ele>
        <time>2012-01-22T11:35:29Z</time>
      </trkpt>
      <trkpt lat="43.50773" lon="6.23529">
        <ele>143.9</ele>
        <time>2012-01-22T11:35:36Z</time>
      </trkpt>
      <trkpt lat="43.50781" lon="6.23531">
        <ele>143.1</ele>
        <time>2012-01-22T11:35:41Z</time>
      </trkpt>
      <trkpt lat="43.50789" lon="6.23535">
        <ele>143.8</ele>
        <time>2012-01-22T11:35:48Z</time>
      </trkpt>
      <trkpt lat="43.50798" lon="6.23536">
        <ele>145.3</ele>
        <time>2012-01-22T11:35:56Z</time>
      </trkpt>
      <trkpt lat="43.50799" lon="6.23535">
        <ele>145.5</ele>
        <time>2012-01-22T11:35:57Z</time>
      </trkpt>
      <trkpt lat="43.50814" lon="6.23539">
        <ele>146.4</ele>
        <time>2012-01-22T11:36:10Z</time>
      </trkpt>
      <trkpt lat="43.50822" lon="6.23542">
        <ele>146</ele>
        <time>2012-01-22T11:36:16Z</time>
      </trkpt>
      <trkpt lat="43.5083" lon="6.23544">
        <ele>146.1</ele>
        <time>2012-01-22T11:36:22Z</time>
      </trkpt>
      <trkpt lat="43.50838" lon="6.23545">
        <ele>145.9</ele>
        <time>2012-01-22T11:36:27Z</time>
      </trkpt>
      <trkpt lat="43.50846" lon="6.23547">
        <ele>145.9</ele>
        <time>2012-01-22T11:36:33Z</time>
      </trkpt>
      <trkpt lat="43.50854" lon="6.23546">
        <ele>147.1</ele>
        <time>2012-01-22T11:36:40Z</time>
      </trkpt>
      <trkpt lat="43.50863" lon="6.23545">
        <ele>147</ele>
        <time>2012-01-22T11:36:49Z</time>
      </trkpt>
      <trkpt lat="43.50871" lon="6.2355">
        <ele>147.5</ele>
        <time>2012-01-22T11:36:57Z</time>
      </trkpt>
      <trkpt lat="43.50872" lon="6.2355">
        <ele>147.3</ele>
        <time>2012-01-22T11:36:58Z</time>
      </trkpt>
      <trkpt lat="43.50887" lon="6.23549">
        <ele>147</ele>
        <time>2012-01-22T11:37:13Z</time>
      </trkpt>
      <trkpt lat="43.50896" lon="6.23547">
        <ele>147.2</ele>
        <time>2012-01-22T11:37:21Z</time>
      </trkpt>
      <trkpt lat="43.50904" lon="6.23549">
        <ele>146.2</ele>
        <time>2012-01-22T11:37:28Z</time>
      </trkpt>
      <trkpt lat="43.50912" lon="6.23552">
        <ele>144.6</ele>
        <time>2012-01-22T11:37:35Z</time>
      </trkpt>
      <trkpt lat="43.5092" lon="6.23554">
        <ele>147</ele>
        <time>2012-01-22T11:37:41Z</time>
      </trkpt>
      <trkpt lat="43.50928" lon="6.23554">
        <ele>147.2</ele>
        <time>2012-01-22T11:37:48Z</time>
      </trkpt>
      <trkpt lat="43.50937" lon="6.23553">
        <ele>148.2</ele>
        <time>2012-01-22T11:37:57Z</time>
      </trkpt>
      <trkpt lat="43.50945" lon="6.23557">
        <ele>150.4</ele>
        <time>2012-01-22T11:38:04Z</time>
      </trkpt>
      <trkpt lat="43.50946" lon="6.23559">
        <ele>150.6</ele>
        <time>2012-01-22T11:38:05Z</time>
      </trkpt>
      <trkpt lat="43.5096" lon="6.23566">
        <ele>149</ele>
        <time>2012-01-22T11:38:17Z</time>
      </trkpt>
      <trkpt lat="43.50967" lon="6.23571">
        <ele>149.1</ele>
        <time>2012-01-22T11:38:23Z</time>
      </trkpt>
      <trkpt lat="43.50975" lon="6.23574">
        <ele>149.8</ele>
        <time>2012-01-22T11:38:29Z</time>
      </trkpt>
      <trkpt lat="43.50983" lon="6.23578">
        <ele>151.1</ele>
        <time>2012-01-22T11:38:35Z</time>
      </trkpt>
      <trkpt lat="43.50988" lon="6.23586">
        <ele>150.5</ele>
        <time>2012-01-22T11:38:40Z</time>
      </trkpt>
      <trkpt lat="43.50992" lon="6.23596">
        <ele>150.7</ele>
        <time>2012-01-22T11:38:44Z</time>
      </trkpt>
      <trkpt lat="43.50994" lon="6.23606">
        <ele>151</ele>
        <time>2012-01-22T11:38:49Z</time>
      </trkpt>
      <trkpt lat="43.50994" lon="6.23618">
        <ele>153.2</ele>
        <time>2012-01-22T11:38:57Z</time>
      </trkpt>
      <trkpt lat="43.50992" lon="6.23628">
        <ele>154.9</ele>
        <time>2012-01-22T11:39:04Z</time>
      </trkpt>
      <trkpt lat="43.50991" lon="6.2364">
        <ele>154.5</ele>
        <time>2012-01-22T11:39:11Z</time>
      </trkpt>
      <trkpt lat="43.50991" lon="6.23642">
        <ele>155</ele>
        <time>2012-01-22T11:39:12Z</time>
      </trkpt>
      <trkpt lat="43.50989" lon="6.23662">
        <ele>155.5</ele>
        <time>2012-01-22T11:39:25Z</time>
      </trkpt>
      <trkpt lat="43.50988" lon="6.23674">
        <ele>154.7</ele>
        <time>2012-01-22T11:39:32Z</time>
      </trkpt>
      <trkpt lat="43.50987" lon="6.23686">
        <ele>156.1</ele>
        <time>2012-01-22T11:39:41Z</time>
      </trkpt>
      <trkpt lat="43.50988" lon="6.23698">
        <ele>154.5</ele>
        <time>2012-01-22T11:39:50Z</time>
      </trkpt>
      <trkpt lat="43.5099" lon="6.23708">
        <ele>156.2</ele>
        <time>2012-01-22T11:39:57Z</time>
      </trkpt>
      <trkpt lat="43.5099" lon="6.2372">
        <ele>155.6</ele>
        <time>2012-01-22T11:40:04Z</time>
      </trkpt>
      <trkpt lat="43.50988" lon="6.2373">
        <ele>156</ele>
        <time>2012-01-22T11:40:12Z</time>
      </trkpt>
      <trkpt lat="43.50988" lon="6.23732">
        <ele>155.8</ele>
        <time>2012-01-22T11:40:13Z</time>
      </trkpt>
      <trkpt lat="43.50986" lon="6.23753">
        <ele>154.9</ele>
        <time>2012-01-22T11:40:26Z</time>
      </trkpt>
      <trkpt lat="43.50983" lon="6.23762">
        <ele>155.1</ele>
        <time>2012-01-22T11:40:32Z</time>
      </trkpt>
      <trkpt lat="43.50979" lon="6.23774">
        <ele>154.8</ele>
        <time>2012-01-22T11:40:39Z</time>
      </trkpt>
      <trkpt lat="43.50976" lon="6.23784">
        <ele>154.6</ele>
        <time>2012-01-22T11:40:46Z</time>
      </trkpt>
      <trkpt lat="43.50974" lon="6.23796">
        <ele>153.9</ele>
        <time>2012-01-22T11:40:54Z</time>
      </trkpt>
      <trkpt lat="43.50975" lon="6.23808">
        <ele>152.9</ele>
        <time>2012-01-22T11:41:01Z</time>
      </trkpt>
      <trkpt lat="43.50977" lon="6.23819">
        <ele>154.2</ele>
        <time>2012-01-22T11:41:08Z</time>
      </trkpt>
      <trkpt lat="43.50979" lon="6.2383">
        <ele>154.2</ele>
        <time>2012-01-22T11:41:15Z</time>
      </trkpt>
      <trkpt lat="43.50979" lon="6.23832">
        <ele>154.6</ele>
        <time>2012-01-22T11:41:16Z</time>
      </trkpt>
      <trkpt lat="43.50986" lon="6.23852">
        <ele>155.7</ele>
        <time>2012-01-22T11:41:29Z</time>
      </trkpt>
      <trkpt lat="43.50988" lon="6.23864">
        <ele>154.4</ele>
        <time>2012-01-22T11:41:36Z</time>
      </trkpt>
      <trkpt lat="43.50989" lon="6.23876">
        <ele>155.4</ele>
        <time>2012-01-22T11:41:43Z</time>
      </trkpt>
      <trkpt lat="43.50991" lon="6.23887">
        <ele>154.7</ele>
        <time>2012-01-22T11:41:49Z</time>
      </trkpt>
      <trkpt lat="43.50992" lon="6.23899">
        <ele>155.4</ele>
        <time>2012-01-22T11:41:56Z</time>
      </trkpt>
      <trkpt lat="43.50993" lon="6.2391">
        <ele>153.9</ele>
        <time>2012-01-22T11:42:03Z</time>
      </trkpt>
      <trkpt lat="43.50995" lon="6.23921">
        <ele>154.3</ele>
        <time>2012-01-22T11:42:10Z</time>
      </trkpt>
      <trkpt lat="43.50995" lon="6.23933">
        <ele>155.1</ele>
        <time>2012-01-22T11:42:17Z</time>
      </trkpt>
      <trkpt lat="43.50995" lon="6.23935">
        <ele>155.4</ele>
        <time>2012-01-22T11:42:18Z</time>
      </trkpt>
      <trkpt lat="43.50995" lon="6.23956">
        <ele>154.5</ele>
        <time>2012-01-22T11:42:34Z</time>
      </trkpt>
      <trkpt lat="43.50992" lon="6.23967">
        <ele>154.8</ele>
        <time>2012-01-22T11:42:43Z</time>
      </trkpt>
      <trkpt lat="43.50986" lon="6.23975">
        <ele>155.6</ele>
        <time>2012-01-22T11:42:54Z</time>
      </trkpt>
      <trkpt lat="43.50978" lon="6.2398">
        <ele>155.5</ele>
        <time>2012-01-22T11:43:00Z</time>
      </trkpt>
      <trkpt lat="43.50972" lon="6.23986">
        <ele>156.3</ele>
        <time>2012-01-22T11:43:09Z</time>
      </trkpt>
      <trkpt lat="43.50964" lon="6.23993">
        <ele>157.5</ele>
        <time>2012-01-22T11:43:18Z</time>
      </trkpt>
      <trkpt lat="43.50958" lon="6.24">
        <ele>157.3</ele>
        <time>2012-01-22T11:43:28Z</time>
      </trkpt>
      <trkpt lat="43.50957" lon="6.24">
        <ele>156.7</ele>
        <time>2012-01-22T11:43:29Z</time>
      </trkpt>
      <trkpt lat="43.50944" lon="6.24013">
        <ele>156.6</ele>
        <time>2012-01-22T11:43:43Z</time>
      </trkpt>
      <trkpt lat="43.50937" lon="6.24019">
        <ele>156</ele>
        <time>2012-01-22T11:43:51Z</time>
      </trkpt>
      <trkpt lat="43.50932" lon="6.24028">
        <ele>156.2</ele>
        <time>2012-01-22T11:43:56Z</time>
      </trkpt>
      <trkpt lat="43.50928" lon="6.24037">
        <ele>156.1</ele>
        <time>2012-01-22T11:44:02Z</time>
      </trkpt>
      <trkpt lat="43.50921" lon="6.24045">
        <ele>156.6</ele>
        <time>2012-01-22T11:44:11Z</time>
      </trkpt>
      <trkpt lat="43.50915" lon="6.24053">
        <ele>155.6</ele>
        <time>2012-01-22T11:44:25Z</time>
      </trkpt>
      <trkpt lat="43.50911" lon="6.24063">
        <ele>156.3</ele>
        <time>2012-01-22T11:44:44Z</time>
      </trkpt>
      <trkpt lat="43.50911" lon="6.24065">
        <ele>156</ele>
        <time>2012-01-22T11:44:45Z</time>
      </trkpt>
      <trkpt lat="43.50906" lon="6.24086">
        <ele>156.8</ele>
        <time>2012-01-22T11:45:00Z</time>
      </trkpt>
      <trkpt lat="43.50906" lon="6.24097">
        <ele>157.1</ele>
        <time>2012-01-22T11:45:08Z</time>
      </trkpt>
      <trkpt lat="43.50907" lon="6.24108">
        <ele>157.5</ele>
        <time>2012-01-22T11:45:16Z</time>
      </trkpt>
      <trkpt lat="43.50909" lon="6.24119">
        <ele>156.2</ele>
        <time>2012-01-22T11:45:24Z</time>
      </trkpt>
      <trkpt lat="43.5091" lon="6.24131">
        <ele>156.2</ele>
        <time>2012-01-22T11:45:34Z</time>
      </trkpt>
      <trkpt lat="43.50908" lon="6.24143">
        <ele>156.8</ele>
        <time>2012-01-22T11:46:05Z</time>
      </trkpt>
      <trkpt lat="43.50908" lon="6.24144">
        <ele>157</ele>
        <time>2012-01-22T11:46:06Z</time>
      </trkpt>
      <trkpt lat="43.50903" lon="6.24166">
        <ele>156.7</ele>
        <time>2012-01-22T11:46:21Z</time>
      </trkpt>
      <trkpt lat="43.50901" lon="6.24177">
        <ele>155.3</ele>
        <time>2012-01-22T11:46:28Z</time>
      </trkpt>
      <trkpt lat="43.50903" lon="6.24189">
        <ele>155</ele>
        <time>2012-01-22T11:46:34Z</time>
      </trkpt>
      <trkpt lat="43.50904" lon="6.24201">
        <ele>154.4</ele>
        <time>2012-01-22T11:46:42Z</time>
      </trkpt>
      <trkpt lat="43.50906" lon="6.24212">
        <ele>154.3</ele>
        <time>2012-01-22T11:46:51Z</time>
      </trkpt>
      <trkpt lat="43.50908" lon="6.24223">
        <ele>155.1</ele>
        <time>2012-01-22T11:47:00Z</time>
      </trkpt>
      <trkpt lat="43.50913" lon="6.24233">
        <ele>154.7</ele>
        <time>2012-01-22T11:47:09Z</time>
      </trkpt>
      <trkpt lat="43.50913" lon="6.24234">
        <ele>154.5</ele>
        <time>2012-01-22T11:47:10Z</time>
      </trkpt>
      <trkpt lat="43.5092" lon="6.24253">
        <ele>155.7</ele>
        <time>2012-01-22T11:47:23Z</time>
      </trkpt>
      <trkpt lat="43.50923" lon="6.24263">
        <ele>155.2</ele>
        <time>2012-01-22T11:47:29Z</time>
      </trkpt>
      <trkpt lat="43.50924" lon="6.24276">
        <ele>155.7</ele>
        <time>2012-01-22T11:47:36Z</time>
      </trkpt>
      <trkpt lat="43.50925" lon="6.24287">
        <ele>155.8</ele>
        <time>2012-01-22T11:47:43Z</time>
      </trkpt>
      <trkpt lat="43.50925" lon="6.24298">
        <ele>156.3</ele>
        <time>2012-01-22T11:47:49Z</time>
      </trkpt>
      <trkpt lat="43.50925" lon="6.2431">
        <ele>158.1</ele>
        <time>2012-01-22T11:47:56Z</time>
      </trkpt>
      <trkpt lat="43.50923" lon="6.2432">
        <ele>158.2</ele>
        <time>2012-01-22T11:48:03Z</time>
      </trkpt>
      <trkpt lat="43.50921" lon="6.24331">
        <ele>160</ele>
        <time>2012-01-22T11:48:11Z</time>
      </trkpt>
      <trkpt lat="43.5092" lon="6.24333">
        <ele>159.9</ele>
        <time>2012-01-22T11:48:12Z</time>
      </trkpt>
      <trkpt lat="43.50912" lon="6.24352">
        <ele>161.2</ele>
        <time>2012-01-22T11:48:45Z</time>
      </trkpt>
      <trkpt lat="43.50912" lon="6.24365">
        <ele>162.9</ele>
        <time>2012-01-22T11:49:35Z</time>
      </trkpt>
      <trkpt lat="43.50912" lon="6.24365">
        <ele>162.9</ele>
        <time>2012-01-22T11:49:36Z</time>
      </trkpt>
      <trkpt lat="43.50927" lon="6.24354">
        <ele>164.4</ele>
        <time>2012-01-22T11:49:53Z</time>
      </trkpt>
      <trkpt lat="43.50934" lon="6.24347">
        <ele>164.6</ele>
        <time>2012-01-22T11:50:01Z</time>
      </trkpt>
      <trkpt lat="43.5094" lon="6.24338">
        <ele>164</ele>
        <time>2012-01-22T11:50:09Z</time>
      </trkpt>
      <trkpt lat="43.50948" lon="6.24331">
        <ele>164.8</ele>
        <time>2012-01-22T11:50:17Z</time>
      </trkpt>
      <trkpt lat="43.50954" lon="6.24324">
        <ele>165.2</ele>
        <time>2012-01-22T11:50:24Z</time>
      </trkpt>
      <trkpt lat="43.50961" lon="6.24317">
        <ele>165</ele>
        <time>2012-01-22T11:50:31Z</time>
      </trkpt>
      <trkpt lat="43.50968" lon="6.24311">
        <ele>164.6</ele>
        <time>2012-01-22T11:50:39Z</time>
      </trkpt>
      <trkpt lat="43.50969" lon="6.24311">
        <ele>164.8</ele>
        <time>2012-01-22T11:50:40Z</time>
      </trkpt>
      <trkpt lat="43.50982" lon="6.24298">
        <ele>164.7</ele>
        <time>2012-01-22T11:50:59Z</time>
      </trkpt>
      <trkpt lat="43.5099" lon="6.24295">
        <ele>164.8</ele>
        <time>2012-01-22T11:51:06Z</time>
      </trkpt>
      <trkpt lat="43.50999" lon="6.24292">
        <ele>163.9</ele>
        <time>2012-01-22T11:51:21Z</time>
      </trkpt>
      <trkpt lat="43.51005" lon="6.24285">
        <ele>163.8</ele>
        <time>2012-01-22T11:51:28Z</time>
      </trkpt>
      <trkpt lat="43.51011" lon="6.24276">
        <ele>163.1</ele>
        <time>2012-01-22T11:51:56Z</time>
      </trkpt>
      <trkpt lat="43.51011" lon="6.24275">
        <ele>162.9</ele>
        <time>2012-01-22T11:51:57Z</time>
      </trkpt>
      <trkpt lat="43.51027" lon="6.24268">
        <ele>161.1</ele>
        <time>2012-01-22T11:52:14Z</time>
      </trkpt>
      <trkpt lat="43.51035" lon="6.24266">
        <ele>161.6</ele>
        <time>2012-01-22T11:52:26Z</time>
      </trkpt>
      <trkpt lat="43.51043" lon="6.24264">
        <ele>160.7</ele>
        <time>2012-01-22T11:52:37Z</time>
      </trkpt>
      <trkpt lat="43.51051" lon="6.24258">
        <ele>160.3</ele>
        <time>2012-01-22T11:52:52Z</time>
      </trkpt>
      <trkpt lat="43.51059" lon="6.24253">
        <ele>159.8</ele>
        <time>2012-01-22T11:53:02Z</time>
      </trkpt>
      <trkpt lat="43.51061" lon="6.24253">
        <ele>160.1</ele>
        <time>2012-01-22T11:53:03Z</time>
      </trkpt>
      <trkpt lat="43.51072" lon="6.24237">
        <ele>161.6</ele>
        <time>2012-01-22T11:53:20Z</time>
      </trkpt>
      <trkpt lat="43.51077" lon="6.24227">
        <ele>161.9</ele>
        <time>2012-01-22T11:53:30Z</time>
      </trkpt>
      <trkpt lat="43.51081" lon="6.24216">
        <ele>161.1</ele>
        <time>2012-01-22T11:54:26Z</time>
      </trkpt>
      <trkpt lat="43.51081" lon="6.24216">
        <ele>161.1</ele>
        <time>2012-01-22T11:54:27Z</time>
      </trkpt>
      <trkpt lat="43.5108" lon="6.24217">
        <ele>161.7</ele>
        <time>2012-01-22T11:57:38Z</time>
      </trkpt>
      <trkpt lat="43.5108" lon="6.24218">
        <ele>161.6</ele>
        <time>2012-01-22T11:57:39Z</time>
      </trkpt>
      <trkpt lat="43.51073" lon="6.24239">
        <ele>161.5</ele>
        <time>2012-01-22T11:58:00Z</time>
      </trkpt>
      <trkpt lat="43.51067" lon="6.24246">
        <ele>163.6</ele>
        <time>2012-01-22T11:58:09Z</time>
      </trkpt>
      <trkpt lat="43.51059" lon="6.24252">
        <ele>161.8</ele>
        <time>2012-01-22T11:58:18Z</time>
      </trkpt>
      <trkpt lat="43.51052" lon="6.24257">
        <ele>161.4</ele>
        <time>2012-01-22T11:58:26Z</time>
      </trkpt>
      <trkpt lat="43.51043" lon="6.24259">
        <ele>161.8</ele>
        <time>2012-01-22T11:58:33Z</time>
      </trkpt>
      <trkpt lat="43.51035" lon="6.24261">
        <ele>161.4</ele>
        <time>2012-01-22T11:58:49Z</time>
      </trkpt>
      <trkpt lat="43.51034" lon="6.24261">
        <ele>161.4</ele>
        <time>2012-01-22T11:58:50Z</time>
      </trkpt>
      <trkpt lat="43.51019" lon="6.24268">
        <ele>162.5</ele>
        <time>2012-01-22T11:59:07Z</time>
      </trkpt>
      <trkpt lat="43.51014" lon="6.24276">
        <ele>163.4</ele>
        <time>2012-01-22T11:59:14Z</time>
      </trkpt>
      <trkpt lat="43.51006" lon="6.24281">
        <ele>163.8</ele>
        <time>2012-01-22T11:59:20Z</time>
      </trkpt>
      <trkpt lat="43.51" lon="6.24286">
        <ele>164.1</ele>
        <time>2012-01-22T11:59:26Z</time>
      </trkpt>
      <trkpt lat="43.50993" lon="6.24293">
        <ele>163.1</ele>
        <time>2012-01-22T11:59:34Z</time>
      </trkpt>
      <trkpt lat="43.50986" lon="6.24299">
        <ele>164.8</ele>
        <time>2012-01-22T11:59:42Z</time>
      </trkpt>
      <trkpt lat="43.50978" lon="6.24304">
        <ele>164.6</ele>
        <time>2012-01-22T11:59:49Z</time>
      </trkpt>
      <trkpt lat="43.5097" lon="6.2431">
        <ele>165</ele>
        <time>2012-01-22T11:59:57Z</time>
      </trkpt>
      <trkpt lat="43.50969" lon="6.24311">
        <ele>164.9</ele>
        <time>2012-01-22T11:59:58Z</time>
      </trkpt>
      <trkpt lat="43.50957" lon="6.24323">
        <ele>165.1</ele>
        <time>2012-01-22T12:00:10Z</time>
      </trkpt>
      <trkpt lat="43.5095" lon="6.24328">
        <ele>165</ele>
        <time>2012-01-22T12:00:16Z</time>
      </trkpt>
      <trkpt lat="43.50943" lon="6.24335">
        <ele>164.2</ele>
        <time>2012-01-22T12:00:23Z</time>
      </trkpt>
      <trkpt lat="43.50937" lon="6.24344">
        <ele>164.8</ele>
        <time>2012-01-22T12:00:30Z</time>
      </trkpt>
      <trkpt lat="43.50931" lon="6.24352">
        <ele>165.4</ele>
        <time>2012-01-22T12:00:37Z</time>
      </trkpt>
      <trkpt lat="43.50925" lon="6.2436">
        <ele>164.9</ele>
        <time>2012-01-22T12:00:44Z</time>
      </trkpt>
      <trkpt lat="43.50918" lon="6.24367">
        <ele>163.6</ele>
        <time>2012-01-22T12:00:51Z</time>
      </trkpt>
      <trkpt lat="43.50912" lon="6.24374">
        <ele>165.1</ele>
        <time>2012-01-22T12:00:58Z</time>
      </trkpt>
      <trkpt lat="43.50905" lon="6.2438">
        <ele>164.6</ele>
        <time>2012-01-22T12:01:05Z</time>
      </trkpt>
      <trkpt lat="43.50904" lon="6.24381">
        <ele>164.3</ele>
        <time>2012-01-22T12:01:06Z</time>
      </trkpt>
      <trkpt lat="43.50894" lon="6.24397">
        <ele>166.4</ele>
        <time>2012-01-22T12:01:20Z</time>
      </trkpt>
      <trkpt lat="43.50888" lon="6.24405">
        <ele>166.3</ele>
        <time>2012-01-22T12:01:27Z</time>
      </trkpt>
      <trkpt lat="43.50881" lon="6.24413">
        <ele>166.9</ele>
        <time>2012-01-22T12:01:35Z</time>
      </trkpt>
      <trkpt lat="43.50875" lon="6.2442">
        <ele>167.9</ele>
        <time>2012-01-22T12:01:42Z</time>
      </trkpt>
      <trkpt lat="43.5087" lon="6.24429">
        <ele>167.9</ele>
        <time>2012-01-22T12:01:50Z</time>
      </trkpt>
      <trkpt lat="43.50864" lon="6.24437">
        <ele>169.7</ele>
        <time>2012-01-22T12:01:59Z</time>
      </trkpt>
      <trkpt lat="43.50858" lon="6.24445">
        <ele>171.6</ele>
        <time>2012-01-22T12:02:08Z</time>
      </trkpt>
      <trkpt lat="43.50857" lon="6.24445">
        <ele>171.8</ele>
        <time>2012-01-22T12:02:09Z</time>
      </trkpt>
      <trkpt lat="43.50844" lon="6.24458">
        <ele>172.9</ele>
        <time>2012-01-22T12:02:31Z</time>
      </trkpt>
      <trkpt lat="43.50836" lon="6.24457">
        <ele>172.6</ele>
        <time>2012-01-22T12:02:41Z</time>
      </trkpt>
      <trkpt lat="43.50828" lon="6.24453">
        <ele>173.8</ele>
        <time>2012-01-22T12:02:49Z</time>
      </trkpt>
      <trkpt lat="43.50819" lon="6.24451">
        <ele>174</ele>
        <time>2012-01-22T12:02:57Z</time>
      </trkpt>
      <trkpt lat="43.50811" lon="6.24447">
        <ele>174.5</ele>
        <time>2012-01-22T12:03:05Z</time>
      </trkpt>
      <trkpt lat="43.50803" lon="6.24447">
        <ele>174.3</ele>
        <time>2012-01-22T12:03:13Z</time>
      </trkpt>
      <trkpt lat="43.50802" lon="6.24448">
        <ele>174.6</ele>
        <time>2012-01-22T12:03:14Z</time>
      </trkpt>
      <trkpt lat="43.50786" lon="6.24456">
        <ele>174.5</ele>
        <time>2012-01-22T12:03:31Z</time>
      </trkpt>
      <trkpt lat="43.50778" lon="6.2446">
        <ele>173.5</ele>
        <time>2012-01-22T12:03:38Z</time>
      </trkpt>
      <trkpt lat="43.5077" lon="6.24463">
        <ele>173.2</ele>
        <time>2012-01-22T12:03:45Z</time>
      </trkpt>
      <trkpt lat="43.50763" lon="6.24469">
        <ele>172.5</ele>
        <time>2012-01-22T12:03:51Z</time>
      </trkpt>
      <trkpt lat="43.50757" lon="6.24477">
        <ele>175.5</ele>
        <time>2012-01-22T12:03:59Z</time>
      </trkpt>
      <trkpt lat="43.50751" lon="6.24486">
        <ele>173.3</ele>
        <time>2012-01-22T12:04:07Z</time>
      </trkpt>
      <trkpt lat="43.50745" lon="6.24494">
        <ele>173.4</ele>
        <time>2012-01-22T12:04:15Z</time>
      </trkpt>
      <trkpt lat="43.50744" lon="6.24495">
        <ele>173.6</ele>
        <time>2012-01-22T12:04:16Z</time>
      </trkpt>
      <trkpt lat="43.50733" lon="6.2451">
        <ele>174.5</ele>
        <time>2012-01-22T12:04:30Z</time>
      </trkpt>
      <trkpt lat="43.50728" lon="6.24519">
        <ele>176.2</ele>
        <time>2012-01-22T12:04:38Z</time>
      </trkpt>
      <trkpt lat="43.50722" lon="6.24527">
        <ele>176</ele>
        <time>2012-01-22T12:04:45Z</time>
      </trkpt>
      <trkpt lat="43.50716" lon="6.24534">
        <ele>175.2</ele>
        <time>2012-01-22T12:04:52Z</time>
      </trkpt>
      <trkpt lat="43.50708" lon="6.24538">
        <ele>174.7</ele>
        <time>2012-01-22T12:04:59Z</time>
      </trkpt>
      <trkpt lat="43.507" lon="6.2454">
        <ele>175.3</ele>
        <time>2012-01-22T12:05:07Z</time>
      </trkpt>
      <trkpt lat="43.50692" lon="6.24535">
        <ele>176.9</ele>
        <time>2012-01-22T12:05:16Z</time>
      </trkpt>
      <trkpt lat="43.50691" lon="6.24534">
        <ele>176.9</ele>
        <time>2012-01-22T12:05:17Z</time>
      </trkpt>
      <trkpt lat="43.5068" lon="6.24518">
        <ele>181.5</ele>
        <time>2012-01-22T12:05:39Z</time>
      </trkpt>
      <trkpt lat="43.50672" lon="6.24511">
        <ele>182.3</ele>
        <time>2012-01-22T12:05:49Z</time>
      </trkpt>
      <trkpt lat="43.50665" lon="6.24518">
        <ele>184.9</ele>
        <time>2012-01-22T12:06:03Z</time>
      </trkpt>
      <trkpt lat="43.50657" lon="6.24523">
        <ele>187.4</ele>
        <time>2012-01-22T12:06:17Z</time>
      </trkpt>
      <trkpt lat="43.50656" lon="6.24523">
        <ele>187.1</ele>
        <time>2012-01-22T12:06:18Z</time>
      </trkpt>
      <trkpt lat="43.5064" lon="6.24523">
        <ele>191.6</ele>
        <time>2012-01-22T12:06:46Z</time>
      </trkpt>
      <trkpt lat="43.50631" lon="6.24525">
        <ele>192.7</ele>
        <time>2012-01-22T12:06:58Z</time>
      </trkpt>
      <trkpt lat="43.50623" lon="6.24525">
        <ele>193</ele>
        <time>2012-01-22T12:07:08Z</time>
      </trkpt>
      <trkpt lat="43.50614" lon="6.24523">
        <ele>195.1</ele>
        <time>2012-01-22T12:07:16Z</time>
      </trkpt>
      <trkpt lat="43.50605" lon="6.24521">
        <ele>195</ele>
        <time>2012-01-22T12:07:28Z</time>
      </trkpt>
      <trkpt lat="43.50605" lon="6.24521">
        <ele>194.6</ele>
        <time>2012-01-22T12:07:29Z</time>
      </trkpt>
      <trkpt lat="43.50589" lon="6.24516">
        <ele>197.2</ele>
        <time>2012-01-22T12:07:55Z</time>
      </trkpt>
      <trkpt lat="43.5058" lon="6.24516">
        <ele>198.8</ele>
        <time>2012-01-22T12:08:05Z</time>
      </trkpt>
      <trkpt lat="43.50572" lon="6.24512">
        <ele>201.1</ele>
        <time>2012-01-22T12:08:16Z</time>
      </trkpt>
      <trkpt lat="43.50564" lon="6.2451">
        <ele>201.7</ele>
        <time>2012-01-22T12:08:24Z</time>
      </trkpt>
      <trkpt lat="43.50556" lon="6.24509">
        <ele>202.5</ele>
        <time>2012-01-22T12:08:31Z</time>
      </trkpt>
      <trkpt lat="43.50555" lon="6.24509">
        <ele>202.9</ele>
        <time>2012-01-22T12:08:32Z</time>
      </trkpt>
      <trkpt lat="43.5054" lon="6.24501">
        <ele>202</ele>
        <time>2012-01-22T12:08:47Z</time>
      </trkpt>
      <trkpt lat="43.50532" lon="6.24496">
        <ele>203.9</ele>
        <time>2012-01-22T12:08:55Z</time>
      </trkpt>
      <trkpt lat="43.50525" lon="6.24491">
        <ele>205.2</ele>
        <time>2012-01-22T12:09:04Z</time>
      </trkpt>
      <trkpt lat="43.50517" lon="6.24486">
        <ele>203.9</ele>
        <time>2012-01-22T12:09:12Z</time>
      </trkpt>
      <trkpt lat="43.5051" lon="6.24479">
        <ele>205</ele>
        <time>2012-01-22T12:09:21Z</time>
      </trkpt>
      <trkpt lat="43.50503" lon="6.24472">
        <ele>208.1</ele>
        <time>2012-01-22T12:09:33Z</time>
      </trkpt>
      <trkpt lat="43.50503" lon="6.24471">
        <ele>208.2</ele>
        <time>2012-01-22T12:09:34Z</time>
      </trkpt>
      <trkpt lat="43.50487" lon="6.24464">
        <ele>212.6</ele>
        <time>2012-01-22T12:09:56Z</time>
      </trkpt>
      <trkpt lat="43.50479" lon="6.2446">
        <ele>213.2</ele>
        <time>2012-01-22T12:10:09Z</time>
      </trkpt>
      <trkpt lat="43.50471" lon="6.24456">
        <ele>214.8</ele>
        <time>2012-01-22T12:11:15Z</time>
      </trkpt>
      <trkpt lat="43.5047" lon="6.24456">
        <ele>214.7</ele>
        <time>2012-01-22T12:11:16Z</time>
      </trkpt>
      <trkpt lat="43.50465" lon="6.24445">
        <ele>211.9</ele>
        <time>2012-01-22T12:12:47Z</time>
      </trkpt>
      <trkpt lat="43.50449" lon="6.2444">
        <ele>209.4</ele>
        <time>2012-01-22T12:13:08Z</time>
      </trkpt>
      <trkpt lat="43.50441" lon="6.24441">
        <ele>208.7</ele>
        <time>2012-01-22T12:13:16Z</time>
      </trkpt>
      <trkpt lat="43.50433" lon="6.2444">
        <ele>208.5</ele>
        <time>2012-01-22T12:13:24Z</time>
      </trkpt>
      <trkpt lat="43.50425" lon="6.24441">
        <ele>209.1</ele>
        <time>2012-01-22T12:13:32Z</time>
      </trkpt>
      <trkpt lat="43.50416" lon="6.24441">
        <ele>206.5</ele>
        <time>2012-01-22T12:13:40Z</time>
      </trkpt>
      <trkpt lat="43.50408" lon="6.24442">
        <ele>206.2</ele>
        <time>2012-01-22T12:13:47Z</time>
      </trkpt>
      <trkpt lat="43.50407" lon="6.24442">
        <ele>206.5</ele>
        <time>2012-01-22T12:13:48Z</time>
      </trkpt>
      <trkpt lat="43.50392" lon="6.2444">
        <ele>208</ele>
        <time>2012-01-22T12:14:01Z</time>
      </trkpt>
      <trkpt lat="43.50384" lon="6.24435">
        <ele>207.2</ele>
        <time>2012-01-22T12:14:09Z</time>
      </trkpt>
      <trkpt lat="43.50377" lon="6.24431">
        <ele>205.8</ele>
        <time>2012-01-22T12:14:32Z</time>
      </trkpt>
      <trkpt lat="43.50369" lon="6.24425">
        <ele>207.3</ele>
        <time>2012-01-22T12:14:42Z</time>
      </trkpt>
      <trkpt lat="43.50362" lon="6.24418">
        <ele>209.6</ele>
        <time>2012-01-22T12:15:04Z</time>
      </trkpt>
      <trkpt lat="43.50361" lon="6.24417">
        <ele>210.2</ele>
        <time>2012-01-22T12:15:05Z</time>
      </trkpt>
      <trkpt lat="43.50347" lon="6.24407">
        <ele>211.6</ele>
        <time>2012-01-22T12:15:26Z</time>
      </trkpt>
      <trkpt lat="43.5034" lon="6.244">
        <ele>212.3</ele>
        <time>2012-01-22T12:15:38Z</time>
      </trkpt>
      <trkpt lat="43.50334" lon="6.24391">
        <ele>214.3</ele>
        <time>2012-01-22T12:15:50Z</time>
      </trkpt>
      <trkpt lat="43.50328" lon="6.24382">
        <ele>216.4</ele>
        <time>2012-01-22T12:16:03Z</time>
      </trkpt>
      <trkpt lat="43.50323" lon="6.24372">
        <ele>217.3</ele>
        <time>2012-01-22T12:16:14Z</time>
      </trkpt>
      <trkpt lat="43.50322" lon="6.24371">
        <ele>217.6</ele>
        <time>2012-01-22T12:16:15Z</time>
      </trkpt>
      <trkpt lat="43.50313" lon="6.24354">
        <ele>219.3</ele>
        <time>2012-01-22T12:16:31Z</time>
      </trkpt>
      <trkpt lat="43.50307" lon="6.24345">
        <ele>221.8</ele>
        <time>2012-01-22T12:16:41Z</time>
      </trkpt>
      <trkpt lat="43.50301" lon="6.24336">
        <ele>225.5</ele>
        <time>2012-01-22T12:16:53Z</time>
      </trkpt>
      <trkpt lat="43.50296" lon="6.24327">
        <ele>225.1</ele>
        <time>2012-01-22T12:17:03Z</time>
      </trkpt>
      <trkpt lat="43.50292" lon="6.24316">
        <ele>225.1</ele>
        <time>2012-01-22T12:17:12Z</time>
      </trkpt>
      <trkpt lat="43.50289" lon="6.24306">
        <ele>225.6</ele>
        <time>2012-01-22T12:17:20Z</time>
      </trkpt>
      <trkpt lat="43.50289" lon="6.24304">
        <ele>225.6</ele>
        <time>2012-01-22T12:17:21Z</time>
      </trkpt>
      <trkpt lat="43.50281" lon="6.24286">
        <ele>225.9</ele>
        <time>2012-01-22T12:17:33Z</time>
      </trkpt>
      <trkpt lat="43.50275" lon="6.24276">
        <ele>227.3</ele>
        <time>2012-01-22T12:17:41Z</time>
      </trkpt>
      <trkpt lat="43.50273" lon="6.24265">
        <ele>227.2</ele>
        <time>2012-01-22T12:18:35Z</time>
      </trkpt>
      <trkpt lat="43.50272" lon="6.24264">
        <ele>227</ele>
        <time>2012-01-22T12:18:36Z</time>
      </trkpt>
      <trkpt lat="43.50263" lon="6.24245">
        <ele>226.3</ele>
        <time>2012-01-22T12:19:30Z</time>
      </trkpt>
      <trkpt lat="43.50263" lon="6.24233">
        <ele>226.7</ele>
        <time>2012-01-22T12:20:25Z</time>
      </trkpt>
      <trkpt lat="43.50262" lon="6.24233">
        <ele>226.7</ele>
        <time>2012-01-22T12:20:26Z</time>
      </trkpt>
      <trkpt lat="43.50253" lon="6.24213">
        <ele>223.4</ele>
        <time>2012-01-22T12:20:47Z</time>
      </trkpt>
      <trkpt lat="43.50249" lon="6.24203">
        <ele>221.5</ele>
        <time>2012-01-22T12:21:00Z</time>
      </trkpt>
      <trkpt lat="43.50245" lon="6.24192">
        <ele>221</ele>
        <time>2012-01-22T12:21:11Z</time>
      </trkpt>
      <trkpt lat="43.50243" lon="6.24181">
        <ele>219.9</ele>
        <time>2012-01-22T12:21:21Z</time>
      </trkpt>
      <trkpt lat="43.50239" lon="6.2417">
        <ele>219.2</ele>
        <time>2012-01-22T12:21:30Z</time>
      </trkpt>
      <trkpt lat="43.50238" lon="6.24169">
        <ele>219.4</ele>
        <time>2012-01-22T12:21:31Z</time>
      </trkpt>
      <trkpt lat="43.50228" lon="6.24153">
        <ele>218.9</ele>
        <time>2012-01-22T12:21:44Z</time>
      </trkpt>
      <trkpt lat="43.50222" lon="6.24146">
        <ele>219.7</ele>
        <time>2012-01-22T12:21:52Z</time>
      </trkpt>
      <trkpt lat="43.50215" lon="6.24138">
        <ele>219.4</ele>
        <time>2012-01-22T12:22:00Z</time>
      </trkpt>
      <trkpt lat="43.50209" lon="6.24131">
        <ele>219.2</ele>
        <time>2012-01-22T12:22:07Z</time>
      </trkpt>
      <trkpt lat="43.50204" lon="6.24123">
        <ele>219.1</ele>
        <time>2012-01-22T12:22:14Z</time>
      </trkpt>
      <trkpt lat="43.50198" lon="6.24114">
        <ele>217.9</ele>
        <time>2012-01-22T12:22:22Z</time>
      </trkpt>
      <trkpt lat="43.50191" lon="6.24109">
        <ele>218.8</ele>
        <time>2012-01-22T12:22:31Z</time>
      </trkpt>
      <trkpt lat="43.5019" lon="6.24108">
        <ele>218.4</ele>
        <time>2012-01-22T12:22:32Z</time>
      </trkpt>
      <trkpt lat="43.50176" lon="6.24095">
        <ele>215</ele>
        <time>2012-01-22T12:22:52Z</time>
      </trkpt>
      <trkpt lat="43.50168" lon="6.24092">
        <ele>213.8</ele>
        <time>2012-01-22T12:23:04Z</time>
      </trkpt>
      <trkpt lat="43.50159" lon="6.24089">
        <ele>213.1</ele>
        <time>2012-01-22T12:23:16Z</time>
      </trkpt>
      <trkpt lat="43.50151" lon="6.24089">
        <ele>211.7</ele>
        <time>2012-01-22T12:23:27Z</time>
      </trkpt>
      <trkpt lat="43.50143" lon="6.24086">
        <ele>211.4</ele>
        <time>2012-01-22T12:23:35Z</time>
      </trkpt>
      <trkpt lat="43.50142" lon="6.24085">
        <ele>211.1</ele>
        <time>2012-01-22T12:23:36Z</time>
      </trkpt>
      <trkpt lat="43.50128" lon="6.24074">
        <ele>208.3</ele>
        <time>2012-01-22T12:23:52Z</time>
      </trkpt>
      <trkpt lat="43.50121" lon="6.24067">
        <ele>208.3</ele>
        <time>2012-01-22T12:24:01Z</time>
      </trkpt>
      <trkpt lat="43.50114" lon="6.24062">
        <ele>206</ele>
        <time>2012-01-22T12:24:11Z</time>
      </trkpt>
      <trkpt lat="43.50107" lon="6.24055">
        <ele>205.1</ele>
        <time>2012-01-22T12:24:19Z</time>
      </trkpt>
      <trkpt lat="43.50101" lon="6.24049">
        <ele>204</ele>
        <time>2012-01-22T12:24:28Z</time>
      </trkpt>
      <trkpt lat="43.50093" lon="6.24043">
        <ele>202</ele>
        <time>2012-01-22T12:24:38Z</time>
      </trkpt>
      <trkpt lat="43.50093" lon="6.24043">
        <ele>202</ele>
        <time>2012-01-22T12:24:39Z</time>
      </trkpt>
      <trkpt lat="43.50079" lon="6.2403">
        <ele>200.2</ele>
        <time>2012-01-22T12:24:58Z</time>
      </trkpt>
      <trkpt lat="43.50071" lon="6.24024">
        <ele>199.6</ele>
        <time>2012-01-22T12:25:07Z</time>
      </trkpt>
      <trkpt lat="43.50064" lon="6.24018">
        <ele>199.4</ele>
        <time>2012-01-22T12:25:16Z</time>
      </trkpt>
      <trkpt lat="43.50056" lon="6.24011">
        <ele>197.9</ele>
        <time>2012-01-22T12:25:25Z</time>
      </trkpt>
      <trkpt lat="43.50049" lon="6.24005">
        <ele>196.7</ele>
        <time>2012-01-22T12:25:34Z</time>
      </trkpt>
      <trkpt lat="43.50043" lon="6.23998">
        <ele>194.3</ele>
        <time>2012-01-22T12:25:43Z</time>
      </trkpt>
      <trkpt lat="43.50043" lon="6.23997">
        <ele>194.3</ele>
        <time>2012-01-22T12:25:44Z</time>
      </trkpt>
      <trkpt lat="43.50027" lon="6.23996">
        <ele>192.2</ele>
        <time>2012-01-22T12:26:21Z</time>
      </trkpt>
      <trkpt lat="43.50019" lon="6.24001">
        <ele>190.5</ele>
        <time>2012-01-22T12:26:34Z</time>
      </trkpt>
      <trkpt lat="43.50011" lon="6.24003">
        <ele>188.4</ele>
        <time>2012-01-22T12:26:45Z</time>
      </trkpt>
      <trkpt lat="43.5001" lon="6.24003">
        <ele>188.2</ele>
        <time>2012-01-22T12:26:46Z</time>
      </trkpt>
      <trkpt lat="43.49994" lon="6.24006">
        <ele>188.7</ele>
        <time>2012-01-22T12:27:01Z</time>
      </trkpt>
      <trkpt lat="43.49986" lon="6.24007">
        <ele>188</ele>
        <time>2012-01-22T12:27:27Z</time>
      </trkpt>
      <trkpt lat="43.49978" lon="6.24005">
        <ele>188</ele>
        <time>2012-01-22T12:27:35Z</time>
      </trkpt>
      <trkpt lat="43.4997" lon="6.24003">
        <ele>186.7</ele>
        <time>2012-01-22T12:27:44Z</time>
      </trkpt>
      <trkpt lat="43.49961" lon="6.23999">
        <ele>187.9</ele>
        <time>2012-01-22T12:27:54Z</time>
      </trkpt>
      <trkpt lat="43.49961" lon="6.23999">
        <ele>188</ele>
        <time>2012-01-22T12:27:55Z</time>
      </trkpt>
      <trkpt lat="43.49944" lon="6.23994">
        <ele>188.9</ele>
        <time>2012-01-22T12:28:13Z</time>
      </trkpt>
      <trkpt lat="43.49936" lon="6.23995">
        <ele>188.9</ele>
        <time>2012-01-22T12:28:21Z</time>
      </trkpt>
      <trkpt lat="43.49928" lon="6.23997">
        <ele>189</ele>
        <time>2012-01-22T12:28:30Z</time>
      </trkpt>
      <trkpt lat="43.49919" lon="6.24">
        <ele>189.9</ele>
        <time>2012-01-22T12:28:39Z</time>
      </trkpt>
      <trkpt lat="43.4991" lon="6.23997">
        <ele>190.6</ele>
        <time>2012-01-22T12:28:58Z</time>
      </trkpt>
      <trkpt lat="43.4991" lon="6.23998">
        <ele>190.7</ele>
        <time>2012-01-22T12:28:59Z</time>
      </trkpt>
      <trkpt lat="43.49901" lon="6.23995">
        <ele>192.5</ele>
        <time>2012-01-22T12:32:45Z</time>
      </trkpt>
      <trkpt lat="43.49887" lon="6.24006">
        <ele>192.9</ele>
        <time>2012-01-22T12:33:07Z</time>
      </trkpt>
      <trkpt lat="43.49879" lon="6.24011">
        <ele>194.6</ele>
        <time>2012-01-22T12:33:17Z</time>
      </trkpt>
      <trkpt lat="43.49871" lon="6.24015">
        <ele>195.2</ele>
        <time>2012-01-22T12:33:26Z</time>
      </trkpt>
      <trkpt lat="43.49863" lon="6.2402">
        <ele>194.8</ele>
        <time>2012-01-22T12:33:33Z</time>
      </trkpt>
      <trkpt lat="43.49855" lon="6.24024">
        <ele>195.8</ele>
        <time>2012-01-22T12:33:41Z</time>
      </trkpt>
      <trkpt lat="43.49847" lon="6.24029">
        <ele>197.4</ele>
        <time>2012-01-22T12:33:50Z</time>
      </trkpt>
      <trkpt lat="43.49846" lon="6.2403">
        <ele>197.7</ele>
        <time>2012-01-22T12:33:51Z</time>
      </trkpt>
      <trkpt lat="43.49836" lon="6.24047">
        <ele>197.9</ele>
        <time>2012-01-22T12:34:20Z</time>
      </trkpt>
      <trkpt lat="43.49832" lon="6.24058">
        <ele>198.3</ele>
        <time>2012-01-22T12:34:31Z</time>
      </trkpt>
      <trkpt lat="43.49831" lon="6.2407">
        <ele>197.9</ele>
        <time>2012-01-22T12:34:41Z</time>
      </trkpt>
      <trkpt lat="43.49826" lon="6.24081">
        <ele>197.1</ele>
        <time>2012-01-22T12:34:51Z</time>
      </trkpt>
      <trkpt lat="43.49826" lon="6.24081">
        <ele>196.8</ele>
        <time>2012-01-22T12:34:52Z</time>
      </trkpt>
      <trkpt lat="43.49822" lon="6.24104">
        <ele>198.9</ele>
        <time>2012-01-22T12:35:12Z</time>
      </trkpt>
      <trkpt lat="43.49823" lon="6.24115">
        <ele>198.9</ele>
        <time>2012-01-22T12:35:21Z</time>
      </trkpt>
      <trkpt lat="43.49823" lon="6.24127">
        <ele>199.3</ele>
        <time>2012-01-22T12:35:31Z</time>
      </trkpt>
      <trkpt lat="43.49819" lon="6.24138">
        <ele>200.3</ele>
        <time>2012-01-22T12:35:40Z</time>
      </trkpt>
      <trkpt lat="43.49816" lon="6.24149">
        <ele>199.8</ele>
        <time>2012-01-22T12:35:47Z</time>
      </trkpt>
      <trkpt lat="43.49812" lon="6.24159">
        <ele>200.4</ele>
        <time>2012-01-22T12:35:55Z</time>
      </trkpt>
      <trkpt lat="43.49811" lon="6.24161">
        <ele>200.4</ele>
        <time>2012-01-22T12:35:56Z</time>
      </trkpt>
      <trkpt lat="43.49802" lon="6.2418">
        <ele>202.1</ele>
        <time>2012-01-22T12:36:11Z</time>
      </trkpt>
      <trkpt lat="43.49797" lon="6.24188">
        <ele>201.5</ele>
        <time>2012-01-22T12:36:19Z</time>
      </trkpt>
      <trkpt lat="43.49792" lon="6.24198">
        <ele>201.9</ele>
        <time>2012-01-22T12:36:34Z</time>
      </trkpt>
      <trkpt lat="43.49786" lon="6.24206">
        <ele>203.2</ele>
        <time>2012-01-22T12:36:47Z</time>
      </trkpt>
      <trkpt lat="43.49779" lon="6.24213">
        <ele>203.3</ele>
        <time>2012-01-22T12:36:56Z</time>
      </trkpt>
      <trkpt lat="43.49778" lon="6.24213">
        <ele>203</ele>
        <time>2012-01-22T12:36:57Z</time>
      </trkpt>
      <trkpt lat="43.49765" lon="6.24227">
        <ele>203.2</ele>
        <time>2012-01-22T12:37:44Z</time>
      </trkpt>
      <trkpt lat="43.49762" lon="6.24239">
        <ele>203.8</ele>
        <time>2012-01-22T12:38:02Z</time>
      </trkpt>
      <trkpt lat="43.49762" lon="6.24239">
        <ele>203.8</ele>
        <time>2012-01-22T12:38:03Z</time>
      </trkpt>
      <trkpt lat="43.49748" lon="6.24253">
        <ele>203.1</ele>
        <time>2012-01-22T12:38:54Z</time>
      </trkpt>
      <trkpt lat="43.4974" lon="6.24253">
        <ele>203</ele>
        <time>2012-01-22T12:39:07Z</time>
      </trkpt>
      <trkpt lat="43.49739" lon="6.24252">
        <ele>203.2</ele>
        <time>2012-01-22T12:39:08Z</time>
      </trkpt>
      <trkpt lat="43.49724" lon="6.24251">
        <ele>201</ele>
        <time>2012-01-22T12:40:32Z</time>
      </trkpt>
      <trkpt lat="43.49723" lon="6.24251">
        <ele>200.9</ele>
        <time>2012-01-22T12:40:33Z</time>
      </trkpt>
      <trkpt lat="43.49717" lon="6.24259">
        <ele>199</ele>
        <time>2012-01-22T12:41:39Z</time>
      </trkpt>
      <trkpt lat="43.49724" lon="6.2425">
        <ele>200.5</ele>
        <time>2012-01-22T12:43:28Z</time>
      </trkpt>
      <trkpt lat="43.49739" lon="6.24248">
        <ele>203.8</ele>
        <time>2012-01-22T12:44:11Z</time>
      </trkpt>
      <trkpt lat="43.49748" lon="6.24252">
        <ele>202.6</ele>
        <time>2012-01-22T12:44:47Z</time>
      </trkpt>
      <trkpt lat="43.49748" lon="6.24252">
        <ele>203.2</ele>
        <time>2012-01-22T12:44:48Z</time>
      </trkpt>
      <trkpt lat="43.4975" lon="6.24275">
        <ele>201.8</ele>
        <time>2012-01-22T12:46:17Z</time>
      </trkpt>
      <trkpt lat="43.4975" lon="6.24276">
        <ele>201.9</ele>
        <time>2012-01-22T12:46:18Z</time>
      </trkpt>
      <trkpt lat="43.49745" lon="6.24298">
        <ele>200.5</ele>
        <time>2012-01-22T12:46:37Z</time>
      </trkpt>
      <trkpt lat="43.49739" lon="6.24306">
        <ele>200.5</ele>
        <time>2012-01-22T12:46:46Z</time>
      </trkpt>
      <trkpt lat="43.49739" lon="6.24317">
        <ele>200.6</ele>
        <time>2012-01-22T12:47:00Z</time>
      </trkpt>
      <trkpt lat="43.49738" lon="6.24329">
        <ele>200.1</ele>
        <time>2012-01-22T12:47:09Z</time>
      </trkpt>
      <trkpt lat="43.49739" lon="6.24341">
        <ele>200.2</ele>
        <time>2012-01-22T12:47:21Z</time>
      </trkpt>
      <trkpt lat="43.49739" lon="6.24342">
        <ele>199.9</ele>
        <time>2012-01-22T12:47:22Z</time>
      </trkpt>
      <trkpt lat="43.49751" lon="6.24357">
        <ele>200.7</ele>
        <time>2012-01-22T12:47:40Z</time>
      </trkpt>
      <trkpt lat="43.49759" lon="6.24361">
        <ele>200.2</ele>
        <time>2012-01-22T12:47:50Z</time>
      </trkpt>
      <trkpt lat="43.49767" lon="6.24367">
        <ele>200.5</ele>
        <time>2012-01-22T12:48:00Z</time>
      </trkpt>
      <trkpt lat="43.49773" lon="6.24375">
        <ele>198.8</ele>
        <time>2012-01-22T12:48:11Z</time>
      </trkpt>
      <trkpt lat="43.49781" lon="6.24381">
        <ele>198.9</ele>
        <time>2012-01-22T12:48:36Z</time>
      </trkpt>
      <trkpt lat="43.49781" lon="6.24382">
        <ele>198.8</ele>
        <time>2012-01-22T12:48:37Z</time>
      </trkpt>
      <trkpt lat="43.49788" lon="6.24403">
        <ele>200.6</ele>
        <time>2012-01-22T12:49:22Z</time>
      </trkpt>
      <trkpt lat="43.4979" lon="6.24414">
        <ele>198</ele>
        <time>2012-01-22T12:49:33Z</time>
      </trkpt>
      <trkpt lat="43.49789" lon="6.24426">
        <ele>198.7</ele>
        <time>2012-01-22T12:49:43Z</time>
      </trkpt>
      <trkpt lat="43.49789" lon="6.24427">
        <ele>198.5</ele>
        <time>2012-01-22T12:49:44Z</time>
      </trkpt>
      <trkpt lat="43.49785" lon="6.24448">
        <ele>196.5</ele>
        <time>2012-01-22T12:49:58Z</time>
      </trkpt>
      <trkpt lat="43.49785" lon="6.24459">
        <ele>197.9</ele>
        <time>2012-01-22T12:50:06Z</time>
      </trkpt>
      <trkpt lat="43.49779" lon="6.24468">
        <ele>196.6</ele>
        <time>2012-01-22T12:50:16Z</time>
      </trkpt>
      <trkpt lat="43.49771" lon="6.24467">
        <ele>194.8</ele>
        <time>2012-01-22T12:50:28Z</time>
      </trkpt>
      <trkpt lat="43.49762" lon="6.24468">
        <ele>194.4</ele>
        <time>2012-01-22T12:50:39Z</time>
      </trkpt>
      <trkpt lat="43.49754" lon="6.24471">
        <ele>194.6</ele>
        <time>2012-01-22T12:50:48Z</time>
      </trkpt>
      <trkpt lat="43.49753" lon="6.24471">
        <ele>194.1</ele>
        <time>2012-01-22T12:50:49Z</time>
      </trkpt>
      <trkpt lat="43.49737" lon="6.24472">
        <ele>193.5</ele>
        <time>2012-01-22T12:51:03Z</time>
      </trkpt>
      <trkpt lat="43.4973" lon="6.24476">
        <ele>193.5</ele>
        <time>2012-01-22T12:51:09Z</time>
      </trkpt>
      <trkpt lat="43.49723" lon="6.24484">
        <ele>192.5</ele>
        <time>2012-01-22T12:51:17Z</time>
      </trkpt>
      <trkpt lat="43.49717" lon="6.24493">
        <ele>193.1</ele>
        <time>2012-01-22T12:51:30Z</time>
      </trkpt>
      <trkpt lat="43.4971" lon="6.245">
        <ele>191.5</ele>
        <time>2012-01-22T12:51:39Z</time>
      </trkpt>
      <trkpt lat="43.49702" lon="6.245">
        <ele>193.1</ele>
        <time>2012-01-22T12:51:45Z</time>
      </trkpt>
      <trkpt lat="43.49694" lon="6.24501">
        <ele>191.8</ele>
        <time>2012-01-22T12:51:52Z</time>
      </trkpt>
      <trkpt lat="43.49693" lon="6.24501">
        <ele>191.7</ele>
        <time>2012-01-22T12:51:53Z</time>
      </trkpt>
      <trkpt lat="43.49677" lon="6.24501">
        <ele>192.7</ele>
        <time>2012-01-22T12:52:10Z</time>
      </trkpt>
      <trkpt lat="43.49668" lon="6.24503">
        <ele>192.3</ele>
        <time>2012-01-22T12:52:18Z</time>
      </trkpt>
      <trkpt lat="43.49659" lon="6.24503">
        <ele>193</ele>
        <time>2012-01-22T12:52:27Z</time>
      </trkpt>
      <trkpt lat="43.49651" lon="6.24503">
        <ele>192.6</ele>
        <time>2012-01-22T12:52:35Z</time>
      </trkpt>
      <trkpt lat="43.49642" lon="6.24501">
        <ele>191.4</ele>
        <time>2012-01-22T12:52:43Z</time>
      </trkpt>
      <trkpt lat="43.49634" lon="6.245">
        <ele>191</ele>
        <time>2012-01-22T12:52:51Z</time>
      </trkpt>
      <trkpt lat="43.49625" lon="6.24502">
        <ele>190.4</ele>
        <time>2012-01-22T12:53:01Z</time>
      </trkpt>
      <trkpt lat="43.49625" lon="6.24502">
        <ele>190.4</ele>
        <time>2012-01-22T12:53:02Z</time>
      </trkpt>
      <trkpt lat="43.49609" lon="6.24509">
        <ele>189.7</ele>
        <time>2012-01-22T12:53:24Z</time>
      </trkpt>
      <trkpt lat="43.49602" lon="6.24515">
        <ele>188.7</ele>
        <time>2012-01-22T12:53:32Z</time>
      </trkpt>
      <trkpt lat="43.49595" lon="6.24522">
        <ele>185.6</ele>
        <time>2012-01-22T12:53:42Z</time>
      </trkpt>
      <trkpt lat="43.49586" lon="6.24522">
        <ele>185</ele>
        <time>2012-01-22T12:53:51Z</time>
      </trkpt>
      <trkpt lat="43.49585" lon="6.2451">
        <ele>185</ele>
        <time>2012-01-22T12:54:04Z</time>
      </trkpt>
      <trkpt lat="43.49585" lon="6.24509">
        <ele>185.4</ele>
        <time>2012-01-22T12:54:05Z</time>
      </trkpt>
      <trkpt lat="43.49585" lon="6.24487">
        <ele>180.7</ele>
        <time>2012-01-22T12:54:22Z</time>
      </trkpt>
      <trkpt lat="43.4958" lon="6.24477">
        <ele>181.2</ele>
        <time>2012-01-22T12:54:30Z</time>
      </trkpt>
      <trkpt lat="43.49576" lon="6.24465">
        <ele>181.9</ele>
        <time>2012-01-22T12:54:38Z</time>
      </trkpt>
      <trkpt lat="43.49572" lon="6.24454">
        <ele>180.8</ele>
        <time>2012-01-22T12:54:58Z</time>
      </trkpt>
      <trkpt lat="43.49568" lon="6.24445">
        <ele>179.9</ele>
        <time>2012-01-22T12:55:06Z</time>
      </trkpt>
      <trkpt lat="43.49567" lon="6.24444">
        <ele>179.8</ele>
        <time>2012-01-22T12:55:07Z</time>
      </trkpt>
      <trkpt lat="43.49556" lon="6.24427">
        <ele>179.4</ele>
        <time>2012-01-22T12:55:23Z</time>
      </trkpt>
      <trkpt lat="43.4955" lon="6.24419">
        <ele>179.8</ele>
        <time>2012-01-22T12:55:31Z</time>
      </trkpt>
      <trkpt lat="43.49547" lon="6.24408">
        <ele>179.6</ele>
        <time>2012-01-22T12:56:23Z</time>
      </trkpt>
      <trkpt lat="43.49547" lon="6.24407">
        <ele>179.8</ele>
        <time>2012-01-22T12:56:24Z</time>
      </trkpt>
      <trkpt lat="43.49533" lon="6.24394">
        <ele>179.3</ele>
        <time>2012-01-22T12:57:17Z</time>
      </trkpt>
      <trkpt lat="43.49529" lon="6.24384">
        <ele>180.6</ele>
        <time>2012-01-22T12:57:28Z</time>
      </trkpt>
      <trkpt lat="43.49528" lon="6.24383">
        <ele>180.4</ele>
        <time>2012-01-22T12:57:29Z</time>
      </trkpt>
      <trkpt lat="43.49522" lon="6.24362">
        <ele>181</ele>
        <time>2012-01-22T12:57:46Z</time>
      </trkpt>
      <trkpt lat="43.49514" lon="6.24355">
        <ele>181.4</ele>
        <time>2012-01-22T12:57:58Z</time>
      </trkpt>
      <trkpt lat="43.49506" lon="6.24356">
        <ele>181.2</ele>
        <time>2012-01-22T12:58:07Z</time>
      </trkpt>
      <trkpt lat="43.49498" lon="6.24359">
        <ele>180.5</ele>
        <time>2012-01-22T12:58:16Z</time>
      </trkpt>
      <trkpt lat="43.49489" lon="6.24361">
        <ele>180.8</ele>
        <time>2012-01-22T12:58:24Z</time>
      </trkpt>
      <trkpt lat="43.49481" lon="6.24365">
        <ele>180.6</ele>
        <time>2012-01-22T12:58:31Z</time>
      </trkpt>
      <trkpt lat="43.4948" lon="6.24365">
        <ele>180.2</ele>
        <time>2012-01-22T12:58:32Z</time>
      </trkpt>
      <trkpt lat="43.49474" lon="6.24383">
        <ele>178.6</ele>
        <time>2012-01-22T12:58:51Z</time>
      </trkpt>
      <trkpt lat="43.49476" lon="6.24395">
        <ele>177.6</ele>
        <time>2012-01-22T12:59:02Z</time>
      </trkpt>
      <trkpt lat="43.49477" lon="6.24407">
        <ele>176.9</ele>
        <time>2012-01-22T12:59:11Z</time>
      </trkpt>
      <trkpt lat="43.49474" lon="6.24418">
        <ele>177.1</ele>
        <time>2012-01-22T12:59:21Z</time>
      </trkpt>
      <trkpt lat="43.4947" lon="6.24427">
        <ele>178.4</ele>
        <time>2012-01-22T12:59:28Z</time>
      </trkpt>
      <trkpt lat="43.49465" lon="6.24437">
        <ele>178</ele>
        <time>2012-01-22T12:59:36Z</time>
      </trkpt>
      <trkpt lat="43.49464" lon="6.24439">
        <ele>178.2</ele>
        <time>2012-01-22T12:59:37Z</time>
      </trkpt>
      <trkpt lat="43.49455" lon="6.24455">
        <ele>177.3</ele>
        <time>2012-01-22T12:59:53Z</time>
      </trkpt>
      <trkpt lat="43.49448" lon="6.24463">
        <ele>177</ele>
        <time>2012-01-22T13:00:00Z</time>
      </trkpt>
      <trkpt lat="43.49441" lon="6.24468">
        <ele>176.8</ele>
        <time>2012-01-22T13:00:06Z</time>
      </trkpt>
      <trkpt lat="43.49433" lon="6.24472">
        <ele>175.4</ele>
        <time>2012-01-22T13:00:13Z</time>
      </trkpt>
      <trkpt lat="43.49425" lon="6.2447">
        <ele>176.7</ele>
        <time>2012-01-22T13:00:21Z</time>
      </trkpt>
      <trkpt lat="43.49416" lon="6.24468">
        <ele>177</ele>
        <time>2012-01-22T13:00:30Z</time>
      </trkpt>
      <trkpt lat="43.49408" lon="6.24469">
        <ele>178.4</ele>
        <time>2012-01-22T13:00:39Z</time>
      </trkpt>
      <trkpt lat="43.49407" lon="6.24469">
        <ele>178.2</ele>
        <time>2012-01-22T13:00:40Z</time>
      </trkpt>
      <trkpt lat="43.49393" lon="6.24477">
        <ele>178.2</ele>
        <time>2012-01-22T13:00:52Z</time>
      </trkpt>
      <trkpt lat="43.49385" lon="6.24482">
        <ele>176.3</ele>
        <time>2012-01-22T13:00:59Z</time>
      </trkpt>
      <trkpt lat="43.49378" lon="6.24487">
        <ele>176.6</ele>
        <time>2012-01-22T13:01:06Z</time>
      </trkpt>
      <trkpt lat="43.4937" lon="6.24492">
        <ele>177.6</ele>
        <time>2012-01-22T13:01:13Z</time>
      </trkpt>
      <trkpt lat="43.49363" lon="6.24498">
        <ele>176.8</ele>
        <time>2012-01-22T13:01:20Z</time>
      </trkpt>
      <trkpt lat="43.49356" lon="6.24504">
        <ele>177.3</ele>
        <time>2012-01-22T13:01:27Z</time>
      </trkpt>
      <trkpt lat="43.49351" lon="6.24515">
        <ele>177.1</ele>
        <time>2012-01-22T13:01:36Z</time>
      </trkpt>
      <trkpt lat="43.49353" lon="6.24526">
        <ele>177.3</ele>
        <time>2012-01-22T13:01:47Z</time>
      </trkpt>
      <trkpt lat="43.49354" lon="6.24527">
        <ele>177.1</ele>
        <time>2012-01-22T13:01:48Z</time>
      </trkpt>
      <trkpt lat="43.49352" lon="6.24549">
        <ele>177.2</ele>
        <time>2012-01-22T13:02:11Z</time>
      </trkpt>
      <trkpt lat="43.49353" lon="6.2456">
        <ele>177.7</ele>
        <time>2012-01-22T13:02:19Z</time>
      </trkpt>
      <trkpt lat="43.49354" lon="6.2457">
        <ele>176.1</ele>
        <time>2012-01-22T13:02:26Z</time>
      </trkpt>
      <trkpt lat="43.49354" lon="6.24583">
        <ele>177.5</ele>
        <time>2012-01-22T13:02:34Z</time>
      </trkpt>
      <trkpt lat="43.49354" lon="6.24594">
        <ele>177.1</ele>
        <time>2012-01-22T13:02:42Z</time>
      </trkpt>
      <trkpt lat="43.49352" lon="6.24606">
        <ele>176.6</ele>
        <time>2012-01-22T13:02:50Z</time>
      </trkpt>
      <trkpt lat="43.49352" lon="6.24607">
        <ele>176.4</ele>
        <time>2012-01-22T13:02:51Z</time>
      </trkpt>
      <trkpt lat="43.49346" lon="6.24628">
        <ele>176.1</ele>
        <time>2012-01-22T13:03:05Z</time>
      </trkpt>
      <trkpt lat="43.49344" lon="6.24639">
        <ele>176.5</ele>
        <time>2012-01-22T13:03:12Z</time>
      </trkpt>
      <trkpt lat="43.49341" lon="6.2465">
        <ele>177.4</ele>
        <time>2012-01-22T13:03:19Z</time>
      </trkpt>
      <trkpt lat="43.49339" lon="6.24661">
        <ele>178.5</ele>
        <time>2012-01-22T13:03:26Z</time>
      </trkpt>
      <trkpt lat="43.49337" lon="6.24673">
        <ele>178.9</ele>
        <time>2012-01-22T13:03:34Z</time>
      </trkpt>
      <trkpt lat="43.49334" lon="6.24684">
        <ele>179.9</ele>
        <time>2012-01-22T13:03:41Z</time>
      </trkpt>
      <trkpt lat="43.49331" lon="6.24693">
        <ele>178.5</ele>
        <time>2012-01-22T13:03:48Z</time>
      </trkpt>
      <trkpt lat="43.49325" lon="6.24703">
        <ele>177.3</ele>
        <time>2012-01-22T13:03:55Z</time>
      </trkpt>
      <trkpt lat="43.49324" lon="6.24704">
        <ele>177.7</ele>
        <time>2012-01-22T13:03:56Z</time>
      </trkpt>
      <trkpt lat="43.49316" lon="6.24722">
        <ele>177.7</ele>
        <time>2012-01-22T13:04:11Z</time>
      </trkpt>
      <trkpt lat="43.49313" lon="6.24734">
        <ele>175.7</ele>
        <time>2012-01-22T13:04:19Z</time>
      </trkpt>
      <trkpt lat="43.49309" lon="6.24744">
        <ele>175.1</ele>
        <time>2012-01-22T13:04:26Z</time>
      </trkpt>
      <trkpt lat="43.49305" lon="6.24754">
        <ele>176.4</ele>
        <time>2012-01-22T13:04:33Z</time>
      </trkpt>
      <trkpt lat="43.49302" lon="6.24764">
        <ele>176</ele>
        <time>2012-01-22T13:04:40Z</time>
      </trkpt>
      <trkpt lat="43.49297" lon="6.24774">
        <ele>175.8</ele>
        <time>2012-01-22T13:04:47Z</time>
      </trkpt>
      <trkpt lat="43.49292" lon="6.24784">
        <ele>174.8</ele>
        <time>2012-01-22T13:04:55Z</time>
      </trkpt>
      <trkpt lat="43.49287" lon="6.24793">
        <ele>176.3</ele>
        <time>2012-01-22T13:05:02Z</time>
      </trkpt>
      <trkpt lat="43.49286" lon="6.24794">
        <ele>176.8</ele>
        <time>2012-01-22T13:05:03Z</time>
      </trkpt>
      <trkpt lat="43.49275" lon="6.24808">
        <ele>177.8</ele>
        <time>2012-01-22T13:05:16Z</time>
      </trkpt>
      <trkpt lat="43.49268" lon="6.24817">
        <ele>177.7</ele>
        <time>2012-01-22T13:05:24Z</time>
      </trkpt>
      <trkpt lat="43.49263" lon="6.24825">
        <ele>176.8</ele>
        <time>2012-01-22T13:05:31Z</time>
      </trkpt>
      <trkpt lat="43.49256" lon="6.24831">
        <ele>176.4</ele>
        <time>2012-01-22T13:05:38Z</time>
      </trkpt>
      <trkpt lat="43.49247" lon="6.24833">
        <ele>178</ele>
        <time>2012-01-22T13:05:47Z</time>
      </trkpt>
      <trkpt lat="43.49239" lon="6.24835">
        <ele>176.8</ele>
        <time>2012-01-22T13:05:56Z</time>
      </trkpt>
      <trkpt lat="43.49231" lon="6.24838">
        <ele>176.9</ele>
        <time>2012-01-22T13:06:04Z</time>
      </trkpt>
      <trkpt lat="43.4923" lon="6.24838">
        <ele>176.4</ele>
        <time>2012-01-22T13:06:05Z</time>
      </trkpt>
      <trkpt lat="43.49214" lon="6.24841">
        <ele>174.3</ele>
        <time>2012-01-22T13:06:19Z</time>
      </trkpt>
      <trkpt lat="43.49206" lon="6.24843">
        <ele>174.3</ele>
        <time>2012-01-22T13:06:26Z</time>
      </trkpt>
      <trkpt lat="43.49198" lon="6.24848">
        <ele>174.8</ele>
        <time>2012-01-22T13:06:34Z</time>
      </trkpt>
      <trkpt lat="43.49189" lon="6.24849">
        <ele>175.9</ele>
        <time>2012-01-22T13:06:42Z</time>
      </trkpt>
      <trkpt lat="43.4918" lon="6.24851">
        <ele>175</ele>
        <time>2012-01-22T13:06:49Z</time>
      </trkpt>
      <trkpt lat="43.49172" lon="6.24853">
        <ele>175.3</ele>
        <time>2012-01-22T13:06:56Z</time>
      </trkpt>
      <trkpt lat="43.49164" lon="6.24857">
        <ele>175.2</ele>
        <time>2012-01-22T13:07:03Z</time>
      </trkpt>
      <trkpt lat="43.49157" lon="6.24863">
        <ele>174.8</ele>
        <time>2012-01-22T13:07:13Z</time>
      </trkpt>
      <trkpt lat="43.49156" lon="6.24864">
        <ele>175.2</ele>
        <time>2012-01-22T13:07:14Z</time>
      </trkpt>
      <trkpt lat="43.49144" lon="6.24879">
        <ele>175.9</ele>
        <time>2012-01-22T13:07:29Z</time>
      </trkpt>
      <trkpt lat="43.49137" lon="6.24887">
        <ele>175.7</ele>
        <time>2012-01-22T13:07:38Z</time>
      </trkpt>
      <trkpt lat="43.4913" lon="6.24894">
        <ele>175.2</ele>
        <time>2012-01-22T13:07:44Z</time>
      </trkpt>
      <trkpt lat="43.49123" lon="6.249">
        <ele>174.6</ele>
        <time>2012-01-22T13:07:50Z</time>
      </trkpt>
      <trkpt lat="43.49116" lon="6.24906">
        <ele>175.6</ele>
        <time>2012-01-22T13:07:57Z</time>
      </trkpt>
      <trkpt lat="43.49109" lon="6.24912">
        <ele>175.9</ele>
        <time>2012-01-22T13:08:03Z</time>
      </trkpt>
      <trkpt lat="43.49102" lon="6.24917">
        <ele>174.7</ele>
        <time>2012-01-22T13:08:09Z</time>
      </trkpt>
      <trkpt lat="43.49094" lon="6.24922">
        <ele>174.6</ele>
        <time>2012-01-22T13:08:16Z</time>
      </trkpt>
      <trkpt lat="43.49093" lon="6.24922">
        <ele>174.7</ele>
        <time>2012-01-22T13:08:17Z</time>
      </trkpt>
      <trkpt lat="43.49079" lon="6.24927">
        <ele>174.7</ele>
        <time>2012-01-22T13:08:31Z</time>
      </trkpt>
      <trkpt lat="43.49071" lon="6.24931">
        <ele>173.7</ele>
        <time>2012-01-22T13:08:39Z</time>
      </trkpt>
      <trkpt lat="43.49063" lon="6.24933">
        <ele>172</ele>
        <time>2012-01-22T13:08:46Z</time>
      </trkpt>
      <trkpt lat="43.49055" lon="6.24938">
        <ele>171.9</ele>
        <time>2012-01-22T13:08:54Z</time>
      </trkpt>
      <trkpt lat="43.49047" lon="6.24943">
        <ele>171</ele>
        <time>2012-01-22T13:09:01Z</time>
      </trkpt>
      <trkpt lat="43.49041" lon="6.24949">
        <ele>171.9</ele>
        <time>2012-01-22T13:09:08Z</time>
      </trkpt>
      <trkpt lat="43.49034" lon="6.24955">
        <ele>172.4</ele>
        <time>2012-01-22T13:09:15Z</time>
      </trkpt>
      <trkpt lat="43.49027" lon="6.24961">
        <ele>170.5</ele>
        <time>2012-01-22T13:09:22Z</time>
      </trkpt>
      <trkpt lat="43.49026" lon="6.24962">
        <ele>170.4</ele>
        <time>2012-01-22T13:09:23Z</time>
      </trkpt>
      <trkpt lat="43.49014" lon="6.24974">
        <ele>170.6</ele>
        <time>2012-01-22T13:09:38Z</time>
      </trkpt>
      <trkpt lat="43.49006" lon="6.2498">
        <ele>169.6</ele>
        <time>2012-01-22T13:09:46Z</time>
      </trkpt>
      <trkpt lat="43.48999" lon="6.24987">
        <ele>169.8</ele>
        <time>2012-01-22T13:10:07Z</time>
      </trkpt>
      <trkpt lat="43.48991" lon="6.24983">
        <ele>169.1</ele>
        <time>2012-01-22T13:11:06Z</time>
      </trkpt>
      <trkpt lat="43.4899" lon="6.24982">
        <ele>168.5</ele>
        <time>2012-01-22T13:11:07Z</time>
      </trkpt>
      <trkpt lat="43.48976" lon="6.24969">
        <ele>169</ele>
        <time>2012-01-22T13:11:25Z</time>
      </trkpt>
      <trkpt lat="43.4897" lon="6.24962">
        <ele>168.2</ele>
        <time>2012-01-22T13:11:33Z</time>
      </trkpt>
      <trkpt lat="43.48963" lon="6.24955">
        <ele>167.3</ele>
        <time>2012-01-22T13:11:41Z</time>
      </trkpt>
      <trkpt lat="43.48957" lon="6.24948">
        <ele>168</ele>
        <time>2012-01-22T13:11:50Z</time>
      </trkpt>
      <trkpt lat="43.48948" lon="6.24947">
        <ele>168</ele>
        <time>2012-01-22T13:11:58Z</time>
      </trkpt>
      <trkpt lat="43.4894" lon="6.24949">
        <ele>168</ele>
        <time>2012-01-22T13:12:10Z</time>
      </trkpt>
      <trkpt lat="43.48939" lon="6.24949">
        <ele>167.9</ele>
        <time>2012-01-22T13:12:11Z</time>
      </trkpt>
      <trkpt lat="43.48923" lon="6.24951">
        <ele>167.7</ele>
        <time>2012-01-22T13:12:27Z</time>
      </trkpt>
      <trkpt lat="43.48915" lon="6.24953">
        <ele>166.6</ele>
        <time>2012-01-22T13:12:33Z</time>
      </trkpt>
      <trkpt lat="43.48907" lon="6.24955">
        <ele>166.3</ele>
        <time>2012-01-22T13:12:40Z</time>
      </trkpt>
      <trkpt lat="43.48899" lon="6.24957">
        <ele>167.6</ele>
        <time>2012-01-22T13:12:47Z</time>
      </trkpt>
      <trkpt lat="43.48891" lon="6.24961">
        <ele>167.3</ele>
        <time>2012-01-22T13:12:53Z</time>
      </trkpt>
      <trkpt lat="43.48883" lon="6.24966">
        <ele>167.5</ele>
        <time>2012-01-22T13:13:00Z</time>
      </trkpt>
      <trkpt lat="43.48875" lon="6.2497">
        <ele>168</ele>
        <time>2012-01-22T13:13:07Z</time>
      </trkpt>
      <trkpt lat="43.48867" lon="6.24974">
        <ele>168.1</ele>
        <time>2012-01-22T13:13:15Z</time>
      </trkpt>
      <trkpt lat="43.48866" lon="6.24974">
        <ele>167.7</ele>
        <time>2012-01-22T13:13:16Z</time>
      </trkpt>
      <trkpt lat="43.48853" lon="6.24986">
        <ele>169</ele>
        <time>2012-01-22T13:13:29Z</time>
      </trkpt>
      <trkpt lat="43.48845" lon="6.24992">
        <ele>169.4</ele>
        <time>2012-01-22T13:13:37Z</time>
      </trkpt>
      <trkpt lat="43.48837" lon="6.24998">
        <ele>170.5</ele>
        <time>2012-01-22T13:13:46Z</time>
      </trkpt>
      <trkpt lat="43.4883" lon="6.25003">
        <ele>157.3</ele>
        <time>2012-01-22T13:13:54Z</time>
      </trkpt>
      <trkpt lat="43.48822" lon="6.25008">
        <ele>152.6</ele>
        <time>2012-01-22T13:14:02Z</time>
      </trkpt>
      <trkpt lat="43.48814" lon="6.25011">
        <ele>151.8</ele>
        <time>2012-01-22T13:14:10Z</time>
      </trkpt>
      <trkpt lat="43.48807" lon="6.25013">
        <ele>151.7</ele>
        <time>2012-01-22T13:14:17Z</time>
      </trkpt>
      <trkpt lat="43.48805" lon="6.25014">
        <ele>151.5</ele>
        <time>2012-01-22T13:14:18Z</time>
      </trkpt>
      <trkpt lat="43.4879" lon="6.25016">
        <ele>149.3</ele>
        <time>2012-01-22T13:14:34Z</time>
      </trkpt>
      <trkpt lat="43.48782" lon="6.25014">
        <ele>148</ele>
        <time>2012-01-22T13:14:41Z</time>
      </trkpt>
      <trkpt lat="43.48775" lon="6.25007">
        <ele>147.4</ele>
        <time>2012-01-22T13:14:49Z</time>
      </trkpt>
      <trkpt lat="43.48768" lon="6.24999">
        <ele>147.7</ele>
        <time>2012-01-22T13:14:57Z</time>
      </trkpt>
      <trkpt lat="43.48762" lon="6.24991">
        <ele>147.2</ele>
        <time>2012-01-22T13:15:05Z</time>
      </trkpt>
      <trkpt lat="43.48757" lon="6.24983">
        <ele>147.3</ele>
        <time>2012-01-22T13:15:12Z</time>
      </trkpt>
      <trkpt lat="43.48751" lon="6.24975">
        <ele>146.3</ele>
        <time>2012-01-22T13:15:19Z</time>
      </trkpt>
      <trkpt lat="43.4875" lon="6.24974">
        <ele>146.5</ele>
        <time>2012-01-22T13:15:20Z</time>
      </trkpt>
      <trkpt lat="43.48742" lon="6.24955">
        <ele>146.6</ele>
        <time>2012-01-22T13:15:33Z</time>
      </trkpt>
      <trkpt lat="43.48738" lon="6.24946">
        <ele>146.5</ele>
        <time>2012-01-22T13:15:40Z</time>
      </trkpt>
      <trkpt lat="43.48734" lon="6.24935">
        <ele>144.6</ele>
        <time>2012-01-22T13:15:48Z</time>
      </trkpt>
      <trkpt lat="43.48728" lon="6.24925">
        <ele>144.7</ele>
        <time>2012-01-22T13:15:56Z</time>
      </trkpt>
      <trkpt lat="43.48723" lon="6.24916">
        <ele>142.7</ele>
        <time>2012-01-22T13:16:06Z</time>
      </trkpt>
      <trkpt lat="43.48717" lon="6.24908">
        <ele>142.1</ele>
        <time>2012-01-22T13:16:14Z</time>
      </trkpt>
      <trkpt lat="43.4871" lon="6.24903">
        <ele>142.2</ele>
        <time>2012-01-22T13:16:21Z</time>
      </trkpt>
      <trkpt lat="43.48709" lon="6.24902">
        <ele>141.8</ele>
        <time>2012-01-22T13:16:22Z</time>
      </trkpt>
      <trkpt lat="43.48696" lon="6.24889">
        <ele>139.6</ele>
        <time>2012-01-22T13:16:36Z</time>
      </trkpt>
      <trkpt lat="43.4869" lon="6.2488">
        <ele>138.4</ele>
        <time>2012-01-22T13:16:44Z</time>
      </trkpt>
      <trkpt lat="43.48685" lon="6.24872">
        <ele>138.4</ele>
        <time>2012-01-22T13:16:50Z</time>
      </trkpt>
      <trkpt lat="43.48681" lon="6.24863">
        <ele>138.2</ele>
        <time>2012-01-22T13:16:56Z</time>
      </trkpt>
      <trkpt lat="43.48676" lon="6.24853">
        <ele>137.9</ele>
        <time>2012-01-22T13:17:03Z</time>
      </trkpt>
      <trkpt lat="43.4867" lon="6.24845">
        <ele>137.9</ele>
        <time>2012-01-22T13:17:10Z</time>
      </trkpt>
      <trkpt lat="43.48664" lon="6.24837">
        <ele>138</ele>
        <time>2012-01-22T13:17:17Z</time>
      </trkpt>
      <trkpt lat="43.48659" lon="6.24828">
        <ele>137.8</ele>
        <time>2012-01-22T13:17:24Z</time>
      </trkpt>
      <trkpt lat="43.48658" lon="6.24827">
        <ele>137.4</ele>
        <time>2012-01-22T13:17:25Z</time>
      </trkpt>
      <trkpt lat="43.48653" lon="6.24806">
        <ele>138.3</ele>
        <time>2012-01-22T13:17:38Z</time>
      </trkpt>
      <trkpt lat="43.48652" lon="6.24794">
        <ele>137.6</ele>
        <time>2012-01-22T13:17:45Z</time>
      </trkpt>
      <trkpt lat="43.48651" lon="6.24782">
        <ele>138.3</ele>
        <time>2012-01-22T13:17:52Z</time>
      </trkpt>
      <trkpt lat="43.4865" lon="6.24771">
        <ele>139</ele>
        <time>2012-01-22T13:17:59Z</time>
      </trkpt>
      <trkpt lat="43.48649" lon="6.24759">
        <ele>138.4</ele>
        <time>2012-01-22T13:18:07Z</time>
      </trkpt>
      <trkpt lat="43.48648" lon="6.24747">
        <ele>139.6</ele>
        <time>2012-01-22T13:18:15Z</time>
      </trkpt>
      <trkpt lat="43.48647" lon="6.24736">
        <ele>139.1</ele>
        <time>2012-01-22T13:18:22Z</time>
      </trkpt>
      <trkpt lat="43.48646" lon="6.24725">
        <ele>139.7</ele>
        <time>2012-01-22T13:18:30Z</time>
      </trkpt>
      <trkpt lat="43.48646" lon="6.24723">
        <ele>139</ele>
        <time>2012-01-22T13:18:31Z</time>
      </trkpt>
      <trkpt lat="43.48645" lon="6.24701">
        <ele>138.9</ele>
        <time>2012-01-22T13:18:44Z</time>
      </trkpt>
      <trkpt lat="43.48645" lon="6.2469">
        <ele>140</ele>
        <time>2012-01-22T13:18:51Z</time>
      </trkpt>
      <trkpt lat="43.48639" lon="6.24682">
        <ele>140</ele>
        <time>2012-01-22T13:18:58Z</time>
      </trkpt>
      <trkpt lat="43.48639" lon="6.2467">
        <ele>140</ele>
        <time>2012-01-22T13:19:06Z</time>
      </trkpt>
      <trkpt lat="43.48641" lon="6.24658">
        <ele>139.9</ele>
        <time>2012-01-22T13:19:14Z</time>
      </trkpt>
      <trkpt lat="43.48641" lon="6.24646">
        <ele>138.8</ele>
        <time>2012-01-22T13:19:21Z</time>
      </trkpt>
      <trkpt lat="43.48642" lon="6.24635">
        <ele>141</ele>
        <time>2012-01-22T13:19:28Z</time>
      </trkpt>
      <trkpt lat="43.48644" lon="6.24624">
        <ele>140.4</ele>
        <time>2012-01-22T13:19:35Z</time>
      </trkpt>
      <trkpt lat="43.48644" lon="6.24622">
        <ele>140.7</ele>
        <time>2012-01-22T13:19:36Z</time>
      </trkpt>
    </trkseg>
  </trk>
</gpx>